<?xml version="1.0" encoding="UTF-8" standalone="no" ?>
<gpx xmlns="http://www.topografix.com/GPX/1/1" xmlns:xsi="http://www.w3.org/2001/XMLSchema-instance" xsi:schemaLocation="http://www.topografix.com/GPX/1/1 http://www.topografix.com/GPX/1/1/gpx.xsd" version="1.1" creator="VisuGPX - https://www.visugpx.com">
  <metadata>
    <name>GR20</name>
    <desc><![CDATA[GR20 - Juin 2015]]></desc>
  </metadata>
  <trk>
    <name><![CDATA[GR20 Petra Piana - Manganu]]></name>
    <trkseg>
      <trkpt lat="42.19623" lon="9.05221">
        <ele>1932.2</ele>
        <time>2015-06-26T03:53:04Z</time>
      </trkpt>
      <trkpt lat="42.19632" lon="9.05223">
        <ele>1932.2</ele>
        <time>2015-06-26T03:53:06Z</time>
      </trkpt>
      <trkpt lat="42.19655" lon="9.05224">
        <ele>1932.2</ele>
        <time>2015-06-26T03:53:12Z</time>
      </trkpt>
      <trkpt lat="42.19661" lon="9.05222">
        <ele>1932</ele>
        <time>2015-06-26T03:53:14Z</time>
      </trkpt>
      <trkpt lat="42.19667" lon="9.05221">
        <ele>1932.4</ele>
        <time>2015-06-26T03:53:16Z</time>
      </trkpt>
      <trkpt lat="42.197" lon="9.05224">
        <ele>1932.4</ele>
        <time>2015-06-26T03:53:22Z</time>
      </trkpt>
      <trkpt lat="42.19725" lon="9.05224">
        <ele>1932.2</ele>
        <time>2015-06-26T03:53:26Z</time>
      </trkpt>
      <trkpt lat="42.19735" lon="9.05223">
        <ele>1932.4</ele>
        <time>2015-06-26T03:53:28Z</time>
      </trkpt>
      <trkpt lat="42.19744" lon="9.0522">
        <ele>1932.2</ele>
        <time>2015-06-26T03:53:31Z</time>
      </trkpt>
      <trkpt lat="42.19805" lon="9.05203">
        <ele>1932.4</ele>
        <time>2015-06-26T03:53:34Z</time>
      </trkpt>
      <trkpt lat="42.19822" lon="9.05182">
        <ele>1933.6</ele>
        <time>2015-06-26T03:53:52Z</time>
      </trkpt>
      <trkpt lat="42.19822" lon="9.0517">
        <ele>1934.2</ele>
        <time>2015-06-26T03:54:05Z</time>
      </trkpt>
      <trkpt lat="42.19822" lon="9.05165">
        <ele>1934.6</ele>
        <time>2015-06-26T03:54:16Z</time>
      </trkpt>
      <trkpt lat="42.19825" lon="9.05163">
        <ele>1934.6</ele>
        <time>2015-06-26T03:54:24Z</time>
      </trkpt>
      <trkpt lat="42.19836" lon="9.05156">
        <ele>1940.4</ele>
        <time>2015-06-26T03:55:22Z</time>
      </trkpt>
      <trkpt lat="42.19839" lon="9.0515">
        <ele>1942.6</ele>
        <time>2015-06-26T03:55:47Z</time>
      </trkpt>
      <trkpt lat="42.19843" lon="9.05145">
        <ele>1945</ele>
        <time>2015-06-26T03:56:16Z</time>
      </trkpt>
      <trkpt lat="42.19843" lon="9.05145">
        <ele>1945.4</ele>
        <time>2015-06-26T03:56:24Z</time>
      </trkpt>
      <trkpt lat="42.19843" lon="9.05145">
        <ele>1945.6</ele>
        <time>2015-06-26T03:56:33Z</time>
      </trkpt>
      <trkpt lat="42.19845" lon="9.05144">
        <ele>1945.4</ele>
        <time>2015-06-26T03:56:39Z</time>
      </trkpt>
      <trkpt lat="42.19845" lon="9.05144">
        <ele>1945.4</ele>
        <time>2015-06-26T03:56:40Z</time>
      </trkpt>
      <trkpt lat="42.19852" lon="9.05137">
        <ele>1947.6</ele>
        <time>2015-06-26T03:57:10Z</time>
      </trkpt>
      <trkpt lat="42.19853" lon="9.05123">
        <ele>1951.4</ele>
        <time>2015-06-26T03:57:42Z</time>
      </trkpt>
      <trkpt lat="42.19853" lon="9.0512">
        <ele>1951.6</ele>
        <time>2015-06-26T03:57:45Z</time>
      </trkpt>
      <trkpt lat="42.19867" lon="9.051">
        <ele>1958.2</ele>
        <time>2015-06-26T03:58:41Z</time>
      </trkpt>
      <trkpt lat="42.1988" lon="9.05051">
        <ele>1968.2</ele>
        <time>2015-06-26T04:00:16Z</time>
      </trkpt>
      <trkpt lat="42.19874" lon="9.05034">
        <ele>1971.6</ele>
        <time>2015-06-26T04:00:50Z</time>
      </trkpt>
      <trkpt lat="42.19872" lon="9.05032">
        <ele>1971.6</ele>
        <time>2015-06-26T04:00:55Z</time>
      </trkpt>
      <trkpt lat="42.19871" lon="9.05031">
        <ele>1971.2</ele>
        <time>2015-06-26T04:01:02Z</time>
      </trkpt>
      <trkpt lat="42.1987" lon="9.05023">
        <ele>1971.8</ele>
        <time>2015-06-26T04:01:19Z</time>
      </trkpt>
      <trkpt lat="42.19894" lon="9.04993">
        <ele>1987.4</ele>
        <time>2015-06-26T04:03:55Z</time>
      </trkpt>
      <trkpt lat="42.19907" lon="9.04963">
        <ele>1996.8</ele>
        <time>2015-06-26T04:05:23Z</time>
      </trkpt>
      <trkpt lat="42.19895" lon="9.04953">
        <ele>2001</ele>
        <time>2015-06-26T04:06:08Z</time>
      </trkpt>
      <trkpt lat="42.19907" lon="9.04938">
        <ele>2006.6</ele>
        <time>2015-06-26T04:07:09Z</time>
      </trkpt>
      <trkpt lat="42.19905" lon="9.04917">
        <ele>2013.8</ele>
        <time>2015-06-26T04:08:25Z</time>
      </trkpt>
      <trkpt lat="42.19907" lon="9.04913">
        <ele>2015.6</ele>
        <time>2015-06-26T04:08:40Z</time>
      </trkpt>
      <trkpt lat="42.19911" lon="9.04911">
        <ele>2017.6</ele>
        <time>2015-06-26T04:08:56Z</time>
      </trkpt>
      <trkpt lat="42.19905" lon="9.04894">
        <ele>2021.4</ele>
        <time>2015-06-26T04:09:28Z</time>
      </trkpt>
      <trkpt lat="42.19911" lon="9.04873">
        <ele>2027</ele>
        <time>2015-06-26T04:10:28Z</time>
      </trkpt>
      <trkpt lat="42.19908" lon="9.04852">
        <ele>2033</ele>
        <time>2015-06-26T04:11:50Z</time>
      </trkpt>
      <trkpt lat="42.19907" lon="9.0483">
        <ele>2036.4</ele>
        <time>2015-06-26T04:12:34Z</time>
      </trkpt>
      <trkpt lat="42.19911" lon="9.04821">
        <ele>2040.6</ele>
        <time>2015-06-26T04:13:16Z</time>
      </trkpt>
      <trkpt lat="42.19916" lon="9.04822">
        <ele>2042.8</ele>
        <time>2015-06-26T04:13:33Z</time>
      </trkpt>
      <trkpt lat="42.19917" lon="9.04823">
        <ele>2043.2</ele>
        <time>2015-06-26T04:13:36Z</time>
      </trkpt>
      <trkpt lat="42.19926" lon="9.04823">
        <ele>2046</ele>
        <time>2015-06-26T04:14:01Z</time>
      </trkpt>
      <trkpt lat="42.19928" lon="9.04817">
        <ele>2048.2</ele>
        <time>2015-06-26T04:14:17Z</time>
      </trkpt>
      <trkpt lat="42.19926" lon="9.04808">
        <ele>2050.6</ele>
        <time>2015-06-26T04:14:40Z</time>
      </trkpt>
      <trkpt lat="42.19926" lon="9.04799">
        <ele>2052.4</ele>
        <time>2015-06-26T04:14:54Z</time>
      </trkpt>
      <trkpt lat="42.19925" lon="9.04786">
        <ele>2055</ele>
        <time>2015-06-26T04:15:19Z</time>
      </trkpt>
      <trkpt lat="42.19923" lon="9.04778">
        <ele>2057</ele>
        <time>2015-06-26T04:15:33Z</time>
      </trkpt>
      <trkpt lat="42.19928" lon="9.0477">
        <ele>2060.2</ele>
        <time>2015-06-26T04:16:10Z</time>
      </trkpt>
      <trkpt lat="42.19934" lon="9.04768">
        <ele>2062.6</ele>
        <time>2015-06-26T04:16:28Z</time>
      </trkpt>
      <trkpt lat="42.19934" lon="9.04762">
        <ele>2064.6</ele>
        <time>2015-06-26T04:16:41Z</time>
      </trkpt>
      <trkpt lat="42.19931" lon="9.04752">
        <ele>2066.8</ele>
        <time>2015-06-26T04:16:59Z</time>
      </trkpt>
      <trkpt lat="42.19928" lon="9.04744">
        <ele>2068.6</ele>
        <time>2015-06-26T04:17:14Z</time>
      </trkpt>
      <trkpt lat="42.19927" lon="9.04731">
        <ele>2072</ele>
        <time>2015-06-26T04:17:50Z</time>
      </trkpt>
      <trkpt lat="42.19933" lon="9.04727">
        <ele>2074.8</ele>
        <time>2015-06-26T04:18:20Z</time>
      </trkpt>
      <trkpt lat="42.19937" lon="9.04727">
        <ele>2077.4</ele>
        <time>2015-06-26T04:18:41Z</time>
      </trkpt>
      <trkpt lat="42.19943" lon="9.04726">
        <ele>2079.6</ele>
        <time>2015-06-26T04:19:04Z</time>
      </trkpt>
      <trkpt lat="42.19951" lon="9.04728">
        <ele>2081.2</ele>
        <time>2015-06-26T04:19:19Z</time>
      </trkpt>
      <trkpt lat="42.19958" lon="9.04728">
        <ele>2083.4</ele>
        <time>2015-06-26T04:19:33Z</time>
      </trkpt>
      <trkpt lat="42.19962" lon="9.04725">
        <ele>2085.4</ele>
        <time>2015-06-26T04:19:50Z</time>
      </trkpt>
      <trkpt lat="42.19965" lon="9.04725">
        <ele>2087.2</ele>
        <time>2015-06-26T04:20:03Z</time>
      </trkpt>
      <trkpt lat="42.19963" lon="9.04719">
        <ele>2089.2</ele>
        <time>2015-06-26T04:20:19Z</time>
      </trkpt>
      <trkpt lat="42.19969" lon="9.04717">
        <ele>2091.2</ele>
        <time>2015-06-26T04:20:39Z</time>
      </trkpt>
      <trkpt lat="42.19974" lon="9.04715">
        <ele>2093.2</ele>
        <time>2015-06-26T04:20:55Z</time>
      </trkpt>
      <trkpt lat="42.19978" lon="9.04714">
        <ele>2095.4</ele>
        <time>2015-06-26T04:21:11Z</time>
      </trkpt>
      <trkpt lat="42.1998" lon="9.04711">
        <ele>2097.2</ele>
        <time>2015-06-26T04:21:26Z</time>
      </trkpt>
      <trkpt lat="42.20003" lon="9.0472">
        <ele>2103.4</ele>
        <time>2015-06-26T04:23:05Z</time>
      </trkpt>
      <trkpt lat="42.19999" lon="9.04712">
        <ele>2105.2</ele>
        <time>2015-06-26T04:23:24Z</time>
      </trkpt>
      <trkpt lat="42.19998" lon="9.04704">
        <ele>2107.4</ele>
        <time>2015-06-26T04:23:41Z</time>
      </trkpt>
      <trkpt lat="42.20001" lon="9.04705">
        <ele>2108.2</ele>
        <time>2015-06-26T04:23:50Z</time>
      </trkpt>
      <trkpt lat="42.20007" lon="9.04705">
        <ele>2110</ele>
        <time>2015-06-26T04:24:01Z</time>
      </trkpt>
      <trkpt lat="42.2001" lon="9.04702">
        <ele>2112</ele>
        <time>2015-06-26T04:24:15Z</time>
      </trkpt>
      <trkpt lat="42.20011" lon="9.047">
        <ele>2113.6</ele>
        <time>2015-06-26T04:24:28Z</time>
      </trkpt>
      <trkpt lat="42.20014" lon="9.04699">
        <ele>2115.8</ele>
        <time>2015-06-26T04:24:46Z</time>
      </trkpt>
      <trkpt lat="42.20013" lon="9.04696">
        <ele>2117.2</ele>
        <time>2015-06-26T04:25:00Z</time>
      </trkpt>
      <trkpt lat="42.20013" lon="9.04689">
        <ele>2119.2</ele>
        <time>2015-06-26T04:25:22Z</time>
      </trkpt>
      <trkpt lat="42.20009" lon="9.04682">
        <ele>2121.4</ele>
        <time>2015-06-26T04:25:41Z</time>
      </trkpt>
      <trkpt lat="42.20006" lon="9.04677">
        <ele>2123.6</ele>
        <time>2015-06-26T04:26:07Z</time>
      </trkpt>
      <trkpt lat="42.20004" lon="9.04676">
        <ele>2125.2</ele>
        <time>2015-06-26T04:26:19Z</time>
      </trkpt>
      <trkpt lat="42.20005" lon="9.04672">
        <ele>2126.6</ele>
        <time>2015-06-26T04:26:30Z</time>
      </trkpt>
      <trkpt lat="42.20001" lon="9.04668">
        <ele>2128.2</ele>
        <time>2015-06-26T04:26:40Z</time>
      </trkpt>
      <trkpt lat="42.2" lon="9.04662">
        <ele>2130</ele>
        <time>2015-06-26T04:27:26Z</time>
      </trkpt>
      <trkpt lat="42.20001" lon="9.04663">
        <ele>2130.2</ele>
        <time>2015-06-26T04:27:58Z</time>
      </trkpt>
      <trkpt lat="42.19999" lon="9.04664">
        <ele>2130.4</ele>
        <time>2015-06-26T04:28:18Z</time>
      </trkpt>
      <trkpt lat="42.19999" lon="9.04662">
        <ele>2130</ele>
        <time>2015-06-26T04:28:31Z</time>
      </trkpt>
      <trkpt lat="42.19998" lon="9.04661">
        <ele>2129.8</ele>
        <time>2015-06-26T04:28:54Z</time>
      </trkpt>
      <trkpt lat="42.19999" lon="9.04661">
        <ele>2129.8</ele>
        <time>2015-06-26T04:29:22Z</time>
      </trkpt>
      <trkpt lat="42.19999" lon="9.04662">
        <ele>2129.8</ele>
        <time>2015-06-26T04:29:39Z</time>
      </trkpt>
      <trkpt lat="42.19999" lon="9.04661">
        <ele>2129.4</ele>
        <time>2015-06-26T04:30:03Z</time>
      </trkpt>
      <trkpt lat="42.19999" lon="9.04662">
        <ele>2129.4</ele>
        <time>2015-06-26T04:30:25Z</time>
      </trkpt>
      <trkpt lat="42.19999" lon="9.04662">
        <ele>2129.2</ele>
        <time>2015-06-26T04:30:53Z</time>
      </trkpt>
      <trkpt lat="42.19999" lon="9.04662">
        <ele>2130</ele>
        <time>2015-06-26T04:31:32Z</time>
      </trkpt>
      <trkpt lat="42.19999" lon="9.04663">
        <ele>2129.8</ele>
        <time>2015-06-26T04:32:02Z</time>
      </trkpt>
      <trkpt lat="42.19998" lon="9.04663">
        <ele>2129.4</ele>
        <time>2015-06-26T04:32:23Z</time>
      </trkpt>
      <trkpt lat="42.19999" lon="9.04651">
        <ele>2129.2</ele>
        <time>2015-06-26T04:32:38Z</time>
      </trkpt>
      <trkpt lat="42.19999" lon="9.04646">
        <ele>2129</ele>
        <time>2015-06-26T04:32:43Z</time>
      </trkpt>
      <trkpt lat="42.19999" lon="9.04642">
        <ele>2128.4</ele>
        <time>2015-06-26T04:32:48Z</time>
      </trkpt>
      <trkpt lat="42.2" lon="9.04634">
        <ele>2126.6</ele>
        <time>2015-06-26T04:33:04Z</time>
      </trkpt>
      <trkpt lat="42.2" lon="9.0463">
        <ele>2126.6</ele>
        <time>2015-06-26T04:33:08Z</time>
      </trkpt>
      <trkpt lat="42.20001" lon="9.04628">
        <ele>2125.8</ele>
        <time>2015-06-26T04:33:13Z</time>
      </trkpt>
      <trkpt lat="42.20011" lon="9.0462">
        <ele>2125.6</ele>
        <time>2015-06-26T04:33:33Z</time>
      </trkpt>
      <trkpt lat="42.20015" lon="9.04615">
        <ele>2127</ele>
        <time>2015-06-26T04:33:43Z</time>
      </trkpt>
      <trkpt lat="42.20021" lon="9.0461">
        <ele>2129</ele>
        <time>2015-06-26T04:33:57Z</time>
      </trkpt>
      <trkpt lat="42.20024" lon="9.04607">
        <ele>2129.8</ele>
        <time>2015-06-26T04:34:04Z</time>
      </trkpt>
      <trkpt lat="42.20029" lon="9.04602">
        <ele>2131.6</ele>
        <time>2015-06-26T04:34:20Z</time>
      </trkpt>
      <trkpt lat="42.20034" lon="9.04593">
        <ele>2133.2</ele>
        <time>2015-06-26T04:34:33Z</time>
      </trkpt>
      <trkpt lat="42.20041" lon="9.04581">
        <ele>2135</ele>
        <time>2015-06-26T04:34:53Z</time>
      </trkpt>
      <trkpt lat="42.20047" lon="9.04571">
        <ele>2136.2</ele>
        <time>2015-06-26T04:35:08Z</time>
      </trkpt>
      <trkpt lat="42.20052" lon="9.04568">
        <ele>2137.4</ele>
        <time>2015-06-26T04:35:21Z</time>
      </trkpt>
      <trkpt lat="42.20056" lon="9.04568">
        <ele>2138.6</ele>
        <time>2015-06-26T04:35:31Z</time>
      </trkpt>
      <trkpt lat="42.20061" lon="9.04569">
        <ele>2140.2</ele>
        <time>2015-06-26T04:35:42Z</time>
      </trkpt>
      <trkpt lat="42.20063" lon="9.04568">
        <ele>2141.6</ele>
        <time>2015-06-26T04:35:52Z</time>
      </trkpt>
      <trkpt lat="42.20066" lon="9.04565">
        <ele>2143</ele>
        <time>2015-06-26T04:36:01Z</time>
      </trkpt>
      <trkpt lat="42.2007" lon="9.04564">
        <ele>2144.2</ele>
        <time>2015-06-26T04:36:12Z</time>
      </trkpt>
      <trkpt lat="42.20076" lon="9.0456">
        <ele>2146</ele>
        <time>2015-06-26T04:36:39Z</time>
      </trkpt>
      <trkpt lat="42.20079" lon="9.04561">
        <ele>2147.2</ele>
        <time>2015-06-26T04:36:49Z</time>
      </trkpt>
      <trkpt lat="42.20082" lon="9.04559">
        <ele>2149.2</ele>
        <time>2015-06-26T04:37:07Z</time>
      </trkpt>
      <trkpt lat="42.20085" lon="9.04556">
        <ele>2150</ele>
        <time>2015-06-26T04:37:14Z</time>
      </trkpt>
      <trkpt lat="42.20089" lon="9.04554">
        <ele>2151.8</ele>
        <time>2015-06-26T04:37:25Z</time>
      </trkpt>
      <trkpt lat="42.20092" lon="9.04549">
        <ele>2152.6</ele>
        <time>2015-06-26T04:37:33Z</time>
      </trkpt>
      <trkpt lat="42.2011" lon="9.04528">
        <ele>2156</ele>
        <time>2015-06-26T04:38:35Z</time>
      </trkpt>
      <trkpt lat="42.20118" lon="9.04521">
        <ele>2157.2</ele>
        <time>2015-06-26T04:38:52Z</time>
      </trkpt>
      <trkpt lat="42.20122" lon="9.04517">
        <ele>2158.2</ele>
        <time>2015-06-26T04:39:02Z</time>
      </trkpt>
      <trkpt lat="42.20126" lon="9.0451">
        <ele>2159.6</ele>
        <time>2015-06-26T04:39:13Z</time>
      </trkpt>
      <trkpt lat="42.20133" lon="9.04506">
        <ele>2161</ele>
        <time>2015-06-26T04:39:26Z</time>
      </trkpt>
      <trkpt lat="42.20139" lon="9.04503">
        <ele>2163.2</ele>
        <time>2015-06-26T04:39:51Z</time>
      </trkpt>
      <trkpt lat="42.20154" lon="9.04495">
        <ele>2164.6</ele>
        <time>2015-06-26T04:40:25Z</time>
      </trkpt>
      <trkpt lat="42.20158" lon="9.04492">
        <ele>2166</ele>
        <time>2015-06-26T04:40:35Z</time>
      </trkpt>
      <trkpt lat="42.2018" lon="9.04472">
        <ele>2167.2</ele>
        <time>2015-06-26T04:41:21Z</time>
      </trkpt>
      <trkpt lat="42.20202" lon="9.04457">
        <ele>2167.8</ele>
        <time>2015-06-26T04:42:39Z</time>
      </trkpt>
      <trkpt lat="42.2022" lon="9.0444">
        <ele>2167.8</ele>
        <time>2015-06-26T04:43:10Z</time>
      </trkpt>
      <trkpt lat="42.2023" lon="9.04436">
        <ele>2166.8</ele>
        <time>2015-06-26T04:43:24Z</time>
      </trkpt>
      <trkpt lat="42.20232" lon="9.04432">
        <ele>2166.4</ele>
        <time>2015-06-26T04:43:37Z</time>
      </trkpt>
      <trkpt lat="42.20237" lon="9.0443">
        <ele>2165.8</ele>
        <time>2015-06-26T04:43:43Z</time>
      </trkpt>
      <trkpt lat="42.20246" lon="9.04427">
        <ele>2164.4</ele>
        <time>2015-06-26T04:43:57Z</time>
      </trkpt>
      <trkpt lat="42.20267" lon="9.04414">
        <ele>2166</ele>
        <time>2015-06-26T04:45:16Z</time>
      </trkpt>
      <trkpt lat="42.2027" lon="9.04408">
        <ele>2167.6</ele>
        <time>2015-06-26T04:45:28Z</time>
      </trkpt>
      <trkpt lat="42.20272" lon="9.04412">
        <ele>2168.2</ele>
        <time>2015-06-26T04:45:37Z</time>
      </trkpt>
      <trkpt lat="42.20276" lon="9.04411">
        <ele>2170.6</ele>
        <time>2015-06-26T04:45:51Z</time>
      </trkpt>
      <trkpt lat="42.20279" lon="9.04409">
        <ele>2171.2</ele>
        <time>2015-06-26T04:45:58Z</time>
      </trkpt>
      <trkpt lat="42.2028" lon="9.04411">
        <ele>2172.8</ele>
        <time>2015-06-26T04:46:11Z</time>
      </trkpt>
      <trkpt lat="42.20284" lon="9.04412">
        <ele>2174.2</ele>
        <time>2015-06-26T04:46:27Z</time>
      </trkpt>
      <trkpt lat="42.20297" lon="9.04404">
        <ele>2176</ele>
        <time>2015-06-26T04:46:59Z</time>
      </trkpt>
      <trkpt lat="42.20298" lon="9.04404">
        <ele>2177</ele>
        <time>2015-06-26T04:47:08Z</time>
      </trkpt>
      <trkpt lat="42.20302" lon="9.04404">
        <ele>2178.6</ele>
        <time>2015-06-26T04:47:18Z</time>
      </trkpt>
      <trkpt lat="42.20307" lon="9.04399">
        <ele>2179.8</ele>
        <time>2015-06-26T04:47:31Z</time>
      </trkpt>
      <trkpt lat="42.20309" lon="9.04395">
        <ele>2181</ele>
        <time>2015-06-26T04:47:39Z</time>
      </trkpt>
      <trkpt lat="42.20312" lon="9.04392">
        <ele>2182.6</ele>
        <time>2015-06-26T04:47:50Z</time>
      </trkpt>
      <trkpt lat="42.20314" lon="9.0439">
        <ele>2183.6</ele>
        <time>2015-06-26T04:47:58Z</time>
      </trkpt>
      <trkpt lat="42.20324" lon="9.04372">
        <ele>2185.6</ele>
        <time>2015-06-26T04:48:36Z</time>
      </trkpt>
      <trkpt lat="42.20332" lon="9.04358">
        <ele>2187.4</ele>
        <time>2015-06-26T04:48:57Z</time>
      </trkpt>
      <trkpt lat="42.20337" lon="9.04355">
        <ele>2187.8</ele>
        <time>2015-06-26T04:49:06Z</time>
      </trkpt>
      <trkpt lat="42.20341" lon="9.0435">
        <ele>2188.6</ele>
        <time>2015-06-26T04:49:15Z</time>
      </trkpt>
      <trkpt lat="42.20349" lon="9.04349">
        <ele>2189.8</ele>
        <time>2015-06-26T04:49:29Z</time>
      </trkpt>
      <trkpt lat="42.20368" lon="9.04312">
        <ele>2192.4</ele>
        <time>2015-06-26T04:50:38Z</time>
      </trkpt>
      <trkpt lat="42.2037" lon="9.04312">
        <ele>2193.6</ele>
        <time>2015-06-26T04:50:46Z</time>
      </trkpt>
      <trkpt lat="42.20373" lon="9.04313">
        <ele>2194.8</ele>
        <time>2015-06-26T04:50:55Z</time>
      </trkpt>
      <trkpt lat="42.20377" lon="9.04313">
        <ele>2196.2</ele>
        <time>2015-06-26T04:51:04Z</time>
      </trkpt>
      <trkpt lat="42.20379" lon="9.04313">
        <ele>2197.4</ele>
        <time>2015-06-26T04:51:14Z</time>
      </trkpt>
      <trkpt lat="42.20383" lon="9.04311">
        <ele>2198.4</ele>
        <time>2015-06-26T04:51:23Z</time>
      </trkpt>
      <trkpt lat="42.20387" lon="9.0431">
        <ele>2199.8</ele>
        <time>2015-06-26T04:51:34Z</time>
      </trkpt>
      <trkpt lat="42.2039" lon="9.04311">
        <ele>2200.8</ele>
        <time>2015-06-26T04:51:42Z</time>
      </trkpt>
      <trkpt lat="42.20393" lon="9.04308">
        <ele>2202.2</ele>
        <time>2015-06-26T04:51:51Z</time>
      </trkpt>
      <trkpt lat="42.204" lon="9.04297">
        <ele>2203.8</ele>
        <time>2015-06-26T04:52:08Z</time>
      </trkpt>
      <trkpt lat="42.20405" lon="9.04279">
        <ele>2205.4</ele>
        <time>2015-06-26T04:52:41Z</time>
      </trkpt>
      <trkpt lat="42.20408" lon="9.04277">
        <ele>2206.4</ele>
        <time>2015-06-26T04:52:52Z</time>
      </trkpt>
      <trkpt lat="42.2041" lon="9.04276">
        <ele>2207.4</ele>
        <time>2015-06-26T04:53:04Z</time>
      </trkpt>
      <trkpt lat="42.20413" lon="9.04271">
        <ele>2208.4</ele>
        <time>2015-06-26T04:53:12Z</time>
      </trkpt>
      <trkpt lat="42.20417" lon="9.04265">
        <ele>2210</ele>
        <time>2015-06-26T04:53:23Z</time>
      </trkpt>
      <trkpt lat="42.20422" lon="9.04261">
        <ele>2211.2</ele>
        <time>2015-06-26T04:53:33Z</time>
      </trkpt>
      <trkpt lat="42.20427" lon="9.0425">
        <ele>2213</ele>
        <time>2015-06-26T04:53:51Z</time>
      </trkpt>
      <trkpt lat="42.20428" lon="9.04248">
        <ele>2213.4</ele>
        <time>2015-06-26T04:53:55Z</time>
      </trkpt>
      <trkpt lat="42.2043" lon="9.04246">
        <ele>2214.2</ele>
        <time>2015-06-26T04:54:02Z</time>
      </trkpt>
      <trkpt lat="42.20433" lon="9.04241">
        <ele>2215.6</ele>
        <time>2015-06-26T04:54:15Z</time>
      </trkpt>
      <trkpt lat="42.20439" lon="9.04228">
        <ele>2217</ele>
        <time>2015-06-26T04:54:35Z</time>
      </trkpt>
      <trkpt lat="42.20447" lon="9.04213">
        <ele>2218.2</ele>
        <time>2015-06-26T04:55:01Z</time>
      </trkpt>
      <trkpt lat="42.20463" lon="9.04169">
        <ele>2220.2</ele>
        <time>2015-06-26T04:56:07Z</time>
      </trkpt>
      <trkpt lat="42.20467" lon="9.04145">
        <ele>2222.8</ele>
        <time>2015-06-26T04:56:50Z</time>
      </trkpt>
      <trkpt lat="42.20468" lon="9.04138">
        <ele>2223.4</ele>
        <time>2015-06-26T04:56:58Z</time>
      </trkpt>
      <trkpt lat="42.20473" lon="9.04129">
        <ele>2224.8</ele>
        <time>2015-06-26T04:57:12Z</time>
      </trkpt>
      <trkpt lat="42.20475" lon="9.04124">
        <ele>2226.2</ele>
        <time>2015-06-26T04:57:26Z</time>
      </trkpt>
      <trkpt lat="42.20481" lon="9.04112">
        <ele>2227.2</ele>
        <time>2015-06-26T04:57:44Z</time>
      </trkpt>
      <trkpt lat="42.20481" lon="9.0411">
        <ele>2227.2</ele>
        <time>2015-06-26T04:57:46Z</time>
      </trkpt>
      <trkpt lat="42.20484" lon="9.04099">
        <ele>2228</ele>
        <time>2015-06-26T04:57:59Z</time>
      </trkpt>
      <trkpt lat="42.20488" lon="9.0409">
        <ele>2229.6</ele>
        <time>2015-06-26T04:58:17Z</time>
      </trkpt>
      <trkpt lat="42.20503" lon="9.04072">
        <ele>2230.8</ele>
        <time>2015-06-26T04:59:09Z</time>
      </trkpt>
      <trkpt lat="42.20506" lon="9.04065">
        <ele>2232.4</ele>
        <time>2015-06-26T04:59:26Z</time>
      </trkpt>
      <trkpt lat="42.20513" lon="9.04056">
        <ele>2233.6</ele>
        <time>2015-06-26T04:59:54Z</time>
      </trkpt>
      <trkpt lat="42.20516" lon="9.0405">
        <ele>2234.8</ele>
        <time>2015-06-26T05:00:07Z</time>
      </trkpt>
      <trkpt lat="42.20522" lon="9.04043">
        <ele>2236.4</ele>
        <time>2015-06-26T05:00:22Z</time>
      </trkpt>
      <trkpt lat="42.20526" lon="9.04037">
        <ele>2237</ele>
        <time>2015-06-26T05:00:36Z</time>
      </trkpt>
      <trkpt lat="42.20531" lon="9.04034">
        <ele>2238.6</ele>
        <time>2015-06-26T05:00:51Z</time>
      </trkpt>
      <trkpt lat="42.20536" lon="9.0403">
        <ele>2240</ele>
        <time>2015-06-26T05:01:01Z</time>
      </trkpt>
      <trkpt lat="42.20539" lon="9.04027">
        <ele>2241</ele>
        <time>2015-06-26T05:01:10Z</time>
      </trkpt>
      <trkpt lat="42.20542" lon="9.04021">
        <ele>2241.6</ele>
        <time>2015-06-26T05:01:19Z</time>
      </trkpt>
      <trkpt lat="42.20551" lon="9.03999">
        <ele>2243.6</ele>
        <time>2015-06-26T05:01:56Z</time>
      </trkpt>
      <trkpt lat="42.20556" lon="9.03993">
        <ele>2244.6</ele>
        <time>2015-06-26T05:02:11Z</time>
      </trkpt>
      <trkpt lat="42.2056" lon="9.03986">
        <ele>2246</ele>
        <time>2015-06-26T05:02:35Z</time>
      </trkpt>
      <trkpt lat="42.20561" lon="9.03974">
        <ele>2247.8</ele>
        <time>2015-06-26T05:03:13Z</time>
      </trkpt>
      <trkpt lat="42.20582" lon="9.03929">
        <ele>2247.6</ele>
        <time>2015-06-26T05:04:30Z</time>
      </trkpt>
      <trkpt lat="42.20591" lon="9.03921">
        <ele>2249.4</ele>
        <time>2015-06-26T05:04:55Z</time>
      </trkpt>
      <trkpt lat="42.20595" lon="9.03915">
        <ele>2250.4</ele>
        <time>2015-06-26T05:05:09Z</time>
      </trkpt>
      <trkpt lat="42.20608" lon="9.03902">
        <ele>2251.4</ele>
        <time>2015-06-26T05:05:42Z</time>
      </trkpt>
      <trkpt lat="42.20614" lon="9.03894">
        <ele>2253</ele>
        <time>2015-06-26T05:05:55Z</time>
      </trkpt>
      <trkpt lat="42.2062" lon="9.03887">
        <ele>2254.2</ele>
        <time>2015-06-26T05:06:10Z</time>
      </trkpt>
      <trkpt lat="42.20623" lon="9.03881">
        <ele>2255</ele>
        <time>2015-06-26T05:06:20Z</time>
      </trkpt>
      <trkpt lat="42.20634" lon="9.03868">
        <ele>2256.2</ele>
        <time>2015-06-26T05:06:48Z</time>
      </trkpt>
      <trkpt lat="42.20637" lon="9.03868">
        <ele>2256.6</ele>
        <time>2015-06-26T05:06:54Z</time>
      </trkpt>
      <trkpt lat="42.20641" lon="9.03865">
        <ele>2257.4</ele>
        <time>2015-06-26T05:07:03Z</time>
      </trkpt>
      <trkpt lat="42.20644" lon="9.03845">
        <ele>2258.8</ele>
        <time>2015-06-26T05:07:37Z</time>
      </trkpt>
      <trkpt lat="42.20644" lon="9.03843">
        <ele>2260.4</ele>
        <time>2015-06-26T05:07:53Z</time>
      </trkpt>
      <trkpt lat="42.20645" lon="9.03843">
        <ele>2260.8</ele>
        <time>2015-06-26T05:08:01Z</time>
      </trkpt>
      <trkpt lat="42.20645" lon="9.03841">
        <ele>2262.2</ele>
        <time>2015-06-26T05:08:10Z</time>
      </trkpt>
      <trkpt lat="42.20647" lon="9.0384">
        <ele>2263.8</ele>
        <time>2015-06-26T05:08:25Z</time>
      </trkpt>
      <trkpt lat="42.20649" lon="9.03838">
        <ele>2264.6</ele>
        <time>2015-06-26T05:08:35Z</time>
      </trkpt>
      <trkpt lat="42.20656" lon="9.03824">
        <ele>2266.4</ele>
        <time>2015-06-26T05:08:55Z</time>
      </trkpt>
      <trkpt lat="42.20657" lon="9.03819">
        <ele>2266.8</ele>
        <time>2015-06-26T05:09:03Z</time>
      </trkpt>
      <trkpt lat="42.2066" lon="9.03819">
        <ele>2268.4</ele>
        <time>2015-06-26T05:09:15Z</time>
      </trkpt>
      <trkpt lat="42.20663" lon="9.03816">
        <ele>2269.4</ele>
        <time>2015-06-26T05:09:25Z</time>
      </trkpt>
      <trkpt lat="42.20664" lon="9.03816">
        <ele>2271.2</ele>
        <time>2015-06-26T05:09:52Z</time>
      </trkpt>
      <trkpt lat="42.20664" lon="9.03816">
        <ele>2271.6</ele>
        <time>2015-06-26T05:09:57Z</time>
      </trkpt>
      <trkpt lat="42.20664" lon="9.03815">
        <ele>2272.2</ele>
        <time>2015-06-26T05:10:04Z</time>
      </trkpt>
      <trkpt lat="42.20666" lon="9.03806">
        <ele>2273</ele>
        <time>2015-06-26T05:10:23Z</time>
      </trkpt>
      <trkpt lat="42.20667" lon="9.03799">
        <ele>2274.4</ele>
        <time>2015-06-26T05:10:31Z</time>
      </trkpt>
      <trkpt lat="42.2067" lon="9.03797">
        <ele>2275.6</ele>
        <time>2015-06-26T05:10:40Z</time>
      </trkpt>
      <trkpt lat="42.20671" lon="9.03788">
        <ele>2276.8</ele>
        <time>2015-06-26T05:11:09Z</time>
      </trkpt>
      <trkpt lat="42.20671" lon="9.03785">
        <ele>2278.2</ele>
        <time>2015-06-26T05:11:17Z</time>
      </trkpt>
      <trkpt lat="42.20672" lon="9.03786">
        <ele>2279.6</ele>
        <time>2015-06-26T05:11:26Z</time>
      </trkpt>
      <trkpt lat="42.20675" lon="9.03772">
        <ele>2280.8</ele>
        <time>2015-06-26T05:13:10Z</time>
      </trkpt>
      <trkpt lat="42.20678" lon="9.03772">
        <ele>2281</ele>
        <time>2015-06-26T05:14:45Z</time>
      </trkpt>
      <trkpt lat="42.20676" lon="9.03755">
        <ele>2281.6</ele>
        <time>2015-06-26T05:15:11Z</time>
      </trkpt>
      <trkpt lat="42.20677" lon="9.03748">
        <ele>2282.4</ele>
        <time>2015-06-26T05:15:18Z</time>
      </trkpt>
      <trkpt lat="42.20684" lon="9.03748">
        <ele>2282</ele>
        <time>2015-06-26T05:15:31Z</time>
      </trkpt>
      <trkpt lat="42.20691" lon="9.03741">
        <ele>2280.8</ele>
        <time>2015-06-26T05:15:41Z</time>
      </trkpt>
      <trkpt lat="42.20693" lon="9.03738">
        <ele>2280.6</ele>
        <time>2015-06-26T05:15:46Z</time>
      </trkpt>
      <trkpt lat="42.20696" lon="9.03732">
        <ele>2279.2</ele>
        <time>2015-06-26T05:15:52Z</time>
      </trkpt>
      <trkpt lat="42.207" lon="9.03724">
        <ele>2277.6</ele>
        <time>2015-06-26T05:16:00Z</time>
      </trkpt>
      <trkpt lat="42.20705" lon="9.03709">
        <ele>2276.2</ele>
        <time>2015-06-26T05:16:46Z</time>
      </trkpt>
      <trkpt lat="42.20707" lon="9.03708">
        <ele>2276</ele>
        <time>2015-06-26T05:16:51Z</time>
      </trkpt>
      <trkpt lat="42.2071" lon="9.03704">
        <ele>2274.8</ele>
        <time>2015-06-26T05:16:58Z</time>
      </trkpt>
      <trkpt lat="42.20714" lon="9.03692">
        <ele>2273</ele>
        <time>2015-06-26T05:17:11Z</time>
      </trkpt>
      <trkpt lat="42.20722" lon="9.03677">
        <ele>2272.4</ele>
        <time>2015-06-26T05:17:28Z</time>
      </trkpt>
      <trkpt lat="42.20727" lon="9.03666">
        <ele>2271.2</ele>
        <time>2015-06-26T05:17:40Z</time>
      </trkpt>
      <trkpt lat="42.20736" lon="9.0365">
        <ele>2270.2</ele>
        <time>2015-06-26T05:17:58Z</time>
      </trkpt>
      <trkpt lat="42.20762" lon="9.03603">
        <ele>2270</ele>
        <time>2015-06-26T05:18:57Z</time>
      </trkpt>
      <trkpt lat="42.20765" lon="9.03591">
        <ele>2269.2</ele>
        <time>2015-06-26T05:19:15Z</time>
      </trkpt>
      <trkpt lat="42.20768" lon="9.0359">
        <ele>2268</ele>
        <time>2015-06-26T05:19:24Z</time>
      </trkpt>
      <trkpt lat="42.2077" lon="9.03588">
        <ele>2267.4</ele>
        <time>2015-06-26T05:19:30Z</time>
      </trkpt>
      <trkpt lat="42.20771" lon="9.03585">
        <ele>2266.2</ele>
        <time>2015-06-26T05:19:38Z</time>
      </trkpt>
      <trkpt lat="42.20774" lon="9.03584">
        <ele>2264.8</ele>
        <time>2015-06-26T05:19:45Z</time>
      </trkpt>
      <trkpt lat="42.20776" lon="9.03584">
        <ele>2263.4</ele>
        <time>2015-06-26T05:20:04Z</time>
      </trkpt>
      <trkpt lat="42.20777" lon="9.03582">
        <ele>2262.8</ele>
        <time>2015-06-26T05:20:11Z</time>
      </trkpt>
      <trkpt lat="42.20779" lon="9.0358">
        <ele>2261.2</ele>
        <time>2015-06-26T05:20:21Z</time>
      </trkpt>
      <trkpt lat="42.2078" lon="9.03577">
        <ele>2260</ele>
        <time>2015-06-26T05:20:39Z</time>
      </trkpt>
      <trkpt lat="42.20779" lon="9.03574">
        <ele>2259.6</ele>
        <time>2015-06-26T05:20:45Z</time>
      </trkpt>
      <trkpt lat="42.20779" lon="9.0357">
        <ele>2258.6</ele>
        <time>2015-06-26T05:20:51Z</time>
      </trkpt>
      <trkpt lat="42.20779" lon="9.03566">
        <ele>2257.2</ele>
        <time>2015-06-26T05:20:59Z</time>
      </trkpt>
      <trkpt lat="42.20782" lon="9.03566">
        <ele>2256.4</ele>
        <time>2015-06-26T05:21:04Z</time>
      </trkpt>
      <trkpt lat="42.20782" lon="9.03564">
        <ele>2254.2</ele>
        <time>2015-06-26T05:21:38Z</time>
      </trkpt>
      <trkpt lat="42.20783" lon="9.03555">
        <ele>2253.6</ele>
        <time>2015-06-26T05:23:15Z</time>
      </trkpt>
      <trkpt lat="42.20781" lon="9.03552">
        <ele>2252.4</ele>
        <time>2015-06-26T05:23:23Z</time>
      </trkpt>
      <trkpt lat="42.20783" lon="9.03543">
        <ele>2251.4</ele>
        <time>2015-06-26T05:23:38Z</time>
      </trkpt>
      <trkpt lat="42.20786" lon="9.03534">
        <ele>2250</ele>
        <time>2015-06-26T05:23:48Z</time>
      </trkpt>
      <trkpt lat="42.20788" lon="9.03516">
        <ele>2248.8</ele>
        <time>2015-06-26T05:24:05Z</time>
      </trkpt>
      <trkpt lat="42.20788" lon="9.03506">
        <ele>2247.8</ele>
        <time>2015-06-26T05:24:14Z</time>
      </trkpt>
      <trkpt lat="42.20789" lon="9.03474">
        <ele>2247.6</ele>
        <time>2015-06-26T05:25:24Z</time>
      </trkpt>
      <trkpt lat="42.20789" lon="9.03463">
        <ele>2247.4</ele>
        <time>2015-06-26T05:25:41Z</time>
      </trkpt>
      <trkpt lat="42.20784" lon="9.03449">
        <ele>2246.4</ele>
        <time>2015-06-26T05:26:23Z</time>
      </trkpt>
      <trkpt lat="42.20779" lon="9.03447">
        <ele>2246.2</ele>
        <time>2015-06-26T05:26:48Z</time>
      </trkpt>
      <trkpt lat="42.20775" lon="9.03439">
        <ele>2247.2</ele>
        <time>2015-06-26T05:27:10Z</time>
      </trkpt>
      <trkpt lat="42.20778" lon="9.03436">
        <ele>2247.6</ele>
        <time>2015-06-26T05:27:21Z</time>
      </trkpt>
      <trkpt lat="42.20779" lon="9.03432">
        <ele>2246.6</ele>
        <time>2015-06-26T05:27:27Z</time>
      </trkpt>
      <trkpt lat="42.20782" lon="9.03428">
        <ele>2245.4</ele>
        <time>2015-06-26T05:27:36Z</time>
      </trkpt>
      <trkpt lat="42.20792" lon="9.03413">
        <ele>2244.2</ele>
        <time>2015-06-26T05:28:11Z</time>
      </trkpt>
      <trkpt lat="42.20795" lon="9.03406">
        <ele>2243.2</ele>
        <time>2015-06-26T05:28:22Z</time>
      </trkpt>
      <trkpt lat="42.20794" lon="9.03395">
        <ele>2242</ele>
        <time>2015-06-26T05:28:37Z</time>
      </trkpt>
      <trkpt lat="42.20797" lon="9.03352">
        <ele>2242</ele>
        <time>2015-06-26T05:29:47Z</time>
      </trkpt>
      <trkpt lat="42.20801" lon="9.03346">
        <ele>2242.2</ele>
        <time>2015-06-26T05:29:58Z</time>
      </trkpt>
      <trkpt lat="42.20801" lon="9.03333">
        <ele>2242.4</ele>
        <time>2015-06-26T05:30:35Z</time>
      </trkpt>
      <trkpt lat="42.20802" lon="9.03308">
        <ele>2243.6</ele>
        <time>2015-06-26T05:31:06Z</time>
      </trkpt>
      <trkpt lat="42.20797" lon="9.03301">
        <ele>2244.4</ele>
        <time>2015-06-26T05:31:18Z</time>
      </trkpt>
      <trkpt lat="42.20794" lon="9.03296">
        <ele>2245.6</ele>
        <time>2015-06-26T05:31:27Z</time>
      </trkpt>
      <trkpt lat="42.20793" lon="9.03285">
        <ele>2246.4</ele>
        <time>2015-06-26T05:31:42Z</time>
      </trkpt>
      <trkpt lat="42.20793" lon="9.0328">
        <ele>2247.6</ele>
        <time>2015-06-26T05:31:50Z</time>
      </trkpt>
      <trkpt lat="42.20798" lon="9.03263">
        <ele>2248</ele>
        <time>2015-06-26T05:32:16Z</time>
      </trkpt>
      <trkpt lat="42.20802" lon="9.03253">
        <ele>2246.8</ele>
        <time>2015-06-26T05:32:29Z</time>
      </trkpt>
      <trkpt lat="42.20806" lon="9.03238">
        <ele>2246</ele>
        <time>2015-06-26T05:32:45Z</time>
      </trkpt>
      <trkpt lat="42.20811" lon="9.03208">
        <ele>2245.4</ele>
        <time>2015-06-26T05:34:11Z</time>
      </trkpt>
      <trkpt lat="42.20812" lon="9.03179">
        <ele>2244.8</ele>
        <time>2015-06-26T05:34:54Z</time>
      </trkpt>
      <trkpt lat="42.20812" lon="9.0317">
        <ele>2244.4</ele>
        <time>2015-06-26T05:35:05Z</time>
      </trkpt>
      <trkpt lat="42.20814" lon="9.03161">
        <ele>2243.2</ele>
        <time>2015-06-26T05:35:13Z</time>
      </trkpt>
      <trkpt lat="42.20814" lon="9.03153">
        <ele>2241.8</ele>
        <time>2015-06-26T05:35:32Z</time>
      </trkpt>
      <trkpt lat="42.20817" lon="9.03149">
        <ele>2240.8</ele>
        <time>2015-06-26T05:35:42Z</time>
      </trkpt>
      <trkpt lat="42.20818" lon="9.03148">
        <ele>2240.8</ele>
        <time>2015-06-26T05:35:44Z</time>
      </trkpt>
      <trkpt lat="42.20822" lon="9.03146">
        <ele>2240.2</ele>
        <time>2015-06-26T05:35:51Z</time>
      </trkpt>
      <trkpt lat="42.20826" lon="9.03141">
        <ele>2239</ele>
        <time>2015-06-26T05:35:59Z</time>
      </trkpt>
      <trkpt lat="42.20825" lon="9.03137">
        <ele>2238.2</ele>
        <time>2015-06-26T05:36:04Z</time>
      </trkpt>
      <trkpt lat="42.2082" lon="9.03129">
        <ele>2236.2</ele>
        <time>2015-06-26T05:36:22Z</time>
      </trkpt>
      <trkpt lat="42.20818" lon="9.03123">
        <ele>2235</ele>
        <time>2015-06-26T05:36:37Z</time>
      </trkpt>
      <trkpt lat="42.20825" lon="9.03118">
        <ele>2234.4</ele>
        <time>2015-06-26T05:36:50Z</time>
      </trkpt>
      <trkpt lat="42.20825" lon="9.03114">
        <ele>2234</ele>
        <time>2015-06-26T05:36:54Z</time>
      </trkpt>
      <trkpt lat="42.20821" lon="9.03079">
        <ele>2231.8</ele>
        <time>2015-06-26T05:37:27Z</time>
      </trkpt>
      <trkpt lat="42.20819" lon="9.03072">
        <ele>2231.6</ele>
        <time>2015-06-26T05:37:45Z</time>
      </trkpt>
      <trkpt lat="42.20823" lon="9.03064">
        <ele>2230.6</ele>
        <time>2015-06-26T05:37:58Z</time>
      </trkpt>
      <trkpt lat="42.20827" lon="9.03057">
        <ele>2229.8</ele>
        <time>2015-06-26T05:38:14Z</time>
      </trkpt>
      <trkpt lat="42.20836" lon="9.03057">
        <ele>2228.8</ele>
        <time>2015-06-26T05:38:23Z</time>
      </trkpt>
      <trkpt lat="42.20839" lon="9.0306">
        <ele>2228.6</ele>
        <time>2015-06-26T05:38:28Z</time>
      </trkpt>
      <trkpt lat="42.20831" lon="9.03044">
        <ele>2228.4</ele>
        <time>2015-06-26T05:39:38Z</time>
      </trkpt>
      <trkpt lat="42.20832" lon="9.03031">
        <ele>2228.4</ele>
        <time>2015-06-26T05:40:03Z</time>
      </trkpt>
      <trkpt lat="42.20833" lon="9.03005">
        <ele>2228.4</ele>
        <time>2015-06-26T05:40:27Z</time>
      </trkpt>
      <trkpt lat="42.2084" lon="9.02996">
        <ele>2228</ele>
        <time>2015-06-26T05:40:53Z</time>
      </trkpt>
      <trkpt lat="42.20845" lon="9.02993">
        <ele>2226.8</ele>
        <time>2015-06-26T05:41:04Z</time>
      </trkpt>
      <trkpt lat="42.20848" lon="9.02987">
        <ele>2225.8</ele>
        <time>2015-06-26T05:41:14Z</time>
      </trkpt>
      <trkpt lat="42.20852" lon="9.02983">
        <ele>2225</ele>
        <time>2015-06-26T05:41:20Z</time>
      </trkpt>
      <trkpt lat="42.20867" lon="9.02973">
        <ele>2223</ele>
        <time>2015-06-26T05:41:47Z</time>
      </trkpt>
      <trkpt lat="42.20871" lon="9.02969">
        <ele>2222.4</ele>
        <time>2015-06-26T05:41:55Z</time>
      </trkpt>
      <trkpt lat="42.20876" lon="9.02964">
        <ele>2221.2</ele>
        <time>2015-06-26T05:42:13Z</time>
      </trkpt>
      <trkpt lat="42.20878" lon="9.0296">
        <ele>2220.2</ele>
        <time>2015-06-26T05:42:23Z</time>
      </trkpt>
      <trkpt lat="42.20878" lon="9.02956">
        <ele>2219.6</ele>
        <time>2015-06-26T05:42:29Z</time>
      </trkpt>
      <trkpt lat="42.20878" lon="9.02953">
        <ele>2217.8</ele>
        <time>2015-06-26T05:42:38Z</time>
      </trkpt>
      <trkpt lat="42.20881" lon="9.0295">
        <ele>2216.6</ele>
        <time>2015-06-26T05:43:39Z</time>
      </trkpt>
      <trkpt lat="42.20884" lon="9.02951">
        <ele>2215</ele>
        <time>2015-06-26T05:43:58Z</time>
      </trkpt>
      <trkpt lat="42.20886" lon="9.02949">
        <ele>2214.8</ele>
        <time>2015-06-26T05:44:03Z</time>
      </trkpt>
      <trkpt lat="42.20887" lon="9.02947">
        <ele>2213</ele>
        <time>2015-06-26T05:44:15Z</time>
      </trkpt>
      <trkpt lat="42.20889" lon="9.02944">
        <ele>2212.8</ele>
        <time>2015-06-26T05:44:20Z</time>
      </trkpt>
      <trkpt lat="42.2089" lon="9.02943">
        <ele>2211.6</ele>
        <time>2015-06-26T05:44:25Z</time>
      </trkpt>
      <trkpt lat="42.20891" lon="9.02945">
        <ele>2209.4</ele>
        <time>2015-06-26T05:44:37Z</time>
      </trkpt>
      <trkpt lat="42.20895" lon="9.02941">
        <ele>2208.8</ele>
        <time>2015-06-26T05:45:15Z</time>
      </trkpt>
      <trkpt lat="42.20898" lon="9.0294">
        <ele>2207.4</ele>
        <time>2015-06-26T05:45:22Z</time>
      </trkpt>
      <trkpt lat="42.20903" lon="9.02939">
        <ele>2206.4</ele>
        <time>2015-06-26T05:45:29Z</time>
      </trkpt>
      <trkpt lat="42.20905" lon="9.02939">
        <ele>2204.8</ele>
        <time>2015-06-26T05:45:38Z</time>
      </trkpt>
      <trkpt lat="42.20906" lon="9.02939">
        <ele>2204.2</ele>
        <time>2015-06-26T05:45:46Z</time>
      </trkpt>
      <trkpt lat="42.20908" lon="9.02937">
        <ele>2203</ele>
        <time>2015-06-26T05:46:01Z</time>
      </trkpt>
      <trkpt lat="42.20908" lon="9.02935">
        <ele>2201.8</ele>
        <time>2015-06-26T05:46:07Z</time>
      </trkpt>
      <trkpt lat="42.2091" lon="9.02933">
        <ele>2200.6</ele>
        <time>2015-06-26T05:46:14Z</time>
      </trkpt>
      <trkpt lat="42.20912" lon="9.02931">
        <ele>2199.6</ele>
        <time>2015-06-26T05:46:20Z</time>
      </trkpt>
      <trkpt lat="42.20914" lon="9.02929">
        <ele>2198.2</ele>
        <time>2015-06-26T05:46:28Z</time>
      </trkpt>
      <trkpt lat="42.20915" lon="9.02926">
        <ele>2197</ele>
        <time>2015-06-26T05:46:36Z</time>
      </trkpt>
      <trkpt lat="42.20916" lon="9.02924">
        <ele>2195.4</ele>
        <time>2015-06-26T05:46:52Z</time>
      </trkpt>
      <trkpt lat="42.20914" lon="9.02923">
        <ele>2194.6</ele>
        <time>2015-06-26T05:46:59Z</time>
      </trkpt>
      <trkpt lat="42.20913" lon="9.02921">
        <ele>2193.2</ele>
        <time>2015-06-26T05:47:11Z</time>
      </trkpt>
      <trkpt lat="42.20912" lon="9.02918">
        <ele>2192.4</ele>
        <time>2015-06-26T05:47:18Z</time>
      </trkpt>
      <trkpt lat="42.20913" lon="9.02915">
        <ele>2190.6</ele>
        <time>2015-06-26T05:47:29Z</time>
      </trkpt>
      <trkpt lat="42.20914" lon="9.02914">
        <ele>2190.2</ele>
        <time>2015-06-26T05:47:35Z</time>
      </trkpt>
      <trkpt lat="42.20916" lon="9.0291">
        <ele>2188.4</ele>
        <time>2015-06-26T05:47:48Z</time>
      </trkpt>
      <trkpt lat="42.20918" lon="9.02906">
        <ele>2187</ele>
        <time>2015-06-26T05:47:58Z</time>
      </trkpt>
      <trkpt lat="42.20913" lon="9.02904">
        <ele>2185.4</ele>
        <time>2015-06-26T05:48:22Z</time>
      </trkpt>
      <trkpt lat="42.20912" lon="9.02901">
        <ele>2184.4</ele>
        <time>2015-06-26T05:48:36Z</time>
      </trkpt>
      <trkpt lat="42.20912" lon="9.029">
        <ele>2184</ele>
        <time>2015-06-26T05:48:41Z</time>
      </trkpt>
      <trkpt lat="42.2091" lon="9.02897">
        <ele>2182</ele>
        <time>2015-06-26T05:48:52Z</time>
      </trkpt>
      <trkpt lat="42.20912" lon="9.02896">
        <ele>2181.2</ele>
        <time>2015-06-26T05:48:59Z</time>
      </trkpt>
      <trkpt lat="42.20911" lon="9.02894">
        <ele>2179.6</ele>
        <time>2015-06-26T05:49:13Z</time>
      </trkpt>
      <trkpt lat="42.20914" lon="9.02891">
        <ele>2178.8</ele>
        <time>2015-06-26T05:49:23Z</time>
      </trkpt>
      <trkpt lat="42.20913" lon="9.0289">
        <ele>2177.2</ele>
        <time>2015-06-26T05:49:33Z</time>
      </trkpt>
      <trkpt lat="42.2091" lon="9.02889">
        <ele>2176.2</ele>
        <time>2015-06-26T05:49:41Z</time>
      </trkpt>
      <trkpt lat="42.20907" lon="9.02888">
        <ele>2175</ele>
        <time>2015-06-26T05:49:50Z</time>
      </trkpt>
      <trkpt lat="42.20907" lon="9.02884">
        <ele>2173.6</ele>
        <time>2015-06-26T05:50:03Z</time>
      </trkpt>
      <trkpt lat="42.20907" lon="9.0288">
        <ele>2172.6</ele>
        <time>2015-06-26T05:50:11Z</time>
      </trkpt>
      <trkpt lat="42.20906" lon="9.02878">
        <ele>2171.2</ele>
        <time>2015-06-26T05:50:22Z</time>
      </trkpt>
      <trkpt lat="42.20907" lon="9.02874">
        <ele>2170</ele>
        <time>2015-06-26T05:50:36Z</time>
      </trkpt>
      <trkpt lat="42.20909" lon="9.0287">
        <ele>2169</ele>
        <time>2015-06-26T05:50:44Z</time>
      </trkpt>
      <trkpt lat="42.20911" lon="9.02867">
        <ele>2167.8</ele>
        <time>2015-06-26T05:50:50Z</time>
      </trkpt>
      <trkpt lat="42.20914" lon="9.02868">
        <ele>2166.4</ele>
        <time>2015-06-26T05:50:59Z</time>
      </trkpt>
      <trkpt lat="42.2092" lon="9.02866">
        <ele>2164.8</ele>
        <time>2015-06-26T05:51:11Z</time>
      </trkpt>
      <trkpt lat="42.20922" lon="9.02865">
        <ele>2163.8</ele>
        <time>2015-06-26T05:51:21Z</time>
      </trkpt>
      <trkpt lat="42.20923" lon="9.02863">
        <ele>2162.2</ele>
        <time>2015-06-26T05:51:33Z</time>
      </trkpt>
      <trkpt lat="42.20921" lon="9.02863">
        <ele>2161.4</ele>
        <time>2015-06-26T05:51:40Z</time>
      </trkpt>
      <trkpt lat="42.2092" lon="9.02858">
        <ele>2159.8</ele>
        <time>2015-06-26T05:51:51Z</time>
      </trkpt>
      <trkpt lat="42.20923" lon="9.02855">
        <ele>2158.8</ele>
        <time>2015-06-26T05:51:58Z</time>
      </trkpt>
      <trkpt lat="42.20926" lon="9.02856">
        <ele>2157.2</ele>
        <time>2015-06-26T05:52:09Z</time>
      </trkpt>
      <trkpt lat="42.20927" lon="9.02853">
        <ele>2155.8</ele>
        <time>2015-06-26T05:52:20Z</time>
      </trkpt>
      <trkpt lat="42.20925" lon="9.02852">
        <ele>2154.8</ele>
        <time>2015-06-26T05:52:31Z</time>
      </trkpt>
      <trkpt lat="42.20926" lon="9.02849">
        <ele>2153.8</ele>
        <time>2015-06-26T05:52:37Z</time>
      </trkpt>
      <trkpt lat="42.2093" lon="9.02847">
        <ele>2151.6</ele>
        <time>2015-06-26T05:52:59Z</time>
      </trkpt>
      <trkpt lat="42.20931" lon="9.02845">
        <ele>2150.6</ele>
        <time>2015-06-26T05:53:09Z</time>
      </trkpt>
      <trkpt lat="42.20932" lon="9.02842">
        <ele>2149.6</ele>
        <time>2015-06-26T05:53:17Z</time>
      </trkpt>
      <trkpt lat="42.20932" lon="9.0284">
        <ele>2147.8</ele>
        <time>2015-06-26T05:53:28Z</time>
      </trkpt>
      <trkpt lat="42.20933" lon="9.02838">
        <ele>2146.6</ele>
        <time>2015-06-26T05:53:38Z</time>
      </trkpt>
      <trkpt lat="42.2093" lon="9.02837">
        <ele>2145.6</ele>
        <time>2015-06-26T05:53:46Z</time>
      </trkpt>
      <trkpt lat="42.20935" lon="9.02829">
        <ele>2144</ele>
        <time>2015-06-26T05:53:57Z</time>
      </trkpt>
      <trkpt lat="42.20937" lon="9.02824">
        <ele>2142.2</ele>
        <time>2015-06-26T05:54:13Z</time>
      </trkpt>
      <trkpt lat="42.20932" lon="9.02819">
        <ele>2140.4</ele>
        <time>2015-06-26T05:54:48Z</time>
      </trkpt>
      <trkpt lat="42.20934" lon="9.0282">
        <ele>2139.8</ele>
        <time>2015-06-26T05:54:55Z</time>
      </trkpt>
      <trkpt lat="42.20922" lon="9.02827">
        <ele>2139</ele>
        <time>2015-06-26T05:55:21Z</time>
      </trkpt>
      <trkpt lat="42.20923" lon="9.02823">
        <ele>2139</ele>
        <time>2015-06-26T05:55:24Z</time>
      </trkpt>
      <trkpt lat="42.20918" lon="9.02818">
        <ele>2137.8</ele>
        <time>2015-06-26T05:55:35Z</time>
      </trkpt>
      <trkpt lat="42.2091" lon="9.02813">
        <ele>2135.6</ele>
        <time>2015-06-26T05:55:49Z</time>
      </trkpt>
      <trkpt lat="42.20907" lon="9.02811">
        <ele>2134.8</ele>
        <time>2015-06-26T05:55:56Z</time>
      </trkpt>
      <trkpt lat="42.20901" lon="9.02808">
        <ele>2132.8</ele>
        <time>2015-06-26T05:56:43Z</time>
      </trkpt>
      <trkpt lat="42.20897" lon="9.02805">
        <ele>2131.4</ele>
        <time>2015-06-26T05:57:04Z</time>
      </trkpt>
      <trkpt lat="42.20895" lon="9.02801">
        <ele>2129.6</ele>
        <time>2015-06-26T05:57:31Z</time>
      </trkpt>
      <trkpt lat="42.20895" lon="9.02799">
        <ele>2128.4</ele>
        <time>2015-06-26T05:57:41Z</time>
      </trkpt>
      <trkpt lat="42.20892" lon="9.02797">
        <ele>2127.4</ele>
        <time>2015-06-26T05:57:53Z</time>
      </trkpt>
      <trkpt lat="42.20885" lon="9.02801">
        <ele>2126.4</ele>
        <time>2015-06-26T05:58:19Z</time>
      </trkpt>
      <trkpt lat="42.20876" lon="9.02789">
        <ele>2126.4</ele>
        <time>2015-06-26T05:58:43Z</time>
      </trkpt>
      <trkpt lat="42.20865" lon="9.02787">
        <ele>2125.2</ele>
        <time>2015-06-26T05:59:06Z</time>
      </trkpt>
      <trkpt lat="42.20864" lon="9.02789">
        <ele>2125.8</ele>
        <time>2015-06-26T05:59:12Z</time>
      </trkpt>
      <trkpt lat="42.20862" lon="9.0279">
        <ele>2127</ele>
        <time>2015-06-26T05:59:20Z</time>
      </trkpt>
      <trkpt lat="42.20859" lon="9.02791">
        <ele>2128</ele>
        <time>2015-06-26T05:59:28Z</time>
      </trkpt>
      <trkpt lat="42.20857" lon="9.02795">
        <ele>2129</ele>
        <time>2015-06-26T05:59:38Z</time>
      </trkpt>
      <trkpt lat="42.20857" lon="9.02798">
        <ele>2130.2</ele>
        <time>2015-06-26T05:59:49Z</time>
      </trkpt>
      <trkpt lat="42.20855" lon="9.028">
        <ele>2131.2</ele>
        <time>2015-06-26T05:59:58Z</time>
      </trkpt>
      <trkpt lat="42.20852" lon="9.028">
        <ele>2132</ele>
        <time>2015-06-26T06:00:06Z</time>
      </trkpt>
      <trkpt lat="42.20847" lon="9.02797">
        <ele>2133</ele>
        <time>2015-06-26T06:00:32Z</time>
      </trkpt>
      <trkpt lat="42.20844" lon="9.02795">
        <ele>2134</ele>
        <time>2015-06-26T06:01:03Z</time>
      </trkpt>
      <trkpt lat="42.20827" lon="9.02778">
        <ele>2134</ele>
        <time>2015-06-26T06:02:52Z</time>
      </trkpt>
      <trkpt lat="42.20823" lon="9.02778">
        <ele>2135.4</ele>
        <time>2015-06-26T06:03:06Z</time>
      </trkpt>
      <trkpt lat="42.20822" lon="9.02776">
        <ele>2136.6</ele>
        <time>2015-06-26T06:03:32Z</time>
      </trkpt>
      <trkpt lat="42.20813" lon="9.02773">
        <ele>2137.4</ele>
        <time>2015-06-26T06:04:17Z</time>
      </trkpt>
      <trkpt lat="42.20805" lon="9.02777">
        <ele>2137.6</ele>
        <time>2015-06-26T06:04:36Z</time>
      </trkpt>
      <trkpt lat="42.20805" lon="9.02777">
        <ele>2137.8</ele>
        <time>2015-06-26T06:04:41Z</time>
      </trkpt>
      <trkpt lat="42.20804" lon="9.02773">
        <ele>2136.8</ele>
        <time>2015-06-26T06:05:03Z</time>
      </trkpt>
      <trkpt lat="42.20798" lon="9.02763">
        <ele>2136</ele>
        <time>2015-06-26T06:05:56Z</time>
      </trkpt>
      <trkpt lat="42.20798" lon="9.02761">
        <ele>2134.8</ele>
        <time>2015-06-26T06:06:08Z</time>
      </trkpt>
      <trkpt lat="42.20795" lon="9.02759">
        <ele>2134</ele>
        <time>2015-06-26T06:06:18Z</time>
      </trkpt>
      <trkpt lat="42.20778" lon="9.02759">
        <ele>2133.8</ele>
        <time>2015-06-26T06:06:58Z</time>
      </trkpt>
      <trkpt lat="42.20769" lon="9.02759">
        <ele>2135.2</ele>
        <time>2015-06-26T06:07:14Z</time>
      </trkpt>
      <trkpt lat="42.20764" lon="9.02763">
        <ele>2135.8</ele>
        <time>2015-06-26T06:07:24Z</time>
      </trkpt>
      <trkpt lat="42.2076" lon="9.02761">
        <ele>2137</ele>
        <time>2015-06-26T06:07:37Z</time>
      </trkpt>
      <trkpt lat="42.20759" lon="9.0276">
        <ele>2138</ele>
        <time>2015-06-26T06:07:49Z</time>
      </trkpt>
      <trkpt lat="42.20756" lon="9.02756">
        <ele>2139.2</ele>
        <time>2015-06-26T06:08:00Z</time>
      </trkpt>
      <trkpt lat="42.20756" lon="9.02751">
        <ele>2139.6</ele>
        <time>2015-06-26T06:08:07Z</time>
      </trkpt>
      <trkpt lat="42.20759" lon="9.0275">
        <ele>2141.6</ele>
        <time>2015-06-26T06:08:19Z</time>
      </trkpt>
      <trkpt lat="42.20754" lon="9.02746">
        <ele>2141.6</ele>
        <time>2015-06-26T06:08:39Z</time>
      </trkpt>
      <trkpt lat="42.20747" lon="9.02739">
        <ele>2140.6</ele>
        <time>2015-06-26T06:09:00Z</time>
      </trkpt>
      <trkpt lat="42.20744" lon="9.02733">
        <ele>2139.2</ele>
        <time>2015-06-26T06:09:20Z</time>
      </trkpt>
      <trkpt lat="42.20741" lon="9.02732">
        <ele>2139</ele>
        <time>2015-06-26T06:09:26Z</time>
      </trkpt>
      <trkpt lat="42.20739" lon="9.02729">
        <ele>2137.8</ele>
        <time>2015-06-26T06:09:32Z</time>
      </trkpt>
      <trkpt lat="42.20736" lon="9.02726">
        <ele>2136.4</ele>
        <time>2015-06-26T06:09:39Z</time>
      </trkpt>
      <trkpt lat="42.20735" lon="9.02719">
        <ele>2135.2</ele>
        <time>2015-06-26T06:09:48Z</time>
      </trkpt>
      <trkpt lat="42.20728" lon="9.02706">
        <ele>2134.8</ele>
        <time>2015-06-26T06:10:17Z</time>
      </trkpt>
      <trkpt lat="42.20729" lon="9.02703">
        <ele>2136</ele>
        <time>2015-06-26T06:10:27Z</time>
      </trkpt>
      <trkpt lat="42.20726" lon="9.027">
        <ele>2137</ele>
        <time>2015-06-26T06:10:35Z</time>
      </trkpt>
      <trkpt lat="42.20723" lon="9.02695">
        <ele>2138.8</ele>
        <time>2015-06-26T06:10:56Z</time>
      </trkpt>
      <trkpt lat="42.20723" lon="9.02691">
        <ele>2138.8</ele>
        <time>2015-06-26T06:11:05Z</time>
      </trkpt>
      <trkpt lat="42.20722" lon="9.02687">
        <ele>2138.2</ele>
        <time>2015-06-26T06:11:09Z</time>
      </trkpt>
      <trkpt lat="42.20717" lon="9.02683">
        <ele>2136.6</ele>
        <time>2015-06-26T06:11:16Z</time>
      </trkpt>
      <trkpt lat="42.20712" lon="9.0267">
        <ele>2136.2</ele>
        <time>2015-06-26T06:11:52Z</time>
      </trkpt>
      <trkpt lat="42.20711" lon="9.02669">
        <ele>2135.4</ele>
        <time>2015-06-26T06:11:59Z</time>
      </trkpt>
      <trkpt lat="42.20709" lon="9.02665">
        <ele>2134.2</ele>
        <time>2015-06-26T06:12:16Z</time>
      </trkpt>
      <trkpt lat="42.20708" lon="9.02659">
        <ele>2133</ele>
        <time>2015-06-26T06:12:27Z</time>
      </trkpt>
      <trkpt lat="42.20707" lon="9.02658">
        <ele>2132</ele>
        <time>2015-06-26T06:12:36Z</time>
      </trkpt>
      <trkpt lat="42.20706" lon="9.02653">
        <ele>2131.4</ele>
        <time>2015-06-26T06:12:43Z</time>
      </trkpt>
      <trkpt lat="42.20685" lon="9.02635">
        <ele>2130.2</ele>
        <time>2015-06-26T06:13:26Z</time>
      </trkpt>
      <trkpt lat="42.20686" lon="9.02629">
        <ele>2129.4</ele>
        <time>2015-06-26T06:13:35Z</time>
      </trkpt>
      <trkpt lat="42.20685" lon="9.02625">
        <ele>2128.6</ele>
        <time>2015-06-26T06:13:40Z</time>
      </trkpt>
      <trkpt lat="42.20686" lon="9.0262">
        <ele>2126.8</ele>
        <time>2015-06-26T06:13:49Z</time>
      </trkpt>
      <trkpt lat="42.20688" lon="9.0262">
        <ele>2126.2</ele>
        <time>2015-06-26T06:13:55Z</time>
      </trkpt>
      <trkpt lat="42.20689" lon="9.02615">
        <ele>2125</ele>
        <time>2015-06-26T06:14:01Z</time>
      </trkpt>
      <trkpt lat="42.20689" lon="9.02612">
        <ele>2124.2</ele>
        <time>2015-06-26T06:14:06Z</time>
      </trkpt>
      <trkpt lat="42.20687" lon="9.02602">
        <ele>2123.4</ele>
        <time>2015-06-26T06:14:27Z</time>
      </trkpt>
      <trkpt lat="42.20685" lon="9.02594">
        <ele>2123.6</ele>
        <time>2015-06-26T06:14:39Z</time>
      </trkpt>
      <trkpt lat="42.20685" lon="9.02588">
        <ele>2122.8</ele>
        <time>2015-06-26T06:14:46Z</time>
      </trkpt>
      <trkpt lat="42.20672" lon="9.02579">
        <ele>2121.4</ele>
        <time>2015-06-26T06:15:07Z</time>
      </trkpt>
      <trkpt lat="42.20657" lon="9.02561">
        <ele>2121.4</ele>
        <time>2015-06-26T06:15:49Z</time>
      </trkpt>
      <trkpt lat="42.20651" lon="9.02554">
        <ele>2122.4</ele>
        <time>2015-06-26T06:16:03Z</time>
      </trkpt>
      <trkpt lat="42.20645" lon="9.02553">
        <ele>2123.8</ele>
        <time>2015-06-26T06:16:15Z</time>
      </trkpt>
      <trkpt lat="42.20625" lon="9.02558">
        <ele>2123.8</ele>
        <time>2015-06-26T06:16:45Z</time>
      </trkpt>
      <trkpt lat="42.20614" lon="9.02559">
        <ele>2124</ele>
        <time>2015-06-26T06:17:04Z</time>
      </trkpt>
      <trkpt lat="42.20598" lon="9.0256">
        <ele>2125.4</ele>
        <time>2015-06-26T06:17:27Z</time>
      </trkpt>
      <trkpt lat="42.20587" lon="9.0256">
        <ele>2126.4</ele>
        <time>2015-06-26T06:17:41Z</time>
      </trkpt>
      <trkpt lat="42.20581" lon="9.02557">
        <ele>2127.6</ele>
        <time>2015-06-26T06:17:52Z</time>
      </trkpt>
      <trkpt lat="42.20574" lon="9.02548">
        <ele>2128.4</ele>
        <time>2015-06-26T06:18:12Z</time>
      </trkpt>
      <trkpt lat="42.20571" lon="9.02546">
        <ele>2127</ele>
        <time>2015-06-26T06:18:18Z</time>
      </trkpt>
      <trkpt lat="42.20569" lon="9.02543">
        <ele>2126.4</ele>
        <time>2015-06-26T06:18:22Z</time>
      </trkpt>
      <trkpt lat="42.2054" lon="9.02524">
        <ele>2124.4</ele>
        <time>2015-06-26T06:19:08Z</time>
      </trkpt>
      <trkpt lat="42.20539" lon="9.02524">
        <ele>2124.2</ele>
        <time>2015-06-26T06:19:09Z</time>
      </trkpt>
      <trkpt lat="42.20531" lon="9.02518">
        <ele>2123.6</ele>
        <time>2015-06-26T06:19:19Z</time>
      </trkpt>
      <trkpt lat="42.20518" lon="9.02507">
        <ele>2123</ele>
        <time>2015-06-26T06:19:43Z</time>
      </trkpt>
      <trkpt lat="42.20514" lon="9.02507">
        <ele>2124.4</ele>
        <time>2015-06-26T06:19:50Z</time>
      </trkpt>
      <trkpt lat="42.20511" lon="9.02507">
        <ele>2125.4</ele>
        <time>2015-06-26T06:19:56Z</time>
      </trkpt>
      <trkpt lat="42.20507" lon="9.02501">
        <ele>2126.8</ele>
        <time>2015-06-26T06:20:05Z</time>
      </trkpt>
      <trkpt lat="42.20492" lon="9.02484">
        <ele>2128</ele>
        <time>2015-06-26T06:20:29Z</time>
      </trkpt>
      <trkpt lat="42.20482" lon="9.02473">
        <ele>2128.2</ele>
        <time>2015-06-26T06:20:47Z</time>
      </trkpt>
      <trkpt lat="42.20481" lon="9.02472">
        <ele>2128.4</ele>
        <time>2015-06-26T06:20:49Z</time>
      </trkpt>
      <trkpt lat="42.20476" lon="9.0247">
        <ele>2129.4</ele>
        <time>2015-06-26T06:20:57Z</time>
      </trkpt>
      <trkpt lat="42.20471" lon="9.02469">
        <ele>2130.4</ele>
        <time>2015-06-26T06:21:06Z</time>
      </trkpt>
      <trkpt lat="42.20462" lon="9.02462">
        <ele>2130.6</ele>
        <time>2015-06-26T06:21:27Z</time>
      </trkpt>
      <trkpt lat="42.20454" lon="9.02457">
        <ele>2130.4</ele>
        <time>2015-06-26T06:21:40Z</time>
      </trkpt>
      <trkpt lat="42.20454" lon="9.02456">
        <ele>2130.4</ele>
        <time>2015-06-26T06:21:42Z</time>
      </trkpt>
      <trkpt lat="42.20452" lon="9.02449">
        <ele>2130.2</ele>
        <time>2015-06-26T06:21:49Z</time>
      </trkpt>
      <trkpt lat="42.20443" lon="9.02433">
        <ele>2128.8</ele>
        <time>2015-06-26T06:22:10Z</time>
      </trkpt>
      <trkpt lat="42.20443" lon="9.02429">
        <ele>2128.4</ele>
        <time>2015-06-26T06:22:16Z</time>
      </trkpt>
      <trkpt lat="42.2044" lon="9.02426">
        <ele>2127.6</ele>
        <time>2015-06-26T06:22:21Z</time>
      </trkpt>
      <trkpt lat="42.20432" lon="9.02418">
        <ele>2125.8</ele>
        <time>2015-06-26T06:22:35Z</time>
      </trkpt>
      <trkpt lat="42.20429" lon="9.02414">
        <ele>2125.4</ele>
        <time>2015-06-26T06:22:40Z</time>
      </trkpt>
      <trkpt lat="42.2041" lon="9.02382">
        <ele>2124</ele>
        <time>2015-06-26T06:23:40Z</time>
      </trkpt>
      <trkpt lat="42.20406" lon="9.02379">
        <ele>2123.2</ele>
        <time>2015-06-26T06:23:45Z</time>
      </trkpt>
      <trkpt lat="42.20401" lon="9.02376">
        <ele>2121.8</ele>
        <time>2015-06-26T06:23:54Z</time>
      </trkpt>
      <trkpt lat="42.20396" lon="9.02371">
        <ele>2120.4</ele>
        <time>2015-06-26T06:24:10Z</time>
      </trkpt>
      <trkpt lat="42.20394" lon="9.02368">
        <ele>2120.2</ele>
        <time>2015-06-26T06:24:16Z</time>
      </trkpt>
      <trkpt lat="42.2039" lon="9.02366">
        <ele>2119</ele>
        <time>2015-06-26T06:24:22Z</time>
      </trkpt>
      <trkpt lat="42.20383" lon="9.02363">
        <ele>2117.6</ele>
        <time>2015-06-26T06:24:33Z</time>
      </trkpt>
      <trkpt lat="42.20378" lon="9.02356">
        <ele>2117.2</ele>
        <time>2015-06-26T06:25:37Z</time>
      </trkpt>
      <trkpt lat="42.20376" lon="9.02358">
        <ele>2119.2</ele>
        <time>2015-06-26T06:26:10Z</time>
      </trkpt>
      <trkpt lat="42.20365" lon="9.02353">
        <ele>2119.8</ele>
        <time>2015-06-26T06:26:38Z</time>
      </trkpt>
      <trkpt lat="42.20362" lon="9.02351">
        <ele>2121</ele>
        <time>2015-06-26T06:26:46Z</time>
      </trkpt>
      <trkpt lat="42.20359" lon="9.02351">
        <ele>2122.2</ele>
        <time>2015-06-26T06:26:55Z</time>
      </trkpt>
      <trkpt lat="42.20357" lon="9.02352">
        <ele>2123.2</ele>
        <time>2015-06-26T06:27:03Z</time>
      </trkpt>
      <trkpt lat="42.20358" lon="9.02348">
        <ele>2124.2</ele>
        <time>2015-06-26T06:27:09Z</time>
      </trkpt>
      <trkpt lat="42.20359" lon="9.02335">
        <ele>2125.2</ele>
        <time>2015-06-26T06:27:31Z</time>
      </trkpt>
      <trkpt lat="42.20359" lon="9.0233">
        <ele>2124</ele>
        <time>2015-06-26T06:27:39Z</time>
      </trkpt>
      <trkpt lat="42.20359" lon="9.02324">
        <ele>2123</ele>
        <time>2015-06-26T06:27:50Z</time>
      </trkpt>
      <trkpt lat="42.20361" lon="9.02321">
        <ele>2122.2</ele>
        <time>2015-06-26T06:27:57Z</time>
      </trkpt>
      <trkpt lat="42.20363" lon="9.0232">
        <ele>2120.6</ele>
        <time>2015-06-26T06:28:13Z</time>
      </trkpt>
      <trkpt lat="42.2036" lon="9.02317">
        <ele>2120</ele>
        <time>2015-06-26T06:28:38Z</time>
      </trkpt>
      <trkpt lat="42.2036" lon="9.02313">
        <ele>2118.4</ele>
        <time>2015-06-26T06:29:23Z</time>
      </trkpt>
      <trkpt lat="42.20361" lon="9.02311">
        <ele>2118</ele>
        <time>2015-06-26T06:29:32Z</time>
      </trkpt>
      <trkpt lat="42.20362" lon="9.02305">
        <ele>2117</ele>
        <time>2015-06-26T06:29:40Z</time>
      </trkpt>
      <trkpt lat="42.20358" lon="9.02299">
        <ele>2115.6</ele>
        <time>2015-06-26T06:29:47Z</time>
      </trkpt>
      <trkpt lat="42.20356" lon="9.02283">
        <ele>2115.4</ele>
        <time>2015-06-26T06:30:22Z</time>
      </trkpt>
      <trkpt lat="42.2035" lon="9.02273">
        <ele>2114.2</ele>
        <time>2015-06-26T06:30:38Z</time>
      </trkpt>
      <trkpt lat="42.20347" lon="9.02278">
        <ele>2114.8</ele>
        <time>2015-06-26T06:31:43Z</time>
      </trkpt>
      <trkpt lat="42.20345" lon="9.02275">
        <ele>2114</ele>
        <time>2015-06-26T06:33:44Z</time>
      </trkpt>
      <trkpt lat="42.20347" lon="9.02277">
        <ele>2113.2</ele>
        <time>2015-06-26T06:36:01Z</time>
      </trkpt>
      <trkpt lat="42.20345" lon="9.02277">
        <ele>2113.6</ele>
        <time>2015-06-26T06:37:57Z</time>
      </trkpt>
      <trkpt lat="42.20347" lon="9.0228">
        <ele>2113.6</ele>
        <time>2015-06-26T06:43:45Z</time>
      </trkpt>
      <trkpt lat="42.20347" lon="9.02278">
        <ele>2113.8</ele>
        <time>2015-06-26T06:44:50Z</time>
      </trkpt>
      <trkpt lat="42.20348" lon="9.02277">
        <ele>2113.8</ele>
        <time>2015-06-26T06:46:22Z</time>
      </trkpt>
      <trkpt lat="42.20347" lon="9.02278">
        <ele>2113.8</ele>
        <time>2015-06-26T06:46:32Z</time>
      </trkpt>
      <trkpt lat="42.20349" lon="9.02278">
        <ele>2113.6</ele>
        <time>2015-06-26T06:47:18Z</time>
      </trkpt>
      <trkpt lat="42.20348" lon="9.02278">
        <ele>2113.8</ele>
        <time>2015-06-26T06:51:35Z</time>
      </trkpt>
      <trkpt lat="42.20347" lon="9.02268">
        <ele>2113.4</ele>
        <time>2015-06-26T06:51:56Z</time>
      </trkpt>
      <trkpt lat="42.2034" lon="9.02261">
        <ele>2112.4</ele>
        <time>2015-06-26T06:52:06Z</time>
      </trkpt>
      <trkpt lat="42.20338" lon="9.02256">
        <ele>2111.8</ele>
        <time>2015-06-26T06:52:13Z</time>
      </trkpt>
      <trkpt lat="42.20336" lon="9.02251">
        <ele>2111.6</ele>
        <time>2015-06-26T06:52:17Z</time>
      </trkpt>
      <trkpt lat="42.20331" lon="9.02243">
        <ele>2111</ele>
        <time>2015-06-26T06:52:25Z</time>
      </trkpt>
      <trkpt lat="42.20328" lon="9.02237">
        <ele>2110.6</ele>
        <time>2015-06-26T06:52:38Z</time>
      </trkpt>
      <trkpt lat="42.20326" lon="9.02236">
        <ele>2110.8</ele>
        <time>2015-06-26T06:52:41Z</time>
      </trkpt>
      <trkpt lat="42.20317" lon="9.02228">
        <ele>2111.2</ele>
        <time>2015-06-26T06:53:00Z</time>
      </trkpt>
      <trkpt lat="42.2032" lon="9.02225">
        <ele>2112.4</ele>
        <time>2015-06-26T06:53:19Z</time>
      </trkpt>
      <trkpt lat="42.20321" lon="9.0222">
        <ele>2113.2</ele>
        <time>2015-06-26T06:53:29Z</time>
      </trkpt>
      <trkpt lat="42.20316" lon="9.02217">
        <ele>2114.6</ele>
        <time>2015-06-26T06:53:39Z</time>
      </trkpt>
      <trkpt lat="42.20318" lon="9.02212">
        <ele>2115.4</ele>
        <time>2015-06-26T06:53:50Z</time>
      </trkpt>
      <trkpt lat="42.20319" lon="9.02211">
        <ele>2116.6</ele>
        <time>2015-06-26T06:53:58Z</time>
      </trkpt>
      <trkpt lat="42.20317" lon="9.0221">
        <ele>2118</ele>
        <time>2015-06-26T06:54:17Z</time>
      </trkpt>
      <trkpt lat="42.20301" lon="9.02186">
        <ele>2119</ele>
        <time>2015-06-26T06:55:47Z</time>
      </trkpt>
      <trkpt lat="42.20296" lon="9.02184">
        <ele>2118.4</ele>
        <time>2015-06-26T06:56:00Z</time>
      </trkpt>
      <trkpt lat="42.20294" lon="9.02184">
        <ele>2117.4</ele>
        <time>2015-06-26T06:56:57Z</time>
      </trkpt>
      <trkpt lat="42.20306" lon="9.02186">
        <ele>2117.4</ele>
        <time>2015-06-26T06:58:04Z</time>
      </trkpt>
      <trkpt lat="42.20311" lon="9.02183">
        <ele>2116</ele>
        <time>2015-06-26T06:58:18Z</time>
      </trkpt>
      <trkpt lat="42.20312" lon="9.0218">
        <ele>2115</ele>
        <time>2015-06-26T06:58:27Z</time>
      </trkpt>
      <trkpt lat="42.20314" lon="9.02179">
        <ele>2114.6</ele>
        <time>2015-06-26T06:58:32Z</time>
      </trkpt>
      <trkpt lat="42.20317" lon="9.02178">
        <ele>2113.6</ele>
        <time>2015-06-26T06:58:39Z</time>
      </trkpt>
      <trkpt lat="42.20319" lon="9.02177">
        <ele>2112.4</ele>
        <time>2015-06-26T06:58:46Z</time>
      </trkpt>
      <trkpt lat="42.20323" lon="9.02174">
        <ele>2111.6</ele>
        <time>2015-06-26T06:58:52Z</time>
      </trkpt>
      <trkpt lat="42.20327" lon="9.02172">
        <ele>2110.6</ele>
        <time>2015-06-26T06:58:57Z</time>
      </trkpt>
      <trkpt lat="42.20332" lon="9.02169">
        <ele>2109.6</ele>
        <time>2015-06-26T06:59:02Z</time>
      </trkpt>
      <trkpt lat="42.20338" lon="9.02164">
        <ele>2108.6</ele>
        <time>2015-06-26T06:59:07Z</time>
      </trkpt>
      <trkpt lat="42.20348" lon="9.02157">
        <ele>2106.8</ele>
        <time>2015-06-26T06:59:21Z</time>
      </trkpt>
      <trkpt lat="42.20353" lon="9.02153">
        <ele>2105.8</ele>
        <time>2015-06-26T06:59:28Z</time>
      </trkpt>
      <trkpt lat="42.20359" lon="9.0215">
        <ele>2105.6</ele>
        <time>2015-06-26T06:59:41Z</time>
      </trkpt>
      <trkpt lat="42.20362" lon="9.02141">
        <ele>2106</ele>
        <time>2015-06-26T07:00:02Z</time>
      </trkpt>
      <trkpt lat="42.20363" lon="9.02138">
        <ele>2105</ele>
        <time>2015-06-26T07:00:08Z</time>
      </trkpt>
      <trkpt lat="42.20364" lon="9.02137">
        <ele>2104</ele>
        <time>2015-06-26T07:00:14Z</time>
      </trkpt>
      <trkpt lat="42.20366" lon="9.02131">
        <ele>2102.4</ele>
        <time>2015-06-26T07:00:26Z</time>
      </trkpt>
      <trkpt lat="42.20373" lon="9.02129">
        <ele>2102.4</ele>
        <time>2015-06-26T07:00:42Z</time>
      </trkpt>
      <trkpt lat="42.20379" lon="9.02124">
        <ele>2102.6</ele>
        <time>2015-06-26T07:00:57Z</time>
      </trkpt>
      <trkpt lat="42.20383" lon="9.02122">
        <ele>2101.8</ele>
        <time>2015-06-26T07:01:04Z</time>
      </trkpt>
      <trkpt lat="42.20386" lon="9.0212">
        <ele>2101.2</ele>
        <time>2015-06-26T07:01:08Z</time>
      </trkpt>
      <trkpt lat="42.20385" lon="9.02103">
        <ele>2099.6</ele>
        <time>2015-06-26T07:01:36Z</time>
      </trkpt>
      <trkpt lat="42.2039" lon="9.02092">
        <ele>2100.8</ele>
        <time>2015-06-26T07:01:47Z</time>
      </trkpt>
      <trkpt lat="42.20392" lon="9.02088">
        <ele>2100.4</ele>
        <time>2015-06-26T07:02:03Z</time>
      </trkpt>
      <trkpt lat="42.20393" lon="9.02079">
        <ele>2099.6</ele>
        <time>2015-06-26T07:02:15Z</time>
      </trkpt>
      <trkpt lat="42.20399" lon="9.02047">
        <ele>2098.4</ele>
        <time>2015-06-26T07:02:57Z</time>
      </trkpt>
      <trkpt lat="42.20407" lon="9.02037">
        <ele>2098.4</ele>
        <time>2015-06-26T07:03:19Z</time>
      </trkpt>
      <trkpt lat="42.20408" lon="9.02035">
        <ele>2099.2</ele>
        <time>2015-06-26T07:03:25Z</time>
      </trkpt>
      <trkpt lat="42.20416" lon="9.02011">
        <ele>2101.6</ele>
        <time>2015-06-26T07:04:10Z</time>
      </trkpt>
      <trkpt lat="42.20419" lon="9.02007">
        <ele>2102</ele>
        <time>2015-06-26T07:04:20Z</time>
      </trkpt>
      <trkpt lat="42.20421" lon="9.02004">
        <ele>2103.2</ele>
        <time>2015-06-26T07:04:30Z</time>
      </trkpt>
      <trkpt lat="42.20429" lon="9.01977">
        <ele>2105</ele>
        <time>2015-06-26T07:05:08Z</time>
      </trkpt>
      <trkpt lat="42.20432" lon="9.01973">
        <ele>2105.4</ele>
        <time>2015-06-26T07:05:16Z</time>
      </trkpt>
      <trkpt lat="42.20434" lon="9.01969">
        <ele>2106.6</ele>
        <time>2015-06-26T07:05:23Z</time>
      </trkpt>
      <trkpt lat="42.20436" lon="9.01964">
        <ele>2107.8</ele>
        <time>2015-06-26T07:05:32Z</time>
      </trkpt>
      <trkpt lat="42.2044" lon="9.01959">
        <ele>2108.8</ele>
        <time>2015-06-26T07:05:41Z</time>
      </trkpt>
      <trkpt lat="42.20443" lon="9.01951">
        <ele>2110.2</ele>
        <time>2015-06-26T07:05:53Z</time>
      </trkpt>
      <trkpt lat="42.20446" lon="9.01938">
        <ele>2111.2</ele>
        <time>2015-06-26T07:06:08Z</time>
      </trkpt>
      <trkpt lat="42.2046" lon="9.01881">
        <ele>2112.6</ele>
        <time>2015-06-26T07:07:05Z</time>
      </trkpt>
      <trkpt lat="42.20462" lon="9.01864">
        <ele>2112.6</ele>
        <time>2015-06-26T07:07:18Z</time>
      </trkpt>
      <trkpt lat="42.20469" lon="9.01848">
        <ele>2113</ele>
        <time>2015-06-26T07:07:36Z</time>
      </trkpt>
      <trkpt lat="42.20481" lon="9.01841">
        <ele>2114</ele>
        <time>2015-06-26T07:08:44Z</time>
      </trkpt>
      <trkpt lat="42.20484" lon="9.01833">
        <ele>2114</ele>
        <time>2015-06-26T07:11:06Z</time>
      </trkpt>
      <trkpt lat="42.20491" lon="9.01816">
        <ele>2113.2</ele>
        <time>2015-06-26T07:11:45Z</time>
      </trkpt>
      <trkpt lat="42.20497" lon="9.01799">
        <ele>2112.4</ele>
        <time>2015-06-26T07:11:58Z</time>
      </trkpt>
      <trkpt lat="42.20502" lon="9.0179">
        <ele>2111.6</ele>
        <time>2015-06-26T07:12:06Z</time>
      </trkpt>
      <trkpt lat="42.20503" lon="9.0179">
        <ele>2111.4</ele>
        <time>2015-06-26T07:12:07Z</time>
      </trkpt>
      <trkpt lat="42.20515" lon="9.0177">
        <ele>2110.8</ele>
        <time>2015-06-26T07:12:43Z</time>
      </trkpt>
      <trkpt lat="42.20517" lon="9.01765">
        <ele>2110</ele>
        <time>2015-06-26T07:12:49Z</time>
      </trkpt>
      <trkpt lat="42.20517" lon="9.01763">
        <ele>2109.4</ele>
        <time>2015-06-26T07:12:51Z</time>
      </trkpt>
      <trkpt lat="42.20518" lon="9.01762">
        <ele>2109.2</ele>
        <time>2015-06-26T07:12:53Z</time>
      </trkpt>
      <trkpt lat="42.20523" lon="9.01756">
        <ele>2108.6</ele>
        <time>2015-06-26T07:13:03Z</time>
      </trkpt>
      <trkpt lat="42.20555" lon="9.01718">
        <ele>2108.2</ele>
        <time>2015-06-26T07:14:30Z</time>
      </trkpt>
      <trkpt lat="42.20556" lon="9.01717">
        <ele>2108</ele>
        <time>2015-06-26T07:14:32Z</time>
      </trkpt>
      <trkpt lat="42.20561" lon="9.01706">
        <ele>2107.4</ele>
        <time>2015-06-26T07:14:42Z</time>
      </trkpt>
      <trkpt lat="42.20568" lon="9.01692">
        <ele>2107.2</ele>
        <time>2015-06-26T07:14:58Z</time>
      </trkpt>
      <trkpt lat="42.20575" lon="9.01677">
        <ele>2107.4</ele>
        <time>2015-06-26T07:15:25Z</time>
      </trkpt>
      <trkpt lat="42.20597" lon="9.01663">
        <ele>2107</ele>
        <time>2015-06-26T07:16:05Z</time>
      </trkpt>
      <trkpt lat="42.206" lon="9.01657">
        <ele>2108</ele>
        <time>2015-06-26T07:16:13Z</time>
      </trkpt>
      <trkpt lat="42.20605" lon="9.01648">
        <ele>2109.2</ele>
        <time>2015-06-26T07:16:34Z</time>
      </trkpt>
      <trkpt lat="42.20616" lon="9.01624">
        <ele>2110.4</ele>
        <time>2015-06-26T07:17:06Z</time>
      </trkpt>
      <trkpt lat="42.20614" lon="9.0161">
        <ele>2111.2</ele>
        <time>2015-06-26T07:17:29Z</time>
      </trkpt>
      <trkpt lat="42.20616" lon="9.01603">
        <ele>2112.4</ele>
        <time>2015-06-26T07:17:50Z</time>
      </trkpt>
      <trkpt lat="42.20617" lon="9.01599">
        <ele>2113.8</ele>
        <time>2015-06-26T07:18:04Z</time>
      </trkpt>
      <trkpt lat="42.20621" lon="9.016">
        <ele>2114.4</ele>
        <time>2015-06-26T07:18:25Z</time>
      </trkpt>
      <trkpt lat="42.20624" lon="9.016">
        <ele>2115.4</ele>
        <time>2015-06-26T07:18:32Z</time>
      </trkpt>
      <trkpt lat="42.20631" lon="9.01598">
        <ele>2117.2</ele>
        <time>2015-06-26T07:18:46Z</time>
      </trkpt>
      <trkpt lat="42.20633" lon="9.01595">
        <ele>2117.4</ele>
        <time>2015-06-26T07:18:52Z</time>
      </trkpt>
      <trkpt lat="42.2064" lon="9.01591">
        <ele>2119</ele>
        <time>2015-06-26T07:19:10Z</time>
      </trkpt>
      <trkpt lat="42.20642" lon="9.0159">
        <ele>2119.8</ele>
        <time>2015-06-26T07:19:17Z</time>
      </trkpt>
      <trkpt lat="42.20643" lon="9.01594">
        <ele>2121</ele>
        <time>2015-06-26T07:19:26Z</time>
      </trkpt>
      <trkpt lat="42.20646" lon="9.0159">
        <ele>2122.6</ele>
        <time>2015-06-26T07:19:41Z</time>
      </trkpt>
      <trkpt lat="42.2065" lon="9.0159">
        <ele>2123.2</ele>
        <time>2015-06-26T07:19:47Z</time>
      </trkpt>
      <trkpt lat="42.20652" lon="9.01592">
        <ele>2124.4</ele>
        <time>2015-06-26T07:19:55Z</time>
      </trkpt>
      <trkpt lat="42.20654" lon="9.01594">
        <ele>2125.2</ele>
        <time>2015-06-26T07:20:01Z</time>
      </trkpt>
      <trkpt lat="42.20657" lon="9.01592">
        <ele>2126.6</ele>
        <time>2015-06-26T07:20:12Z</time>
      </trkpt>
      <trkpt lat="42.20659" lon="9.01586">
        <ele>2127.6</ele>
        <time>2015-06-26T07:20:22Z</time>
      </trkpt>
      <trkpt lat="42.20663" lon="9.01583">
        <ele>2128.8</ele>
        <time>2015-06-26T07:20:33Z</time>
      </trkpt>
      <trkpt lat="42.20665" lon="9.01577">
        <ele>2130.2</ele>
        <time>2015-06-26T07:20:43Z</time>
      </trkpt>
      <trkpt lat="42.20669" lon="9.01575">
        <ele>2131.2</ele>
        <time>2015-06-26T07:20:55Z</time>
      </trkpt>
      <trkpt lat="42.20672" lon="9.01574">
        <ele>2132</ele>
        <time>2015-06-26T07:21:04Z</time>
      </trkpt>
      <trkpt lat="42.20676" lon="9.01568">
        <ele>2133.4</ele>
        <time>2015-06-26T07:21:15Z</time>
      </trkpt>
      <trkpt lat="42.20678" lon="9.01568">
        <ele>2134</ele>
        <time>2015-06-26T07:21:22Z</time>
      </trkpt>
      <trkpt lat="42.20682" lon="9.01565">
        <ele>2135.2</ele>
        <time>2015-06-26T07:21:32Z</time>
      </trkpt>
      <trkpt lat="42.20683" lon="9.01564">
        <ele>2136.4</ele>
        <time>2015-06-26T07:21:39Z</time>
      </trkpt>
      <trkpt lat="42.20686" lon="9.01556">
        <ele>2137.8</ele>
        <time>2015-06-26T07:22:24Z</time>
      </trkpt>
      <trkpt lat="42.20691" lon="9.01549">
        <ele>2139.2</ele>
        <time>2015-06-26T07:22:49Z</time>
      </trkpt>
      <trkpt lat="42.20696" lon="9.01543">
        <ele>2140.2</ele>
        <time>2015-06-26T07:22:59Z</time>
      </trkpt>
      <trkpt lat="42.20701" lon="9.01536">
        <ele>2141.2</ele>
        <time>2015-06-26T07:23:10Z</time>
      </trkpt>
      <trkpt lat="42.20716" lon="9.01516">
        <ele>2142.2</ele>
        <time>2015-06-26T07:23:38Z</time>
      </trkpt>
      <trkpt lat="42.20721" lon="9.01509">
        <ele>2143.8</ele>
        <time>2015-06-26T07:24:15Z</time>
      </trkpt>
      <trkpt lat="42.20723" lon="9.01511">
        <ele>2144.8</ele>
        <time>2015-06-26T07:24:26Z</time>
      </trkpt>
      <trkpt lat="42.20726" lon="9.01506">
        <ele>2145.6</ele>
        <time>2015-06-26T07:24:35Z</time>
      </trkpt>
      <trkpt lat="42.20733" lon="9.01492">
        <ele>2147</ele>
        <time>2015-06-26T07:24:56Z</time>
      </trkpt>
      <trkpt lat="42.20737" lon="9.01488">
        <ele>2148</ele>
        <time>2015-06-26T07:25:05Z</time>
      </trkpt>
      <trkpt lat="42.2074" lon="9.01486">
        <ele>2148.6</ele>
        <time>2015-06-26T07:25:11Z</time>
      </trkpt>
      <trkpt lat="42.20741" lon="9.01486">
        <ele>2150</ele>
        <time>2015-06-26T07:25:18Z</time>
      </trkpt>
      <trkpt lat="42.20745" lon="9.01481">
        <ele>2151.4</ele>
        <time>2015-06-26T07:25:36Z</time>
      </trkpt>
      <trkpt lat="42.20747" lon="9.01471">
        <ele>2152.2</ele>
        <time>2015-06-26T07:25:47Z</time>
      </trkpt>
      <trkpt lat="42.20748" lon="9.0146">
        <ele>2152</ele>
        <time>2015-06-26T07:25:57Z</time>
      </trkpt>
      <trkpt lat="42.20748" lon="9.01459">
        <ele>2151.8</ele>
        <time>2015-06-26T07:25:58Z</time>
      </trkpt>
      <trkpt lat="42.2075" lon="9.01456">
        <ele>2151.4</ele>
        <time>2015-06-26T07:26:01Z</time>
      </trkpt>
      <trkpt lat="42.20765" lon="9.01431">
        <ele>2151.2</ele>
        <time>2015-06-26T07:26:53Z</time>
      </trkpt>
      <trkpt lat="42.2077" lon="9.01422">
        <ele>2151.8</ele>
        <time>2015-06-26T07:27:12Z</time>
      </trkpt>
      <trkpt lat="42.20775" lon="9.01413">
        <ele>2152.8</ele>
        <time>2015-06-26T07:27:29Z</time>
      </trkpt>
      <trkpt lat="42.20779" lon="9.01403">
        <ele>2152.4</ele>
        <time>2015-06-26T07:27:43Z</time>
      </trkpt>
      <trkpt lat="42.20785" lon="9.01382">
        <ele>2150.4</ele>
        <time>2015-06-26T07:28:09Z</time>
      </trkpt>
      <trkpt lat="42.2079" lon="9.0137">
        <ele>2150.2</ele>
        <time>2015-06-26T07:28:33Z</time>
      </trkpt>
      <trkpt lat="42.20808" lon="9.01331">
        <ele>2149.4</ele>
        <time>2015-06-26T07:30:11Z</time>
      </trkpt>
      <trkpt lat="42.2081" lon="9.01325">
        <ele>2150.6</ele>
        <time>2015-06-26T07:31:45Z</time>
      </trkpt>
      <trkpt lat="42.20816" lon="9.01308">
        <ele>2151.6</ele>
        <time>2015-06-26T07:32:54Z</time>
      </trkpt>
      <trkpt lat="42.20815" lon="9.01297">
        <ele>2151</ele>
        <time>2015-06-26T07:33:34Z</time>
      </trkpt>
      <trkpt lat="42.20813" lon="9.01275">
        <ele>2150.2</ele>
        <time>2015-06-26T07:37:41Z</time>
      </trkpt>
      <trkpt lat="42.20813" lon="9.01275">
        <ele>2150.2</ele>
        <time>2015-06-26T07:37:48Z</time>
      </trkpt>
      <trkpt lat="42.20813" lon="9.01271">
        <ele>2149.2</ele>
        <time>2015-06-26T07:38:13Z</time>
      </trkpt>
      <trkpt lat="42.20812" lon="9.01268">
        <ele>2148.8</ele>
        <time>2015-06-26T07:38:27Z</time>
      </trkpt>
      <trkpt lat="42.20811" lon="9.01267">
        <ele>2147.8</ele>
        <time>2015-06-26T07:38:42Z</time>
      </trkpt>
      <trkpt lat="42.2081" lon="9.01264">
        <ele>2146.6</ele>
        <time>2015-06-26T07:38:59Z</time>
      </trkpt>
      <trkpt lat="42.20808" lon="9.01262">
        <ele>2145.2</ele>
        <time>2015-06-26T07:39:19Z</time>
      </trkpt>
      <trkpt lat="42.20808" lon="9.0126">
        <ele>2144.8</ele>
        <time>2015-06-26T07:39:28Z</time>
      </trkpt>
      <trkpt lat="42.20808" lon="9.01255">
        <ele>2143.4</ele>
        <time>2015-06-26T07:39:39Z</time>
      </trkpt>
      <trkpt lat="42.20806" lon="9.01252">
        <ele>2142.6</ele>
        <time>2015-06-26T07:39:52Z</time>
      </trkpt>
      <trkpt lat="42.20808" lon="9.01241">
        <ele>2142.2</ele>
        <time>2015-06-26T07:40:23Z</time>
      </trkpt>
      <trkpt lat="42.20813" lon="9.01238">
        <ele>2143.2</ele>
        <time>2015-06-26T07:40:40Z</time>
      </trkpt>
      <trkpt lat="42.20814" lon="9.01238">
        <ele>2144.2</ele>
        <time>2015-06-26T07:40:58Z</time>
      </trkpt>
      <trkpt lat="42.20815" lon="9.01239">
        <ele>2145.2</ele>
        <time>2015-06-26T07:41:11Z</time>
      </trkpt>
      <trkpt lat="42.20817" lon="9.01235">
        <ele>2146</ele>
        <time>2015-06-26T07:41:20Z</time>
      </trkpt>
      <trkpt lat="42.20819" lon="9.01225">
        <ele>2147.6</ele>
        <time>2015-06-26T07:41:33Z</time>
      </trkpt>
      <trkpt lat="42.20819" lon="9.01225">
        <ele>2147.6</ele>
        <time>2015-06-26T07:41:34Z</time>
      </trkpt>
      <trkpt lat="42.2082" lon="9.01226">
        <ele>2147.8</ele>
        <time>2015-06-26T07:41:39Z</time>
      </trkpt>
      <trkpt lat="42.20822" lon="9.01224">
        <ele>2149.4</ele>
        <time>2015-06-26T07:41:47Z</time>
      </trkpt>
      <trkpt lat="42.20819" lon="9.01221">
        <ele>2150.6</ele>
        <time>2015-06-26T07:41:56Z</time>
      </trkpt>
      <trkpt lat="42.2082" lon="9.0122">
        <ele>2151.6</ele>
        <time>2015-06-26T07:42:08Z</time>
      </trkpt>
      <trkpt lat="42.2082" lon="9.01216">
        <ele>2152.8</ele>
        <time>2015-06-26T07:42:18Z</time>
      </trkpt>
      <trkpt lat="42.20819" lon="9.01213">
        <ele>2153.6</ele>
        <time>2015-06-26T07:42:26Z</time>
      </trkpt>
      <trkpt lat="42.20819" lon="9.01211">
        <ele>2154.8</ele>
        <time>2015-06-26T07:42:35Z</time>
      </trkpt>
      <trkpt lat="42.20819" lon="9.01209">
        <ele>2156</ele>
        <time>2015-06-26T07:42:44Z</time>
      </trkpt>
      <trkpt lat="42.2082" lon="9.01208">
        <ele>2157.2</ele>
        <time>2015-06-26T07:42:55Z</time>
      </trkpt>
      <trkpt lat="42.20822" lon="9.01205">
        <ele>2158.4</ele>
        <time>2015-06-26T07:43:05Z</time>
      </trkpt>
      <trkpt lat="42.2082" lon="9.01201">
        <ele>2159.6</ele>
        <time>2015-06-26T07:43:18Z</time>
      </trkpt>
      <trkpt lat="42.20824" lon="9.01202">
        <ele>2160.8</ele>
        <time>2015-06-26T07:43:32Z</time>
      </trkpt>
      <trkpt lat="42.20825" lon="9.01202">
        <ele>2162.2</ele>
        <time>2015-06-26T07:43:44Z</time>
      </trkpt>
      <trkpt lat="42.20827" lon="9.01197">
        <ele>2163.8</ele>
        <time>2015-06-26T07:44:03Z</time>
      </trkpt>
      <trkpt lat="42.20826" lon="9.01185">
        <ele>2163.8</ele>
        <time>2015-06-26T07:44:49Z</time>
      </trkpt>
      <trkpt lat="42.20824" lon="9.01179">
        <ele>2162.8</ele>
        <time>2015-06-26T07:45:02Z</time>
      </trkpt>
      <trkpt lat="42.20829" lon="9.01172">
        <ele>2162.4</ele>
        <time>2015-06-26T07:45:29Z</time>
      </trkpt>
      <trkpt lat="42.20833" lon="9.01154">
        <ele>2162.8</ele>
        <time>2015-06-26T07:46:16Z</time>
      </trkpt>
      <trkpt lat="42.20832" lon="9.01151">
        <ele>2161.6</ele>
        <time>2015-06-26T07:46:42Z</time>
      </trkpt>
      <trkpt lat="42.20834" lon="9.0115">
        <ele>2160.8</ele>
        <time>2015-06-26T07:47:01Z</time>
      </trkpt>
      <trkpt lat="42.20835" lon="9.01149">
        <ele>2160.2</ele>
        <time>2015-06-26T07:47:33Z</time>
      </trkpt>
      <trkpt lat="42.20834" lon="9.01147">
        <ele>2159</ele>
        <time>2015-06-26T07:48:01Z</time>
      </trkpt>
      <trkpt lat="42.20835" lon="9.01147">
        <ele>2158.4</ele>
        <time>2015-06-26T07:48:09Z</time>
      </trkpt>
      <trkpt lat="42.20836" lon="9.01147">
        <ele>2157.2</ele>
        <time>2015-06-26T07:48:21Z</time>
      </trkpt>
      <trkpt lat="42.20838" lon="9.01145">
        <ele>2156</ele>
        <time>2015-06-26T07:48:50Z</time>
      </trkpt>
      <trkpt lat="42.20838" lon="9.01144">
        <ele>2156</ele>
        <time>2015-06-26T07:48:52Z</time>
      </trkpt>
      <trkpt lat="42.20836" lon="9.01139">
        <ele>2156.2</ele>
        <time>2015-06-26T07:49:33Z</time>
      </trkpt>
      <trkpt lat="42.20835" lon="9.01137">
        <ele>2156.6</ele>
        <time>2015-06-26T07:49:39Z</time>
      </trkpt>
      <trkpt lat="42.2084" lon="9.01125">
        <ele>2158.2</ele>
        <time>2015-06-26T07:50:25Z</time>
      </trkpt>
      <trkpt lat="42.2084" lon="9.01122">
        <ele>2159.2</ele>
        <time>2015-06-26T07:50:33Z</time>
      </trkpt>
      <trkpt lat="42.2084" lon="9.0112">
        <ele>2160.4</ele>
        <time>2015-06-26T07:50:43Z</time>
      </trkpt>
      <trkpt lat="42.20842" lon="9.01121">
        <ele>2161.4</ele>
        <time>2015-06-26T07:51:02Z</time>
      </trkpt>
      <trkpt lat="42.20847" lon="9.01119">
        <ele>2162</ele>
        <time>2015-06-26T07:51:39Z</time>
      </trkpt>
      <trkpt lat="42.20845" lon="9.01118">
        <ele>2162</ele>
        <time>2015-06-26T07:52:12Z</time>
      </trkpt>
      <trkpt lat="42.20847" lon="9.01116">
        <ele>2163.8</ele>
        <time>2015-06-26T07:54:38Z</time>
      </trkpt>
      <trkpt lat="42.20845" lon="9.01114">
        <ele>2164</ele>
        <time>2015-06-26T07:54:45Z</time>
      </trkpt>
      <trkpt lat="42.20843" lon="9.01109">
        <ele>2166</ele>
        <time>2015-06-26T07:56:02Z</time>
      </trkpt>
      <trkpt lat="42.20843" lon="9.01106">
        <ele>2167.4</ele>
        <time>2015-06-26T07:56:24Z</time>
      </trkpt>
      <trkpt lat="42.20845" lon="9.01103">
        <ele>2168.4</ele>
        <time>2015-06-26T07:56:39Z</time>
      </trkpt>
      <trkpt lat="42.20841" lon="9.01105">
        <ele>2169</ele>
        <time>2015-06-26T07:57:10Z</time>
      </trkpt>
      <trkpt lat="42.20844" lon="9.01105">
        <ele>2170.6</ele>
        <time>2015-06-26T07:57:21Z</time>
      </trkpt>
      <trkpt lat="42.20844" lon="9.01103">
        <ele>2171.6</ele>
        <time>2015-06-26T07:57:39Z</time>
      </trkpt>
      <trkpt lat="42.20842" lon="9.01102">
        <ele>2172.6</ele>
        <time>2015-06-26T07:57:47Z</time>
      </trkpt>
      <trkpt lat="42.2084" lon="9.01101">
        <ele>2173.8</ele>
        <time>2015-06-26T07:57:56Z</time>
      </trkpt>
      <trkpt lat="42.20843" lon="9.01102">
        <ele>2175.4</ele>
        <time>2015-06-26T07:58:07Z</time>
      </trkpt>
      <trkpt lat="42.20841" lon="9.01099">
        <ele>2175.6</ele>
        <time>2015-06-26T07:58:14Z</time>
      </trkpt>
      <trkpt lat="42.20849" lon="9.011">
        <ele>2176.8</ele>
        <time>2015-06-26T07:58:49Z</time>
      </trkpt>
      <trkpt lat="42.20847" lon="9.01094">
        <ele>2176.8</ele>
        <time>2015-06-26T07:58:58Z</time>
      </trkpt>
      <trkpt lat="42.20848" lon="9.01077">
        <ele>2177</ele>
        <time>2015-06-26T07:59:30Z</time>
      </trkpt>
      <trkpt lat="42.20845" lon="9.01067">
        <ele>2176.6</ele>
        <time>2015-06-26T07:59:42Z</time>
      </trkpt>
      <trkpt lat="42.20845" lon="9.01065">
        <ele>2177.2</ele>
        <time>2015-06-26T07:59:44Z</time>
      </trkpt>
      <trkpt lat="42.20843" lon="9.01062">
        <ele>2177.4</ele>
        <time>2015-06-26T07:59:47Z</time>
      </trkpt>
      <trkpt lat="42.20843" lon="9.01061">
        <ele>2177.4</ele>
        <time>2015-06-26T07:59:48Z</time>
      </trkpt>
      <trkpt lat="42.2084" lon="9.01045">
        <ele>2178.4</ele>
        <time>2015-06-26T08:00:03Z</time>
      </trkpt>
      <trkpt lat="42.20845" lon="9.01004">
        <ele>2179.4</ele>
        <time>2015-06-26T08:01:13Z</time>
      </trkpt>
      <trkpt lat="42.20844" lon="9.01001">
        <ele>2180.8</ele>
        <time>2015-06-26T08:01:21Z</time>
      </trkpt>
      <trkpt lat="42.20845" lon="9.00999">
        <ele>2181.8</ele>
        <time>2015-06-26T08:01:28Z</time>
      </trkpt>
      <trkpt lat="42.20846" lon="9.00995">
        <ele>2183.2</ele>
        <time>2015-06-26T08:01:37Z</time>
      </trkpt>
      <trkpt lat="42.20846" lon="9.00993">
        <ele>2184.2</ele>
        <time>2015-06-26T08:01:45Z</time>
      </trkpt>
      <trkpt lat="42.20844" lon="9.00991">
        <ele>2185.8</ele>
        <time>2015-06-26T08:01:57Z</time>
      </trkpt>
      <trkpt lat="42.20843" lon="9.00987">
        <ele>2186.6</ele>
        <time>2015-06-26T08:02:07Z</time>
      </trkpt>
      <trkpt lat="42.20845" lon="9.00985">
        <ele>2187.8</ele>
        <time>2015-06-26T08:02:17Z</time>
      </trkpt>
      <trkpt lat="42.20847" lon="9.00983">
        <ele>2189.2</ele>
        <time>2015-06-26T08:02:29Z</time>
      </trkpt>
      <trkpt lat="42.20845" lon="9.00977">
        <ele>2190.2</ele>
        <time>2015-06-26T08:02:38Z</time>
      </trkpt>
      <trkpt lat="42.20842" lon="9.00975">
        <ele>2191.6</ele>
        <time>2015-06-26T08:02:49Z</time>
      </trkpt>
      <trkpt lat="42.20842" lon="9.00973">
        <ele>2192.2</ele>
        <time>2015-06-26T08:02:56Z</time>
      </trkpt>
      <trkpt lat="42.20843" lon="9.00971">
        <ele>2194</ele>
        <time>2015-06-26T08:03:08Z</time>
      </trkpt>
      <trkpt lat="42.20843" lon="9.00967">
        <ele>2195.2</ele>
        <time>2015-06-26T08:03:21Z</time>
      </trkpt>
      <trkpt lat="42.20843" lon="9.00963">
        <ele>2196.4</ele>
        <time>2015-06-26T08:03:36Z</time>
      </trkpt>
      <trkpt lat="42.20846" lon="9.00961">
        <ele>2198</ele>
        <time>2015-06-26T08:03:52Z</time>
      </trkpt>
      <trkpt lat="42.20843" lon="9.00954">
        <ele>2199.2</ele>
        <time>2015-06-26T08:04:10Z</time>
      </trkpt>
      <trkpt lat="42.20843" lon="9.00954">
        <ele>2199.4</ele>
        <time>2015-06-26T08:04:12Z</time>
      </trkpt>
      <trkpt lat="42.20844" lon="9.00953">
        <ele>2199.8</ele>
        <time>2015-06-26T08:04:18Z</time>
      </trkpt>
      <trkpt lat="42.20845" lon="9.0095">
        <ele>2201.4</ele>
        <time>2015-06-26T08:04:27Z</time>
      </trkpt>
      <trkpt lat="42.20845" lon="9.00948">
        <ele>2202</ele>
        <time>2015-06-26T08:04:32Z</time>
      </trkpt>
      <trkpt lat="42.20846" lon="9.00947">
        <ele>2203.6</ele>
        <time>2015-06-26T08:04:39Z</time>
      </trkpt>
      <trkpt lat="42.20848" lon="9.00947">
        <ele>2204.6</ele>
        <time>2015-06-26T08:04:46Z</time>
      </trkpt>
      <trkpt lat="42.2085" lon="9.00948">
        <ele>2206.2</ele>
        <time>2015-06-26T08:04:56Z</time>
      </trkpt>
      <trkpt lat="42.2085" lon="9.00942">
        <ele>2207</ele>
        <time>2015-06-26T08:05:04Z</time>
      </trkpt>
      <trkpt lat="42.2085" lon="9.0094">
        <ele>2208.6</ele>
        <time>2015-06-26T08:05:14Z</time>
      </trkpt>
      <trkpt lat="42.2085" lon="9.00937">
        <ele>2210</ele>
        <time>2015-06-26T08:06:39Z</time>
      </trkpt>
      <trkpt lat="42.20854" lon="9.00945">
        <ele>2210</ele>
        <time>2015-06-26T08:07:14Z</time>
      </trkpt>
      <trkpt lat="42.20856" lon="9.00947">
        <ele>2209</ele>
        <time>2015-06-26T08:07:46Z</time>
      </trkpt>
      <trkpt lat="42.20862" lon="9.00922">
        <ele>2209.8</ele>
        <time>2015-06-26T08:08:40Z</time>
      </trkpt>
      <trkpt lat="42.20867" lon="9.00902">
        <ele>2210.4</ele>
        <time>2015-06-26T08:09:00Z</time>
      </trkpt>
      <trkpt lat="42.2087" lon="9.0089">
        <ele>2212</ele>
        <time>2015-06-26T08:09:21Z</time>
      </trkpt>
      <trkpt lat="42.20879" lon="9.00873">
        <ele>2212.4</ele>
        <time>2015-06-26T08:09:59Z</time>
      </trkpt>
      <trkpt lat="42.20882" lon="9.00874">
        <ele>2214.4</ele>
        <time>2015-06-26T08:10:12Z</time>
      </trkpt>
      <trkpt lat="42.20884" lon="9.00872">
        <ele>2215.2</ele>
        <time>2015-06-26T08:10:23Z</time>
      </trkpt>
      <trkpt lat="42.20885" lon="9.00871">
        <ele>2216.2</ele>
        <time>2015-06-26T08:10:31Z</time>
      </trkpt>
      <trkpt lat="42.20886" lon="9.00866">
        <ele>2218</ele>
        <time>2015-06-26T08:10:45Z</time>
      </trkpt>
      <trkpt lat="42.20884" lon="9.00862">
        <ele>2218.8</ele>
        <time>2015-06-26T08:10:54Z</time>
      </trkpt>
      <trkpt lat="42.20885" lon="9.00859">
        <ele>2220</ele>
        <time>2015-06-26T08:11:05Z</time>
      </trkpt>
      <trkpt lat="42.20886" lon="9.00856">
        <ele>2221.6</ele>
        <time>2015-06-26T08:11:18Z</time>
      </trkpt>
      <trkpt lat="42.20892" lon="9.00848">
        <ele>2223.6</ele>
        <time>2015-06-26T08:12:29Z</time>
      </trkpt>
      <trkpt lat="42.20888" lon="9.00847">
        <ele>2224.2</ele>
        <time>2015-06-26T08:12:35Z</time>
      </trkpt>
      <trkpt lat="42.20889" lon="9.00844">
        <ele>2225.6</ele>
        <time>2015-06-26T08:12:56Z</time>
      </trkpt>
      <trkpt lat="42.20888" lon="9.00843">
        <ele>2227.4</ele>
        <time>2015-06-26T08:13:14Z</time>
      </trkpt>
      <trkpt lat="42.20888" lon="9.00839">
        <ele>2228.8</ele>
        <time>2015-06-26T08:13:37Z</time>
      </trkpt>
      <trkpt lat="42.20889" lon="9.00834">
        <ele>2229.6</ele>
        <time>2015-06-26T08:13:48Z</time>
      </trkpt>
      <trkpt lat="42.20896" lon="9.00829">
        <ele>2231.2</ele>
        <time>2015-06-26T08:14:02Z</time>
      </trkpt>
      <trkpt lat="42.20898" lon="9.00828">
        <ele>2232.4</ele>
        <time>2015-06-26T08:14:12Z</time>
      </trkpt>
      <trkpt lat="42.20905" lon="9.00822">
        <ele>2234</ele>
        <time>2015-06-26T08:14:32Z</time>
      </trkpt>
      <trkpt lat="42.20903" lon="9.00813">
        <ele>2235</ele>
        <time>2015-06-26T08:14:45Z</time>
      </trkpt>
      <trkpt lat="42.20911" lon="9.00808">
        <ele>2236.8</ele>
        <time>2015-06-26T08:15:05Z</time>
      </trkpt>
      <trkpt lat="42.2091" lon="9.00798">
        <ele>2237.8</ele>
        <time>2015-06-26T08:15:19Z</time>
      </trkpt>
      <trkpt lat="42.2091" lon="9.00795">
        <ele>2238.4</ele>
        <time>2015-06-26T08:15:27Z</time>
      </trkpt>
      <trkpt lat="42.20911" lon="9.00793">
        <ele>2240.2</ele>
        <time>2015-06-26T08:15:36Z</time>
      </trkpt>
      <trkpt lat="42.20911" lon="9.00791">
        <ele>2241.4</ele>
        <time>2015-06-26T08:15:52Z</time>
      </trkpt>
      <trkpt lat="42.20911" lon="9.00788">
        <ele>2242</ele>
        <time>2015-06-26T08:15:58Z</time>
      </trkpt>
      <trkpt lat="42.20911" lon="9.00783">
        <ele>2244.2</ele>
        <time>2015-06-26T08:16:11Z</time>
      </trkpt>
      <trkpt lat="42.20912" lon="9.00783">
        <ele>2245.2</ele>
        <time>2015-06-26T08:16:22Z</time>
      </trkpt>
      <trkpt lat="42.20911" lon="9.00782">
        <ele>2246.4</ele>
        <time>2015-06-26T08:16:31Z</time>
      </trkpt>
      <trkpt lat="42.20912" lon="9.0078">
        <ele>2247.4</ele>
        <time>2015-06-26T08:16:40Z</time>
      </trkpt>
      <trkpt lat="42.20936" lon="9.0075">
        <ele>2249.2</ele>
        <time>2015-06-26T08:17:27Z</time>
      </trkpt>
      <trkpt lat="42.2095" lon="9.0074">
        <ele>2249.8</ele>
        <time>2015-06-26T08:17:58Z</time>
      </trkpt>
      <trkpt lat="42.20952" lon="9.00735">
        <ele>2251.2</ele>
        <time>2015-06-26T08:18:10Z</time>
      </trkpt>
      <trkpt lat="42.20954" lon="9.00735">
        <ele>2252.8</ele>
        <time>2015-06-26T08:18:23Z</time>
      </trkpt>
      <trkpt lat="42.20956" lon="9.00733">
        <ele>2253.4</ele>
        <time>2015-06-26T08:18:30Z</time>
      </trkpt>
      <trkpt lat="42.20957" lon="9.00727">
        <ele>2254.6</ele>
        <time>2015-06-26T08:18:38Z</time>
      </trkpt>
      <trkpt lat="42.20958" lon="9.00723">
        <ele>2255.8</ele>
        <time>2015-06-26T08:18:46Z</time>
      </trkpt>
      <trkpt lat="42.20963" lon="9.00717">
        <ele>2257.4</ele>
        <time>2015-06-26T08:18:59Z</time>
      </trkpt>
      <trkpt lat="42.20963" lon="9.00712">
        <ele>2258.4</ele>
        <time>2015-06-26T08:19:09Z</time>
      </trkpt>
      <trkpt lat="42.20966" lon="9.00706">
        <ele>2260</ele>
        <time>2015-06-26T08:19:21Z</time>
      </trkpt>
      <trkpt lat="42.20984" lon="9.00691">
        <ele>2261.8</ele>
        <time>2015-06-26T08:20:06Z</time>
      </trkpt>
      <trkpt lat="42.20984" lon="9.00689">
        <ele>2262.8</ele>
        <time>2015-06-26T08:20:13Z</time>
      </trkpt>
      <trkpt lat="42.20986" lon="9.0069">
        <ele>2263.8</ele>
        <time>2015-06-26T08:20:21Z</time>
      </trkpt>
      <trkpt lat="42.20992" lon="9.0069">
        <ele>2265.6</ele>
        <time>2015-06-26T08:20:34Z</time>
      </trkpt>
      <trkpt lat="42.20997" lon="9.00686">
        <ele>2267</ele>
        <time>2015-06-26T08:21:03Z</time>
      </trkpt>
      <trkpt lat="42.21" lon="9.00679">
        <ele>2268.2</ele>
        <time>2015-06-26T08:21:12Z</time>
      </trkpt>
      <trkpt lat="42.21005" lon="9.00677">
        <ele>2269.2</ele>
        <time>2015-06-26T08:21:19Z</time>
      </trkpt>
      <trkpt lat="42.21035" lon="9.00686">
        <ele>2269.6</ele>
        <time>2015-06-26T08:21:47Z</time>
      </trkpt>
      <trkpt lat="42.21034" lon="9.00686">
        <ele>2269.8</ele>
        <time>2015-06-26T08:21:48Z</time>
      </trkpt>
      <trkpt lat="42.21051" lon="9.00672">
        <ele>2271</ele>
        <time>2015-06-26T08:22:43Z</time>
      </trkpt>
      <trkpt lat="42.21062" lon="9.00679">
        <ele>2271</ele>
        <time>2015-06-26T08:22:55Z</time>
      </trkpt>
      <trkpt lat="42.21063" lon="9.00679">
        <ele>2271.2</ele>
        <time>2015-06-26T08:22:57Z</time>
      </trkpt>
      <trkpt lat="42.21082" lon="9.00676">
        <ele>2272.2</ele>
        <time>2015-06-26T08:24:06Z</time>
      </trkpt>
      <trkpt lat="42.21086" lon="9.00672">
        <ele>2273.4</ele>
        <time>2015-06-26T08:24:18Z</time>
      </trkpt>
      <trkpt lat="42.21086" lon="9.00663">
        <ele>2274.4</ele>
        <time>2015-06-26T08:24:43Z</time>
      </trkpt>
      <trkpt lat="42.21091" lon="9.0066">
        <ele>2275.2</ele>
        <time>2015-06-26T08:25:25Z</time>
      </trkpt>
      <trkpt lat="42.21091" lon="9.0066">
        <ele>2276.2</ele>
        <time>2015-06-26T08:25:34Z</time>
      </trkpt>
      <trkpt lat="42.21094" lon="9.00654">
        <ele>2277.4</ele>
        <time>2015-06-26T08:25:48Z</time>
      </trkpt>
      <trkpt lat="42.21098" lon="9.00647">
        <ele>2278.6</ele>
        <time>2015-06-26T08:26:02Z</time>
      </trkpt>
      <trkpt lat="42.211" lon="9.00644">
        <ele>2279.4</ele>
        <time>2015-06-26T08:26:10Z</time>
      </trkpt>
      <trkpt lat="42.211" lon="9.00641">
        <ele>2280</ele>
        <time>2015-06-26T08:26:18Z</time>
      </trkpt>
      <trkpt lat="42.21103" lon="9.00637">
        <ele>2281.6</ele>
        <time>2015-06-26T08:26:29Z</time>
      </trkpt>
      <trkpt lat="42.21106" lon="9.00637">
        <ele>2282.4</ele>
        <time>2015-06-26T08:26:36Z</time>
      </trkpt>
      <trkpt lat="42.21121" lon="9.00624">
        <ele>2284</ele>
        <time>2015-06-26T08:27:43Z</time>
      </trkpt>
      <trkpt lat="42.21125" lon="9.00619">
        <ele>2285</ele>
        <time>2015-06-26T08:28:15Z</time>
      </trkpt>
      <trkpt lat="42.21137" lon="9.00602">
        <ele>2285.6</ele>
        <time>2015-06-26T08:28:59Z</time>
      </trkpt>
      <trkpt lat="42.21139" lon="9.00597">
        <ele>2286.8</ele>
        <time>2015-06-26T08:29:08Z</time>
      </trkpt>
      <trkpt lat="42.21139" lon="9.00593">
        <ele>2288.2</ele>
        <time>2015-06-26T08:29:17Z</time>
      </trkpt>
      <trkpt lat="42.21139" lon="9.0059">
        <ele>2289.2</ele>
        <time>2015-06-26T08:29:25Z</time>
      </trkpt>
      <trkpt lat="42.2114" lon="9.00589">
        <ele>2290.2</ele>
        <time>2015-06-26T08:29:33Z</time>
      </trkpt>
      <trkpt lat="42.21143" lon="9.00588">
        <ele>2291.4</ele>
        <time>2015-06-26T08:29:45Z</time>
      </trkpt>
      <trkpt lat="42.21147" lon="9.00589">
        <ele>2292.6</ele>
        <time>2015-06-26T08:29:55Z</time>
      </trkpt>
      <trkpt lat="42.21148" lon="9.00587">
        <ele>2293.6</ele>
        <time>2015-06-26T08:30:06Z</time>
      </trkpt>
      <trkpt lat="42.21155" lon="9.00589">
        <ele>2295</ele>
        <time>2015-06-26T08:34:04Z</time>
      </trkpt>
      <trkpt lat="42.21153" lon="9.00592">
        <ele>2293.8</ele>
        <time>2015-06-26T08:35:00Z</time>
      </trkpt>
      <trkpt lat="42.21153" lon="9.00593">
        <ele>2294.4</ele>
        <time>2015-06-26T08:35:48Z</time>
      </trkpt>
      <trkpt lat="42.21152" lon="9.00593">
        <ele>2294.8</ele>
        <time>2015-06-26T08:37:49Z</time>
      </trkpt>
      <trkpt lat="42.21152" lon="9.00593">
        <ele>2295.2</ele>
        <time>2015-06-26T08:37:50Z</time>
      </trkpt>
      <trkpt lat="42.21153" lon="9.00591">
        <ele>2295.4</ele>
        <time>2015-06-26T08:39:34Z</time>
      </trkpt>
      <trkpt lat="42.21154" lon="9.00588">
        <ele>2295.4</ele>
        <time>2015-06-26T08:40:59Z</time>
      </trkpt>
      <trkpt lat="42.21155" lon="9.0059">
        <ele>2294.4</ele>
        <time>2015-06-26T08:43:20Z</time>
      </trkpt>
      <trkpt lat="42.21155" lon="9.00589">
        <ele>2293.4</ele>
        <time>2015-06-26T08:43:29Z</time>
      </trkpt>
      <trkpt lat="42.21156" lon="9.00589">
        <ele>2292.2</ele>
        <time>2015-06-26T08:43:39Z</time>
      </trkpt>
      <trkpt lat="42.2116" lon="9.00587">
        <ele>2291.4</ele>
        <time>2015-06-26T08:43:48Z</time>
      </trkpt>
      <trkpt lat="42.21161" lon="9.00585">
        <ele>2290.4</ele>
        <time>2015-06-26T08:43:54Z</time>
      </trkpt>
      <trkpt lat="42.21161" lon="9.00584">
        <ele>2289.2</ele>
        <time>2015-06-26T08:44:03Z</time>
      </trkpt>
      <trkpt lat="42.2116" lon="9.00583">
        <ele>2287.6</ele>
        <time>2015-06-26T08:44:13Z</time>
      </trkpt>
      <trkpt lat="42.2116" lon="9.0058">
        <ele>2286.8</ele>
        <time>2015-06-26T08:44:24Z</time>
      </trkpt>
      <trkpt lat="42.21162" lon="9.00579">
        <ele>2285.6</ele>
        <time>2015-06-26T08:44:34Z</time>
      </trkpt>
      <trkpt lat="42.21162" lon="9.00577">
        <ele>2284.2</ele>
        <time>2015-06-26T08:44:46Z</time>
      </trkpt>
      <trkpt lat="42.21162" lon="9.00574">
        <ele>2283.2</ele>
        <time>2015-06-26T08:44:57Z</time>
      </trkpt>
      <trkpt lat="42.21161" lon="9.0057">
        <ele>2281.6</ele>
        <time>2015-06-26T08:45:08Z</time>
      </trkpt>
      <trkpt lat="42.21159" lon="9.00567">
        <ele>2281.2</ele>
        <time>2015-06-26T08:45:15Z</time>
      </trkpt>
      <trkpt lat="42.21158" lon="9.00562">
        <ele>2279.8</ele>
        <time>2015-06-26T08:45:25Z</time>
      </trkpt>
      <trkpt lat="42.21158" lon="9.00557">
        <ele>2278.6</ele>
        <time>2015-06-26T08:45:35Z</time>
      </trkpt>
      <trkpt lat="42.21159" lon="9.00553">
        <ele>2277.2</ele>
        <time>2015-06-26T08:45:47Z</time>
      </trkpt>
      <trkpt lat="42.21158" lon="9.00552">
        <ele>2276.4</ele>
        <time>2015-06-26T08:45:54Z</time>
      </trkpt>
      <trkpt lat="42.21158" lon="9.0055">
        <ele>2275</ele>
        <time>2015-06-26T08:46:06Z</time>
      </trkpt>
      <trkpt lat="42.21157" lon="9.00547">
        <ele>2274</ele>
        <time>2015-06-26T08:46:16Z</time>
      </trkpt>
      <trkpt lat="42.21157" lon="9.00539">
        <ele>2272.2</ele>
        <time>2015-06-26T08:47:05Z</time>
      </trkpt>
      <trkpt lat="42.21158" lon="9.00536">
        <ele>2271.4</ele>
        <time>2015-06-26T08:47:10Z</time>
      </trkpt>
      <trkpt lat="42.2116" lon="9.00533">
        <ele>2270</ele>
        <time>2015-06-26T08:47:16Z</time>
      </trkpt>
      <trkpt lat="42.2116" lon="9.0053">
        <ele>2268.6</ele>
        <time>2015-06-26T08:47:24Z</time>
      </trkpt>
      <trkpt lat="42.21158" lon="9.00528">
        <ele>2267.6</ele>
        <time>2015-06-26T08:47:32Z</time>
      </trkpt>
      <trkpt lat="42.2116" lon="9.00527">
        <ele>2266.8</ele>
        <time>2015-06-26T08:47:38Z</time>
      </trkpt>
      <trkpt lat="42.21161" lon="9.00523">
        <ele>2265</ele>
        <time>2015-06-26T08:47:49Z</time>
      </trkpt>
      <trkpt lat="42.21162" lon="9.00519">
        <ele>2263.8</ele>
        <time>2015-06-26T08:48:01Z</time>
      </trkpt>
      <trkpt lat="42.21164" lon="9.00518">
        <ele>2262.6</ele>
        <time>2015-06-26T08:48:08Z</time>
      </trkpt>
      <trkpt lat="42.21165" lon="9.00517">
        <ele>2262</ele>
        <time>2015-06-26T08:48:13Z</time>
      </trkpt>
      <trkpt lat="42.21163" lon="9.00515">
        <ele>2260.6</ele>
        <time>2015-06-26T08:48:18Z</time>
      </trkpt>
      <trkpt lat="42.21165" lon="9.00512">
        <ele>2259.8</ele>
        <time>2015-06-26T08:48:26Z</time>
      </trkpt>
      <trkpt lat="42.21167" lon="9.0051">
        <ele>2259.4</ele>
        <time>2015-06-26T08:48:31Z</time>
      </trkpt>
      <trkpt lat="42.21167" lon="9.00508">
        <ele>2257.8</ele>
        <time>2015-06-26T08:48:38Z</time>
      </trkpt>
      <trkpt lat="42.21168" lon="9.00506">
        <ele>2256.2</ele>
        <time>2015-06-26T08:48:53Z</time>
      </trkpt>
      <trkpt lat="42.2117" lon="9.00502">
        <ele>2255.6</ele>
        <time>2015-06-26T08:48:59Z</time>
      </trkpt>
      <trkpt lat="42.21172" lon="9.00501">
        <ele>2254.6</ele>
        <time>2015-06-26T08:49:04Z</time>
      </trkpt>
      <trkpt lat="42.21173" lon="9.00499">
        <ele>2252.6</ele>
        <time>2015-06-26T08:49:14Z</time>
      </trkpt>
      <trkpt lat="42.21174" lon="9.00493">
        <ele>2251.4</ele>
        <time>2015-06-26T08:49:27Z</time>
      </trkpt>
      <trkpt lat="42.21175" lon="9.00488">
        <ele>2250.6</ele>
        <time>2015-06-26T08:49:35Z</time>
      </trkpt>
      <trkpt lat="42.21177" lon="9.00485">
        <ele>2249.4</ele>
        <time>2015-06-26T08:49:43Z</time>
      </trkpt>
      <trkpt lat="42.2118" lon="9.00485">
        <ele>2248</ele>
        <time>2015-06-26T08:49:52Z</time>
      </trkpt>
      <trkpt lat="42.2118" lon="9.00484">
        <ele>2247.4</ele>
        <time>2015-06-26T08:49:55Z</time>
      </trkpt>
      <trkpt lat="42.21179" lon="9.0048">
        <ele>2246.6</ele>
        <time>2015-06-26T08:50:03Z</time>
      </trkpt>
      <trkpt lat="42.21183" lon="9.00478">
        <ele>2245.6</ele>
        <time>2015-06-26T08:50:10Z</time>
      </trkpt>
      <trkpt lat="42.21184" lon="9.00476">
        <ele>2243.8</ele>
        <time>2015-06-26T08:50:18Z</time>
      </trkpt>
      <trkpt lat="42.21182" lon="9.00471">
        <ele>2242.6</ele>
        <time>2015-06-26T08:50:29Z</time>
      </trkpt>
      <trkpt lat="42.21183" lon="9.00468">
        <ele>2241.6</ele>
        <time>2015-06-26T08:50:39Z</time>
      </trkpt>
      <trkpt lat="42.21184" lon="9.00465">
        <ele>2240.4</ele>
        <time>2015-06-26T08:50:47Z</time>
      </trkpt>
      <trkpt lat="42.21186" lon="9.00464">
        <ele>2238.8</ele>
        <time>2015-06-26T08:50:58Z</time>
      </trkpt>
      <trkpt lat="42.21187" lon="9.0046">
        <ele>2238</ele>
        <time>2015-06-26T08:51:07Z</time>
      </trkpt>
      <trkpt lat="42.21188" lon="9.00457">
        <ele>2236.6</ele>
        <time>2015-06-26T08:51:15Z</time>
      </trkpt>
      <trkpt lat="42.21187" lon="9.00449">
        <ele>2234.8</ele>
        <time>2015-06-26T08:51:29Z</time>
      </trkpt>
      <trkpt lat="42.21187" lon="9.00447">
        <ele>2234</ele>
        <time>2015-06-26T08:51:36Z</time>
      </trkpt>
      <trkpt lat="42.21187" lon="9.00446">
        <ele>2233.8</ele>
        <time>2015-06-26T08:51:39Z</time>
      </trkpt>
      <trkpt lat="42.21189" lon="9.00445">
        <ele>2232.2</ele>
        <time>2015-06-26T08:51:48Z</time>
      </trkpt>
      <trkpt lat="42.21189" lon="9.0044">
        <ele>2231.2</ele>
        <time>2015-06-26T08:51:59Z</time>
      </trkpt>
      <trkpt lat="42.21191" lon="9.00437">
        <ele>2230</ele>
        <time>2015-06-26T08:52:11Z</time>
      </trkpt>
      <trkpt lat="42.21193" lon="9.00433">
        <ele>2228.8</ele>
        <time>2015-06-26T08:52:21Z</time>
      </trkpt>
      <trkpt lat="42.21193" lon="9.00431">
        <ele>2227</ele>
        <time>2015-06-26T08:52:34Z</time>
      </trkpt>
      <trkpt lat="42.21193" lon="9.00428">
        <ele>2226.6</ele>
        <time>2015-06-26T08:52:42Z</time>
      </trkpt>
      <trkpt lat="42.21193" lon="9.00425">
        <ele>2225.2</ele>
        <time>2015-06-26T08:52:51Z</time>
      </trkpt>
      <trkpt lat="42.21192" lon="9.00422">
        <ele>2223.6</ele>
        <time>2015-06-26T08:53:03Z</time>
      </trkpt>
      <trkpt lat="42.21192" lon="9.00421">
        <ele>2223.6</ele>
        <time>2015-06-26T08:53:06Z</time>
      </trkpt>
      <trkpt lat="42.21193" lon="9.00418">
        <ele>2223</ele>
        <time>2015-06-26T08:53:11Z</time>
      </trkpt>
      <trkpt lat="42.21194" lon="9.00415">
        <ele>2221.6</ele>
        <time>2015-06-26T08:53:19Z</time>
      </trkpt>
      <trkpt lat="42.21191" lon="9.00418">
        <ele>2220.2</ele>
        <time>2015-06-26T08:53:29Z</time>
      </trkpt>
      <trkpt lat="42.21187" lon="9.00421">
        <ele>2219.2</ele>
        <time>2015-06-26T08:53:37Z</time>
      </trkpt>
      <trkpt lat="42.21184" lon="9.00419">
        <ele>2218</ele>
        <time>2015-06-26T08:53:47Z</time>
      </trkpt>
      <trkpt lat="42.21183" lon="9.00411">
        <ele>2216.6</ele>
        <time>2015-06-26T08:53:58Z</time>
      </trkpt>
      <trkpt lat="42.21183" lon="9.00406">
        <ele>2215.8</ele>
        <time>2015-06-26T08:54:06Z</time>
      </trkpt>
      <trkpt lat="42.21179" lon="9.00403">
        <ele>2213.8</ele>
        <time>2015-06-26T08:54:18Z</time>
      </trkpt>
      <trkpt lat="42.21179" lon="9.00399">
        <ele>2212.4</ele>
        <time>2015-06-26T08:54:34Z</time>
      </trkpt>
      <trkpt lat="42.21177" lon="9.00396">
        <ele>2211.4</ele>
        <time>2015-06-26T08:54:44Z</time>
      </trkpt>
      <trkpt lat="42.2118" lon="9.00391">
        <ele>2210.4</ele>
        <time>2015-06-26T08:54:58Z</time>
      </trkpt>
      <trkpt lat="42.2118" lon="9.0039">
        <ele>2209.2</ele>
        <time>2015-06-26T08:55:06Z</time>
      </trkpt>
      <trkpt lat="42.21177" lon="9.00388">
        <ele>2208.2</ele>
        <time>2015-06-26T08:55:15Z</time>
      </trkpt>
      <trkpt lat="42.21175" lon="9.00389">
        <ele>2206.8</ele>
        <time>2015-06-26T08:55:27Z</time>
      </trkpt>
      <trkpt lat="42.21173" lon="9.00383">
        <ele>2205.2</ele>
        <time>2015-06-26T08:55:40Z</time>
      </trkpt>
      <trkpt lat="42.21171" lon="9.00381">
        <ele>2204</ele>
        <time>2015-06-26T08:55:48Z</time>
      </trkpt>
      <trkpt lat="42.21168" lon="9.0038">
        <ele>2203</ele>
        <time>2015-06-26T08:55:55Z</time>
      </trkpt>
      <trkpt lat="42.21167" lon="9.00378">
        <ele>2201.2</ele>
        <time>2015-06-26T08:56:07Z</time>
      </trkpt>
      <trkpt lat="42.21167" lon="9.00376">
        <ele>2200</ele>
        <time>2015-06-26T08:56:17Z</time>
      </trkpt>
      <trkpt lat="42.21168" lon="9.00372">
        <ele>2199.4</ele>
        <time>2015-06-26T08:56:23Z</time>
      </trkpt>
      <trkpt lat="42.21172" lon="9.00367">
        <ele>2197.8</ele>
        <time>2015-06-26T08:56:32Z</time>
      </trkpt>
      <trkpt lat="42.21177" lon="9.00361">
        <ele>2196.4</ele>
        <time>2015-06-26T08:56:51Z</time>
      </trkpt>
      <trkpt lat="42.2118" lon="9.00357">
        <ele>2194.8</ele>
        <time>2015-06-26T08:57:06Z</time>
      </trkpt>
      <trkpt lat="42.21182" lon="9.00356">
        <ele>2194.4</ele>
        <time>2015-06-26T08:57:11Z</time>
      </trkpt>
      <trkpt lat="42.21183" lon="9.00355">
        <ele>2193</ele>
        <time>2015-06-26T08:57:18Z</time>
      </trkpt>
      <trkpt lat="42.21178" lon="9.00351">
        <ele>2191.2</ele>
        <time>2015-06-26T08:57:33Z</time>
      </trkpt>
      <trkpt lat="42.21176" lon="9.0035">
        <ele>2189.8</ele>
        <time>2015-06-26T08:57:45Z</time>
      </trkpt>
      <trkpt lat="42.21175" lon="9.00348">
        <ele>2189</ele>
        <time>2015-06-26T08:57:53Z</time>
      </trkpt>
      <trkpt lat="42.21176" lon="9.00345">
        <ele>2187.8</ele>
        <time>2015-06-26T08:58:00Z</time>
      </trkpt>
      <trkpt lat="42.21178" lon="9.00342">
        <ele>2186.2</ele>
        <time>2015-06-26T08:58:10Z</time>
      </trkpt>
      <trkpt lat="42.2118" lon="9.00336">
        <ele>2185</ele>
        <time>2015-06-26T08:58:23Z</time>
      </trkpt>
      <trkpt lat="42.21177" lon="9.00336">
        <ele>2184</ele>
        <time>2015-06-26T08:58:32Z</time>
      </trkpt>
      <trkpt lat="42.21174" lon="9.00333">
        <ele>2182.6</ele>
        <time>2015-06-26T08:58:43Z</time>
      </trkpt>
      <trkpt lat="42.21172" lon="9.00326">
        <ele>2181</ele>
        <time>2015-06-26T08:59:01Z</time>
      </trkpt>
      <trkpt lat="42.21172" lon="9.00321">
        <ele>2179.8</ele>
        <time>2015-06-26T08:59:13Z</time>
      </trkpt>
      <trkpt lat="42.21171" lon="9.00318">
        <ele>2179.2</ele>
        <time>2015-06-26T08:59:19Z</time>
      </trkpt>
      <trkpt lat="42.21172" lon="9.00312">
        <ele>2177.6</ele>
        <time>2015-06-26T08:59:28Z</time>
      </trkpt>
      <trkpt lat="42.21175" lon="9.0031">
        <ele>2176.4</ele>
        <time>2015-06-26T08:59:39Z</time>
      </trkpt>
      <trkpt lat="42.21178" lon="9.00308">
        <ele>2175</ele>
        <time>2015-06-26T08:59:50Z</time>
      </trkpt>
      <trkpt lat="42.21179" lon="9.00306">
        <ele>2174.2</ele>
        <time>2015-06-26T08:59:58Z</time>
      </trkpt>
      <trkpt lat="42.2118" lon="9.00303">
        <ele>2172.8</ele>
        <time>2015-06-26T09:00:08Z</time>
      </trkpt>
      <trkpt lat="42.21181" lon="9.00301">
        <ele>2171.8</ele>
        <time>2015-06-26T09:00:16Z</time>
      </trkpt>
      <trkpt lat="42.21181" lon="9.00297">
        <ele>2171</ele>
        <time>2015-06-26T09:00:23Z</time>
      </trkpt>
      <trkpt lat="42.21183" lon="9.00295">
        <ele>2170.2</ele>
        <time>2015-06-26T09:00:28Z</time>
      </trkpt>
      <trkpt lat="42.21186" lon="9.00294">
        <ele>2167.6</ele>
        <time>2015-06-26T09:00:44Z</time>
      </trkpt>
      <trkpt lat="42.21189" lon="9.00291">
        <ele>2167</ele>
        <time>2015-06-26T09:00:52Z</time>
      </trkpt>
      <trkpt lat="42.21188" lon="9.00288">
        <ele>2166</ele>
        <time>2015-06-26T09:01:01Z</time>
      </trkpt>
      <trkpt lat="42.21188" lon="9.00287">
        <ele>2165.6</ele>
        <time>2015-06-26T09:01:05Z</time>
      </trkpt>
      <trkpt lat="42.2119" lon="9.00283">
        <ele>2164.4</ele>
        <time>2015-06-26T09:01:13Z</time>
      </trkpt>
      <trkpt lat="42.21192" lon="9.00282">
        <ele>2164</ele>
        <time>2015-06-26T09:01:18Z</time>
      </trkpt>
      <trkpt lat="42.21193" lon="9.00278">
        <ele>2162.2</ele>
        <time>2015-06-26T09:01:29Z</time>
      </trkpt>
      <trkpt lat="42.21197" lon="9.00277">
        <ele>2161.2</ele>
        <time>2015-06-26T09:01:36Z</time>
      </trkpt>
      <trkpt lat="42.21201" lon="9.00275">
        <ele>2160</ele>
        <time>2015-06-26T09:01:45Z</time>
      </trkpt>
      <trkpt lat="42.21203" lon="9.0027">
        <ele>2158.8</ele>
        <time>2015-06-26T09:01:54Z</time>
      </trkpt>
      <trkpt lat="42.21205" lon="9.00268">
        <ele>2157.4</ele>
        <time>2015-06-26T09:02:02Z</time>
      </trkpt>
      <trkpt lat="42.21205" lon="9.00265">
        <ele>2156.6</ele>
        <time>2015-06-26T09:02:08Z</time>
      </trkpt>
      <trkpt lat="42.21208" lon="9.00261">
        <ele>2155</ele>
        <time>2015-06-26T09:02:20Z</time>
      </trkpt>
      <trkpt lat="42.21212" lon="9.00258">
        <ele>2153.6</ele>
        <time>2015-06-26T09:02:34Z</time>
      </trkpt>
      <trkpt lat="42.21213" lon="9.00257">
        <ele>2153.4</ele>
        <time>2015-06-26T09:02:39Z</time>
      </trkpt>
      <trkpt lat="42.21215" lon="9.00252">
        <ele>2151.8</ele>
        <time>2015-06-26T09:02:47Z</time>
      </trkpt>
      <trkpt lat="42.21217" lon="9.00247">
        <ele>2150.6</ele>
        <time>2015-06-26T09:02:59Z</time>
      </trkpt>
      <trkpt lat="42.21219" lon="9.00244">
        <ele>2149.6</ele>
        <time>2015-06-26T09:03:06Z</time>
      </trkpt>
      <trkpt lat="42.21217" lon="9.00242">
        <ele>2147.6</ele>
        <time>2015-06-26T09:03:20Z</time>
      </trkpt>
      <trkpt lat="42.21218" lon="9.0024">
        <ele>2147.4</ele>
        <time>2015-06-26T09:03:25Z</time>
      </trkpt>
      <trkpt lat="42.21218" lon="9.00234">
        <ele>2145.8</ele>
        <time>2015-06-26T09:03:35Z</time>
      </trkpt>
      <trkpt lat="42.2122" lon="9.00226">
        <ele>2144.8</ele>
        <time>2015-06-26T09:03:44Z</time>
      </trkpt>
      <trkpt lat="42.21222" lon="9.00217">
        <ele>2143.4</ele>
        <time>2015-06-26T09:03:54Z</time>
      </trkpt>
      <trkpt lat="42.21223" lon="9.00209">
        <ele>2142.4</ele>
        <time>2015-06-26T09:04:02Z</time>
      </trkpt>
      <trkpt lat="42.21222" lon="9.00207">
        <ele>2141.6</ele>
        <time>2015-06-26T09:04:07Z</time>
      </trkpt>
      <trkpt lat="42.21221" lon="9.00203">
        <ele>2140.2</ele>
        <time>2015-06-26T09:04:13Z</time>
      </trkpt>
      <trkpt lat="42.2122" lon="9.002">
        <ele>2138.8</ele>
        <time>2015-06-26T09:04:20Z</time>
      </trkpt>
      <trkpt lat="42.21221" lon="9.00194">
        <ele>2138</ele>
        <time>2015-06-26T09:04:27Z</time>
      </trkpt>
      <trkpt lat="42.21223" lon="9.00189">
        <ele>2136.4</ele>
        <time>2015-06-26T09:04:35Z</time>
      </trkpt>
      <trkpt lat="42.21227" lon="9.00183">
        <ele>2135.4</ele>
        <time>2015-06-26T09:04:43Z</time>
      </trkpt>
      <trkpt lat="42.21231" lon="9.00181">
        <ele>2134.4</ele>
        <time>2015-06-26T09:04:50Z</time>
      </trkpt>
      <trkpt lat="42.21231" lon="9.00176">
        <ele>2133</ele>
        <time>2015-06-26T09:05:00Z</time>
      </trkpt>
      <trkpt lat="42.21233" lon="9.0017">
        <ele>2132.2</ele>
        <time>2015-06-26T09:05:08Z</time>
      </trkpt>
      <trkpt lat="42.21233" lon="9.00163">
        <ele>2130.8</ele>
        <time>2015-06-26T09:05:17Z</time>
      </trkpt>
      <trkpt lat="42.21233" lon="9.00156">
        <ele>2129.6</ele>
        <time>2015-06-26T09:05:26Z</time>
      </trkpt>
      <trkpt lat="42.21233" lon="9.0015">
        <ele>2128.8</ele>
        <time>2015-06-26T09:05:32Z</time>
      </trkpt>
      <trkpt lat="42.21232" lon="9.00145">
        <ele>2127.2</ele>
        <time>2015-06-26T09:05:42Z</time>
      </trkpt>
      <trkpt lat="42.21232" lon="9.00141">
        <ele>2125.6</ele>
        <time>2015-06-26T09:05:53Z</time>
      </trkpt>
      <trkpt lat="42.21232" lon="9.00136">
        <ele>2125</ele>
        <time>2015-06-26T09:06:03Z</time>
      </trkpt>
      <trkpt lat="42.21231" lon="9.00132">
        <ele>2123.8</ele>
        <time>2015-06-26T09:06:35Z</time>
      </trkpt>
      <trkpt lat="42.2123" lon="9.00129">
        <ele>2123</ele>
        <time>2015-06-26T09:06:41Z</time>
      </trkpt>
      <trkpt lat="42.2123" lon="9.00125">
        <ele>2121.6</ele>
        <time>2015-06-26T09:06:49Z</time>
      </trkpt>
      <trkpt lat="42.2123" lon="9.0012">
        <ele>2120.4</ele>
        <time>2015-06-26T09:06:56Z</time>
      </trkpt>
      <trkpt lat="42.2123" lon="9.00115">
        <ele>2119.2</ele>
        <time>2015-06-26T09:07:03Z</time>
      </trkpt>
      <trkpt lat="42.2123" lon="9.00113">
        <ele>2118.4</ele>
        <time>2015-06-26T09:07:08Z</time>
      </trkpt>
      <trkpt lat="42.21231" lon="9.00109">
        <ele>2117.4</ele>
        <time>2015-06-26T09:07:13Z</time>
      </trkpt>
      <trkpt lat="42.21232" lon="9.00102">
        <ele>2115.8</ele>
        <time>2015-06-26T09:07:19Z</time>
      </trkpt>
      <trkpt lat="42.21232" lon="9.00089">
        <ele>2114.2</ele>
        <time>2015-06-26T09:07:37Z</time>
      </trkpt>
      <trkpt lat="42.21231" lon="9.00082">
        <ele>2113.4</ele>
        <time>2015-06-26T09:07:43Z</time>
      </trkpt>
      <trkpt lat="42.21233" lon="9.0008">
        <ele>2113</ele>
        <time>2015-06-26T09:07:45Z</time>
      </trkpt>
      <trkpt lat="42.21236" lon="9.00062">
        <ele>2111.6</ele>
        <time>2015-06-26T09:08:04Z</time>
      </trkpt>
      <trkpt lat="42.21236" lon="9.00058">
        <ele>2110.6</ele>
        <time>2015-06-26T09:08:37Z</time>
      </trkpt>
      <trkpt lat="42.21236" lon="9.00052">
        <ele>2110</ele>
        <time>2015-06-26T09:08:47Z</time>
      </trkpt>
      <trkpt lat="42.21236" lon="9.00049">
        <ele>2108.8</ele>
        <time>2015-06-26T09:08:54Z</time>
      </trkpt>
      <trkpt lat="42.21238" lon="9.00046">
        <ele>2108</ele>
        <time>2015-06-26T09:09:00Z</time>
      </trkpt>
      <trkpt lat="42.21237" lon="9.00043">
        <ele>2106.4</ele>
        <time>2015-06-26T09:09:08Z</time>
      </trkpt>
      <trkpt lat="42.21237" lon="9.00043">
        <ele>2106.2</ele>
        <time>2015-06-26T09:09:09Z</time>
      </trkpt>
      <trkpt lat="42.21235" lon="9.00042">
        <ele>2105.6</ele>
        <time>2015-06-26T09:09:14Z</time>
      </trkpt>
      <trkpt lat="42.21233" lon="9.00039">
        <ele>2104.4</ele>
        <time>2015-06-26T09:09:22Z</time>
      </trkpt>
      <trkpt lat="42.21233" lon="9.00036">
        <ele>2103.4</ele>
        <time>2015-06-26T09:09:28Z</time>
      </trkpt>
      <trkpt lat="42.21234" lon="9.00033">
        <ele>2101.8</ele>
        <time>2015-06-26T09:09:40Z</time>
      </trkpt>
      <trkpt lat="42.21233" lon="9.00028">
        <ele>2100.8</ele>
        <time>2015-06-26T09:09:48Z</time>
      </trkpt>
      <trkpt lat="42.21234" lon="9.00026">
        <ele>2099.8</ele>
        <time>2015-06-26T09:09:55Z</time>
      </trkpt>
      <trkpt lat="42.21234" lon="9.00023">
        <ele>2098.4</ele>
        <time>2015-06-26T09:10:07Z</time>
      </trkpt>
      <trkpt lat="42.21235" lon="9.00021">
        <ele>2097.6</ele>
        <time>2015-06-26T09:10:13Z</time>
      </trkpt>
      <trkpt lat="42.21234" lon="9.00016">
        <ele>2096.2</ele>
        <time>2015-06-26T09:10:22Z</time>
      </trkpt>
      <trkpt lat="42.21233" lon="9.00007">
        <ele>2095.2</ele>
        <time>2015-06-26T09:10:29Z</time>
      </trkpt>
      <trkpt lat="42.21235" lon="8.99986">
        <ele>2093.6</ele>
        <time>2015-06-26T09:10:50Z</time>
      </trkpt>
      <trkpt lat="42.21235" lon="8.99981">
        <ele>2093.4</ele>
        <time>2015-06-26T09:10:58Z</time>
      </trkpt>
      <trkpt lat="42.21234" lon="8.99979">
        <ele>2092.8</ele>
        <time>2015-06-26T09:11:05Z</time>
      </trkpt>
      <trkpt lat="42.21234" lon="8.99976">
        <ele>2091.6</ele>
        <time>2015-06-26T09:11:11Z</time>
      </trkpt>
      <trkpt lat="42.21232" lon="8.99973">
        <ele>2090</ele>
        <time>2015-06-26T09:11:24Z</time>
      </trkpt>
      <trkpt lat="42.21229" lon="8.99972">
        <ele>2089.4</ele>
        <time>2015-06-26T09:11:30Z</time>
      </trkpt>
      <trkpt lat="42.21228" lon="8.99971">
        <ele>2088.4</ele>
        <time>2015-06-26T09:11:36Z</time>
      </trkpt>
      <trkpt lat="42.21227" lon="8.99966">
        <ele>2086.4</ele>
        <time>2015-06-26T09:11:51Z</time>
      </trkpt>
      <trkpt lat="42.21223" lon="8.99964">
        <ele>2085.8</ele>
        <time>2015-06-26T09:12:08Z</time>
      </trkpt>
      <trkpt lat="42.21222" lon="8.99964">
        <ele>2085.6</ele>
        <time>2015-06-26T09:12:10Z</time>
      </trkpt>
      <trkpt lat="42.21219" lon="8.99962">
        <ele>2084.2</ele>
        <time>2015-06-26T09:12:23Z</time>
      </trkpt>
      <trkpt lat="42.21218" lon="8.99958">
        <ele>2083.2</ele>
        <time>2015-06-26T09:12:32Z</time>
      </trkpt>
      <trkpt lat="42.21213" lon="8.99957">
        <ele>2082</ele>
        <time>2015-06-26T09:12:40Z</time>
      </trkpt>
      <trkpt lat="42.21213" lon="8.99956">
        <ele>2081</ele>
        <time>2015-06-26T09:12:48Z</time>
      </trkpt>
      <trkpt lat="42.21212" lon="8.99951">
        <ele>2079.6</ele>
        <time>2015-06-26T09:13:00Z</time>
      </trkpt>
      <trkpt lat="42.2121" lon="8.99949">
        <ele>2078.2</ele>
        <time>2015-06-26T09:13:08Z</time>
      </trkpt>
      <trkpt lat="42.21211" lon="8.99944">
        <ele>2076.8</ele>
        <time>2015-06-26T09:13:17Z</time>
      </trkpt>
      <trkpt lat="42.21211" lon="8.99938">
        <ele>2075.6</ele>
        <time>2015-06-26T09:13:28Z</time>
      </trkpt>
      <trkpt lat="42.2121" lon="8.99934">
        <ele>2075</ele>
        <time>2015-06-26T09:13:37Z</time>
      </trkpt>
      <trkpt lat="42.21208" lon="8.99931">
        <ele>2073.6</ele>
        <time>2015-06-26T09:13:46Z</time>
      </trkpt>
      <trkpt lat="42.21206" lon="8.99928">
        <ele>2073</ele>
        <time>2015-06-26T09:13:52Z</time>
      </trkpt>
      <trkpt lat="42.21202" lon="8.99925">
        <ele>2071.4</ele>
        <time>2015-06-26T09:14:01Z</time>
      </trkpt>
      <trkpt lat="42.21199" lon="8.99921">
        <ele>2070.2</ele>
        <time>2015-06-26T09:14:09Z</time>
      </trkpt>
      <trkpt lat="42.212" lon="8.99917">
        <ele>2068.8</ele>
        <time>2015-06-26T09:14:17Z</time>
      </trkpt>
      <trkpt lat="42.21197" lon="8.99915">
        <ele>2067.6</ele>
        <time>2015-06-26T09:14:26Z</time>
      </trkpt>
      <trkpt lat="42.21201" lon="8.99906">
        <ele>2066</ele>
        <time>2015-06-26T09:14:48Z</time>
      </trkpt>
      <trkpt lat="42.212" lon="8.99899">
        <ele>2065</ele>
        <time>2015-06-26T09:14:59Z</time>
      </trkpt>
      <trkpt lat="42.21202" lon="8.999">
        <ele>2064.2</ele>
        <time>2015-06-26T09:15:04Z</time>
      </trkpt>
      <trkpt lat="42.21203" lon="8.99901">
        <ele>2064</ele>
        <time>2015-06-26T09:15:06Z</time>
      </trkpt>
      <trkpt lat="42.21203" lon="8.99907">
        <ele>2062.4</ele>
        <time>2015-06-26T09:15:14Z</time>
      </trkpt>
      <trkpt lat="42.21198" lon="8.99906">
        <ele>2061.4</ele>
        <time>2015-06-26T09:15:24Z</time>
      </trkpt>
      <trkpt lat="42.21199" lon="8.99911">
        <ele>2060.8</ele>
        <time>2015-06-26T09:15:27Z</time>
      </trkpt>
      <trkpt lat="42.21196" lon="8.9991">
        <ele>2059.8</ele>
        <time>2015-06-26T09:15:34Z</time>
      </trkpt>
      <trkpt lat="42.21197" lon="8.99909">
        <ele>2059.8</ele>
        <time>2015-06-26T09:15:35Z</time>
      </trkpt>
      <trkpt lat="42.21196" lon="8.99905">
        <ele>2059.2</ele>
        <time>2015-06-26T09:15:40Z</time>
      </trkpt>
      <trkpt lat="42.21193" lon="8.99901">
        <ele>2057.6</ele>
        <time>2015-06-26T09:15:49Z</time>
      </trkpt>
      <trkpt lat="42.21193" lon="8.99908">
        <ele>2056.4</ele>
        <time>2015-06-26T09:15:58Z</time>
      </trkpt>
      <trkpt lat="42.21189" lon="8.99908">
        <ele>2055.4</ele>
        <time>2015-06-26T09:16:11Z</time>
      </trkpt>
      <trkpt lat="42.21187" lon="8.99911">
        <ele>2054.2</ele>
        <time>2015-06-26T09:16:18Z</time>
      </trkpt>
      <trkpt lat="42.21185" lon="8.9991">
        <ele>2053</ele>
        <time>2015-06-26T09:16:25Z</time>
      </trkpt>
      <trkpt lat="42.21181" lon="8.99907">
        <ele>2051.8</ele>
        <time>2015-06-26T09:16:33Z</time>
      </trkpt>
      <trkpt lat="42.21178" lon="8.99907">
        <ele>2050.4</ele>
        <time>2015-06-26T09:16:41Z</time>
      </trkpt>
      <trkpt lat="42.2118" lon="8.99901">
        <ele>2049.2</ele>
        <time>2015-06-26T09:16:50Z</time>
      </trkpt>
      <trkpt lat="42.21182" lon="8.99889">
        <ele>2048.4</ele>
        <time>2015-06-26T09:17:01Z</time>
      </trkpt>
      <trkpt lat="42.2118" lon="8.9988">
        <ele>2047.2</ele>
        <time>2015-06-26T09:17:12Z</time>
      </trkpt>
      <trkpt lat="42.21181" lon="8.99875">
        <ele>2046.2</ele>
        <time>2015-06-26T09:17:20Z</time>
      </trkpt>
      <trkpt lat="42.21179" lon="8.9988">
        <ele>2045.2</ele>
        <time>2015-06-26T09:17:28Z</time>
      </trkpt>
      <trkpt lat="42.21174" lon="8.99884">
        <ele>2044</ele>
        <time>2015-06-26T09:17:35Z</time>
      </trkpt>
      <trkpt lat="42.21154" lon="8.99875">
        <ele>2042.2</ele>
        <time>2015-06-26T09:18:09Z</time>
      </trkpt>
      <trkpt lat="42.21151" lon="8.9987">
        <ele>2041.8</ele>
        <time>2015-06-26T09:18:16Z</time>
      </trkpt>
      <trkpt lat="42.21149" lon="8.9986">
        <ele>2040.4</ele>
        <time>2015-06-26T09:18:25Z</time>
      </trkpt>
      <trkpt lat="42.21149" lon="8.9986">
        <ele>2040.4</ele>
        <time>2015-06-26T09:18:26Z</time>
      </trkpt>
      <trkpt lat="42.21148" lon="8.99841">
        <ele>2038.8</ele>
        <time>2015-06-26T09:18:48Z</time>
      </trkpt>
      <trkpt lat="42.21148" lon="8.99839">
        <ele>2038.8</ele>
        <time>2015-06-26T09:18:52Z</time>
      </trkpt>
      <trkpt lat="42.21145" lon="8.99828">
        <ele>2038</ele>
        <time>2015-06-26T09:19:05Z</time>
      </trkpt>
      <trkpt lat="42.21146" lon="8.99822">
        <ele>2037.4</ele>
        <time>2015-06-26T09:19:12Z</time>
      </trkpt>
      <trkpt lat="42.21147" lon="8.9982">
        <ele>2037</ele>
        <time>2015-06-26T09:19:16Z</time>
      </trkpt>
      <trkpt lat="42.21148" lon="8.9981">
        <ele>2035.2</ele>
        <time>2015-06-26T09:19:26Z</time>
      </trkpt>
      <trkpt lat="42.21142" lon="8.9979">
        <ele>2033.8</ele>
        <time>2015-06-26T09:19:51Z</time>
      </trkpt>
      <trkpt lat="42.21145" lon="8.99772">
        <ele>2032.8</ele>
        <time>2015-06-26T09:20:07Z</time>
      </trkpt>
      <trkpt lat="42.21146" lon="8.99766">
        <ele>2032.6</ele>
        <time>2015-06-26T09:20:13Z</time>
      </trkpt>
      <trkpt lat="42.21147" lon="8.99759">
        <ele>2032.4</ele>
        <time>2015-06-26T09:20:19Z</time>
      </trkpt>
      <trkpt lat="42.21148" lon="8.99734">
        <ele>2032</ele>
        <time>2015-06-26T09:21:44Z</time>
      </trkpt>
      <trkpt lat="42.21152" lon="8.99728">
        <ele>2031.8</ele>
        <time>2015-06-26T09:21:52Z</time>
      </trkpt>
      <trkpt lat="42.21152" lon="8.99719">
        <ele>2031.2</ele>
        <time>2015-06-26T09:21:59Z</time>
      </trkpt>
      <trkpt lat="42.21152" lon="8.99716">
        <ele>2031.4</ele>
        <time>2015-06-26T09:22:02Z</time>
      </trkpt>
      <trkpt lat="42.21155" lon="8.99711">
        <ele>2031</ele>
        <time>2015-06-26T09:22:07Z</time>
      </trkpt>
      <trkpt lat="42.21156" lon="8.99705">
        <ele>2030.8</ele>
        <time>2015-06-26T09:22:12Z</time>
      </trkpt>
      <trkpt lat="42.21159" lon="8.99701">
        <ele>2030.8</ele>
        <time>2015-06-26T09:22:17Z</time>
      </trkpt>
      <trkpt lat="42.2116" lon="8.99691">
        <ele>2030.6</ele>
        <time>2015-06-26T09:22:27Z</time>
      </trkpt>
      <trkpt lat="42.21165" lon="8.99684">
        <ele>2030.6</ele>
        <time>2015-06-26T09:22:35Z</time>
      </trkpt>
      <trkpt lat="42.2117" lon="8.99667">
        <ele>2031.4</ele>
        <time>2015-06-26T09:22:58Z</time>
      </trkpt>
      <trkpt lat="42.21171" lon="8.99663">
        <ele>2032.8</ele>
        <time>2015-06-26T09:23:07Z</time>
      </trkpt>
      <trkpt lat="42.21172" lon="8.99662">
        <ele>2034</ele>
        <time>2015-06-26T09:23:19Z</time>
      </trkpt>
      <trkpt lat="42.21174" lon="8.99656">
        <ele>2035</ele>
        <time>2015-06-26T09:23:40Z</time>
      </trkpt>
      <trkpt lat="42.21175" lon="8.99644">
        <ele>2036.2</ele>
        <time>2015-06-26T09:23:58Z</time>
      </trkpt>
      <trkpt lat="42.21169" lon="8.99627">
        <ele>2036.6</ele>
        <time>2015-06-26T09:24:14Z</time>
      </trkpt>
      <trkpt lat="42.21167" lon="8.99622">
        <ele>2036.8</ele>
        <time>2015-06-26T09:24:19Z</time>
      </trkpt>
      <trkpt lat="42.21167" lon="8.99616">
        <ele>2037.6</ele>
        <time>2015-06-26T09:24:31Z</time>
      </trkpt>
      <trkpt lat="42.21159" lon="8.99579">
        <ele>2037.6</ele>
        <time>2015-06-26T09:25:18Z</time>
      </trkpt>
      <trkpt lat="42.21154" lon="8.99549">
        <ele>2037.4</ele>
        <time>2015-06-26T09:25:50Z</time>
      </trkpt>
      <trkpt lat="42.21152" lon="8.99543">
        <ele>2036.4</ele>
        <time>2015-06-26T09:25:58Z</time>
      </trkpt>
      <trkpt lat="42.2115" lon="8.99537">
        <ele>2035.4</ele>
        <time>2015-06-26T09:26:08Z</time>
      </trkpt>
      <trkpt lat="42.21147" lon="8.99529">
        <ele>2034</ele>
        <time>2015-06-26T09:26:19Z</time>
      </trkpt>
      <trkpt lat="42.21142" lon="8.99511">
        <ele>2032.4</ele>
        <time>2015-06-26T09:26:44Z</time>
      </trkpt>
      <trkpt lat="42.21141" lon="8.99506">
        <ele>2032</ele>
        <time>2015-06-26T09:26:55Z</time>
      </trkpt>
      <trkpt lat="42.21139" lon="8.99498">
        <ele>2031.2</ele>
        <time>2015-06-26T09:27:01Z</time>
      </trkpt>
      <trkpt lat="42.21137" lon="8.99488">
        <ele>2029.4</ele>
        <time>2015-06-26T09:27:16Z</time>
      </trkpt>
      <trkpt lat="42.21138" lon="8.99489">
        <ele>2028.6</ele>
        <time>2015-06-26T09:27:25Z</time>
      </trkpt>
      <trkpt lat="42.21135" lon="8.99482">
        <ele>2027.8</ele>
        <time>2015-06-26T09:27:33Z</time>
      </trkpt>
      <trkpt lat="42.21136" lon="8.99476">
        <ele>2026.8</ele>
        <time>2015-06-26T09:27:40Z</time>
      </trkpt>
      <trkpt lat="42.21134" lon="8.99471">
        <ele>2025.4</ele>
        <time>2015-06-26T09:27:49Z</time>
      </trkpt>
      <trkpt lat="42.21133" lon="8.99466">
        <ele>2024.6</ele>
        <time>2015-06-26T09:27:55Z</time>
      </trkpt>
      <trkpt lat="42.21132" lon="8.99455">
        <ele>2023</ele>
        <time>2015-06-26T09:28:15Z</time>
      </trkpt>
      <trkpt lat="42.21131" lon="8.99457">
        <ele>2021.8</ele>
        <time>2015-06-26T09:28:26Z</time>
      </trkpt>
      <trkpt lat="42.21128" lon="8.99461">
        <ele>2020.8</ele>
        <time>2015-06-26T09:28:35Z</time>
      </trkpt>
      <trkpt lat="42.21126" lon="8.99458">
        <ele>2020</ele>
        <time>2015-06-26T09:28:42Z</time>
      </trkpt>
      <trkpt lat="42.21125" lon="8.99453">
        <ele>2018.8</ele>
        <time>2015-06-26T09:28:49Z</time>
      </trkpt>
      <trkpt lat="42.21122" lon="8.99448">
        <ele>2017.6</ele>
        <time>2015-06-26T09:28:58Z</time>
      </trkpt>
      <trkpt lat="42.21119" lon="8.99439">
        <ele>2016.6</ele>
        <time>2015-06-26T09:29:08Z</time>
      </trkpt>
      <trkpt lat="42.21119" lon="8.99427">
        <ele>2015.4</ele>
        <time>2015-06-26T09:29:19Z</time>
      </trkpt>
      <trkpt lat="42.21124" lon="8.99411">
        <ele>2014</ele>
        <time>2015-06-26T09:29:38Z</time>
      </trkpt>
      <trkpt lat="42.21123" lon="8.99405">
        <ele>2013</ele>
        <time>2015-06-26T09:29:49Z</time>
      </trkpt>
      <trkpt lat="42.2112" lon="8.99401">
        <ele>2011.8</ele>
        <time>2015-06-26T09:29:59Z</time>
      </trkpt>
      <trkpt lat="42.2112" lon="8.99397">
        <ele>2011.2</ele>
        <time>2015-06-26T09:30:05Z</time>
      </trkpt>
      <trkpt lat="42.21119" lon="8.99398">
        <ele>2009.6</ele>
        <time>2015-06-26T09:30:14Z</time>
      </trkpt>
      <trkpt lat="42.21116" lon="8.994">
        <ele>2008.8</ele>
        <time>2015-06-26T09:30:22Z</time>
      </trkpt>
      <trkpt lat="42.21113" lon="8.99396">
        <ele>2007.6</ele>
        <time>2015-06-26T09:30:30Z</time>
      </trkpt>
      <trkpt lat="42.21116" lon="8.99389">
        <ele>2006.6</ele>
        <time>2015-06-26T09:30:36Z</time>
      </trkpt>
      <trkpt lat="42.21118" lon="8.99377">
        <ele>2005.2</ele>
        <time>2015-06-26T09:30:52Z</time>
      </trkpt>
      <trkpt lat="42.21114" lon="8.99371">
        <ele>2004</ele>
        <time>2015-06-26T09:31:05Z</time>
      </trkpt>
      <trkpt lat="42.21113" lon="8.99367">
        <ele>2002.8</ele>
        <time>2015-06-26T09:31:15Z</time>
      </trkpt>
      <trkpt lat="42.21111" lon="8.99364">
        <ele>2002.4</ele>
        <time>2015-06-26T09:31:23Z</time>
      </trkpt>
      <trkpt lat="42.2111" lon="8.99358">
        <ele>2001.4</ele>
        <time>2015-06-26T09:31:32Z</time>
      </trkpt>
      <trkpt lat="42.21109" lon="8.99353">
        <ele>2000</ele>
        <time>2015-06-26T09:31:40Z</time>
      </trkpt>
      <trkpt lat="42.21106" lon="8.9935">
        <ele>1999.4</ele>
        <time>2015-06-26T09:31:47Z</time>
      </trkpt>
      <trkpt lat="42.21106" lon="8.99349">
        <ele>1997.8</ele>
        <time>2015-06-26T09:31:58Z</time>
      </trkpt>
      <trkpt lat="42.21107" lon="8.99345">
        <ele>1996.6</ele>
        <time>2015-06-26T09:32:06Z</time>
      </trkpt>
      <trkpt lat="42.21103" lon="8.99342">
        <ele>1995.8</ele>
        <time>2015-06-26T09:32:14Z</time>
      </trkpt>
      <trkpt lat="42.21103" lon="8.99339">
        <ele>1994.8</ele>
        <time>2015-06-26T09:32:21Z</time>
      </trkpt>
      <trkpt lat="42.21101" lon="8.99334">
        <ele>1993.4</ele>
        <time>2015-06-26T09:32:30Z</time>
      </trkpt>
      <trkpt lat="42.21099" lon="8.99338">
        <ele>1992.4</ele>
        <time>2015-06-26T09:32:39Z</time>
      </trkpt>
      <trkpt lat="42.21096" lon="8.99336">
        <ele>1991.4</ele>
        <time>2015-06-26T09:32:48Z</time>
      </trkpt>
      <trkpt lat="42.21092" lon="8.99338">
        <ele>1990.2</ele>
        <time>2015-06-26T09:32:57Z</time>
      </trkpt>
      <trkpt lat="42.21092" lon="8.99335">
        <ele>1990</ele>
        <time>2015-06-26T09:33:00Z</time>
      </trkpt>
      <trkpt lat="42.21092" lon="8.99333">
        <ele>1989.6</ele>
        <time>2015-06-26T09:33:02Z</time>
      </trkpt>
      <trkpt lat="42.21093" lon="8.99326">
        <ele>1987.4</ele>
        <time>2015-06-26T09:33:11Z</time>
      </trkpt>
      <trkpt lat="42.21093" lon="8.99319">
        <ele>1987</ele>
        <time>2015-06-26T09:33:19Z</time>
      </trkpt>
      <trkpt lat="42.21091" lon="8.9931">
        <ele>1985.6</ele>
        <time>2015-06-26T09:33:28Z</time>
      </trkpt>
      <trkpt lat="42.21094" lon="8.993">
        <ele>1984.4</ele>
        <time>2015-06-26T09:33:40Z</time>
      </trkpt>
      <trkpt lat="42.21092" lon="8.99292">
        <ele>1983.4</ele>
        <time>2015-06-26T09:33:52Z</time>
      </trkpt>
      <trkpt lat="42.21093" lon="8.99288">
        <ele>1982.8</ele>
        <time>2015-06-26T09:33:58Z</time>
      </trkpt>
      <trkpt lat="42.21093" lon="8.99282">
        <ele>1981.6</ele>
        <time>2015-06-26T09:34:06Z</time>
      </trkpt>
      <trkpt lat="42.21093" lon="8.99275">
        <ele>1980.6</ele>
        <time>2015-06-26T09:34:12Z</time>
      </trkpt>
      <trkpt lat="42.21089" lon="8.99268">
        <ele>1979.4</ele>
        <time>2015-06-26T09:34:19Z</time>
      </trkpt>
      <trkpt lat="42.21089" lon="8.99264">
        <ele>1979</ele>
        <time>2015-06-26T09:34:25Z</time>
      </trkpt>
      <trkpt lat="42.2109" lon="8.99256">
        <ele>1978</ele>
        <time>2015-06-26T09:34:37Z</time>
      </trkpt>
      <trkpt lat="42.2109" lon="8.99249">
        <ele>1976.8</ele>
        <time>2015-06-26T09:34:49Z</time>
      </trkpt>
      <trkpt lat="42.21086" lon="8.99243">
        <ele>1975.8</ele>
        <time>2015-06-26T09:35:00Z</time>
      </trkpt>
      <trkpt lat="42.21083" lon="8.99244">
        <ele>1975</ele>
        <time>2015-06-26T09:35:09Z</time>
      </trkpt>
      <trkpt lat="42.21081" lon="8.9924">
        <ele>1974</ele>
        <time>2015-06-26T09:35:18Z</time>
      </trkpt>
      <trkpt lat="42.21082" lon="8.99236">
        <ele>1973.4</ele>
        <time>2015-06-26T09:35:23Z</time>
      </trkpt>
      <trkpt lat="42.21081" lon="8.99232">
        <ele>1972.2</ele>
        <time>2015-06-26T09:35:29Z</time>
      </trkpt>
      <trkpt lat="42.21083" lon="8.99226">
        <ele>1970.4</ele>
        <time>2015-06-26T09:35:39Z</time>
      </trkpt>
      <trkpt lat="42.21079" lon="8.9922">
        <ele>1969.8</ele>
        <time>2015-06-26T09:35:52Z</time>
      </trkpt>
      <trkpt lat="42.21074" lon="8.99219">
        <ele>1968.2</ele>
        <time>2015-06-26T09:36:04Z</time>
      </trkpt>
      <trkpt lat="42.21073" lon="8.99217">
        <ele>1968</ele>
        <time>2015-06-26T09:36:09Z</time>
      </trkpt>
      <trkpt lat="42.21075" lon="8.99213">
        <ele>1967.2</ele>
        <time>2015-06-26T09:36:13Z</time>
      </trkpt>
      <trkpt lat="42.21076" lon="8.99206">
        <ele>1965</ele>
        <time>2015-06-26T09:36:22Z</time>
      </trkpt>
      <trkpt lat="42.21073" lon="8.99198">
        <ele>1964.4</ele>
        <time>2015-06-26T09:36:34Z</time>
      </trkpt>
      <trkpt lat="42.21073" lon="8.99192">
        <ele>1963.6</ele>
        <time>2015-06-26T09:36:40Z</time>
      </trkpt>
      <trkpt lat="42.21071" lon="8.99182">
        <ele>1962.2</ele>
        <time>2015-06-26T09:36:51Z</time>
      </trkpt>
      <trkpt lat="42.21068" lon="8.99176">
        <ele>1961</ele>
        <time>2015-06-26T09:36:58Z</time>
      </trkpt>
      <trkpt lat="42.21066" lon="8.99173">
        <ele>1960.2</ele>
        <time>2015-06-26T09:37:03Z</time>
      </trkpt>
      <trkpt lat="42.21068" lon="8.99168">
        <ele>1959</ele>
        <time>2015-06-26T09:37:10Z</time>
      </trkpt>
      <trkpt lat="42.21067" lon="8.99164">
        <ele>1958.2</ele>
        <time>2015-06-26T09:37:15Z</time>
      </trkpt>
      <trkpt lat="42.21068" lon="8.99161">
        <ele>1957</ele>
        <time>2015-06-26T09:37:20Z</time>
      </trkpt>
      <trkpt lat="42.21071" lon="8.99149">
        <ele>1955</ele>
        <time>2015-06-26T09:37:33Z</time>
      </trkpt>
      <trkpt lat="42.21075" lon="8.99142">
        <ele>1954.2</ele>
        <time>2015-06-26T09:37:43Z</time>
      </trkpt>
      <trkpt lat="42.21077" lon="8.99135">
        <ele>1953.8</ele>
        <time>2015-06-26T09:37:52Z</time>
      </trkpt>
      <trkpt lat="42.21079" lon="8.9913">
        <ele>1953.4</ele>
        <time>2015-06-26T09:37:59Z</time>
      </trkpt>
      <trkpt lat="42.2108" lon="8.99121">
        <ele>1951.8</ele>
        <time>2015-06-26T09:38:08Z</time>
      </trkpt>
      <trkpt lat="42.21083" lon="8.99116">
        <ele>1950.6</ele>
        <time>2015-06-26T09:38:20Z</time>
      </trkpt>
      <trkpt lat="42.21087" lon="8.99109">
        <ele>1949.6</ele>
        <time>2015-06-26T09:38:30Z</time>
      </trkpt>
      <trkpt lat="42.21093" lon="8.99103">
        <ele>1948.8</ele>
        <time>2015-06-26T09:38:40Z</time>
      </trkpt>
      <trkpt lat="42.21091" lon="8.99095">
        <ele>1948</ele>
        <time>2015-06-26T09:38:48Z</time>
      </trkpt>
      <trkpt lat="42.21096" lon="8.99091">
        <ele>1946.6</ele>
        <time>2015-06-26T09:38:57Z</time>
      </trkpt>
      <trkpt lat="42.21097" lon="8.99087">
        <ele>1945.8</ele>
        <time>2015-06-26T09:39:04Z</time>
      </trkpt>
      <trkpt lat="42.21099" lon="8.99082">
        <ele>1944.4</ele>
        <time>2015-06-26T09:39:12Z</time>
      </trkpt>
      <trkpt lat="42.21101" lon="8.99075">
        <ele>1943.6</ele>
        <time>2015-06-26T09:39:22Z</time>
      </trkpt>
      <trkpt lat="42.21106" lon="8.99071">
        <ele>1943.4</ele>
        <time>2015-06-26T09:39:34Z</time>
      </trkpt>
      <trkpt lat="42.2111" lon="8.99058">
        <ele>1944.8</ele>
        <time>2015-06-26T09:39:54Z</time>
      </trkpt>
      <trkpt lat="42.21108" lon="8.99053">
        <ele>1944.6</ele>
        <time>2015-06-26T09:40:00Z</time>
      </trkpt>
      <trkpt lat="42.21112" lon="8.99044">
        <ele>1944</ele>
        <time>2015-06-26T09:40:14Z</time>
      </trkpt>
      <trkpt lat="42.21107" lon="8.99039">
        <ele>1942.4</ele>
        <time>2015-06-26T09:40:26Z</time>
      </trkpt>
      <trkpt lat="42.21108" lon="8.99036">
        <ele>1942.2</ele>
        <time>2015-06-26T09:40:31Z</time>
      </trkpt>
      <trkpt lat="42.21112" lon="8.99033">
        <ele>1940.4</ele>
        <time>2015-06-26T09:40:42Z</time>
      </trkpt>
      <trkpt lat="42.21113" lon="8.99033">
        <ele>1939.6</ele>
        <time>2015-06-26T09:40:49Z</time>
      </trkpt>
      <trkpt lat="42.21114" lon="8.9903">
        <ele>1938.2</ele>
        <time>2015-06-26T09:40:59Z</time>
      </trkpt>
      <trkpt lat="42.21111" lon="8.99027">
        <ele>1937.2</ele>
        <time>2015-06-26T09:41:08Z</time>
      </trkpt>
      <trkpt lat="42.21112" lon="8.99024">
        <ele>1936</ele>
        <time>2015-06-26T09:41:25Z</time>
      </trkpt>
      <trkpt lat="42.21114" lon="8.99021">
        <ele>1935.2</ele>
        <time>2015-06-26T09:41:32Z</time>
      </trkpt>
      <trkpt lat="42.21116" lon="8.99017">
        <ele>1934.4</ele>
        <time>2015-06-26T09:41:39Z</time>
      </trkpt>
      <trkpt lat="42.21114" lon="8.99012">
        <ele>1933</ele>
        <time>2015-06-26T09:41:49Z</time>
      </trkpt>
      <trkpt lat="42.21113" lon="8.99009">
        <ele>1932</ele>
        <time>2015-06-26T09:41:55Z</time>
      </trkpt>
      <trkpt lat="42.2111" lon="8.99008">
        <ele>1930.8</ele>
        <time>2015-06-26T09:42:03Z</time>
      </trkpt>
      <trkpt lat="42.21107" lon="8.99009">
        <ele>1929.4</ele>
        <time>2015-06-26T09:42:16Z</time>
      </trkpt>
      <trkpt lat="42.21102" lon="8.99011">
        <ele>1928.6</ele>
        <time>2015-06-26T09:42:41Z</time>
      </trkpt>
      <trkpt lat="42.21103" lon="8.9901">
        <ele>1928.4</ele>
        <time>2015-06-26T09:42:42Z</time>
      </trkpt>
      <trkpt lat="42.21104" lon="8.99007">
        <ele>1927.8</ele>
        <time>2015-06-26T09:42:48Z</time>
      </trkpt>
      <trkpt lat="42.21101" lon="8.99002">
        <ele>1926.4</ele>
        <time>2015-06-26T09:42:58Z</time>
      </trkpt>
      <trkpt lat="42.21103" lon="8.99">
        <ele>1925.6</ele>
        <time>2015-06-26T09:43:05Z</time>
      </trkpt>
      <trkpt lat="42.21101" lon="8.98998">
        <ele>1924.4</ele>
        <time>2015-06-26T09:43:15Z</time>
      </trkpt>
      <trkpt lat="42.21103" lon="8.98996">
        <ele>1924</ele>
        <time>2015-06-26T09:43:20Z</time>
      </trkpt>
      <trkpt lat="42.21107" lon="8.98995">
        <ele>1922.2</ele>
        <time>2015-06-26T09:43:36Z</time>
      </trkpt>
      <trkpt lat="42.2111" lon="8.98992">
        <ele>1921.8</ele>
        <time>2015-06-26T09:43:43Z</time>
      </trkpt>
      <trkpt lat="42.21111" lon="8.98985">
        <ele>1921.2</ele>
        <time>2015-06-26T09:44:00Z</time>
      </trkpt>
      <trkpt lat="42.2111" lon="8.98983">
        <ele>1921</ele>
        <time>2015-06-26T09:44:04Z</time>
      </trkpt>
      <trkpt lat="42.21111" lon="8.98981">
        <ele>1919.8</ele>
        <time>2015-06-26T09:44:09Z</time>
      </trkpt>
      <trkpt lat="42.2111" lon="8.98977">
        <ele>1918.4</ele>
        <time>2015-06-26T09:44:17Z</time>
      </trkpt>
      <trkpt lat="42.21112" lon="8.98978">
        <ele>1917.2</ele>
        <time>2015-06-26T09:44:25Z</time>
      </trkpt>
      <trkpt lat="42.21112" lon="8.98975">
        <ele>1916.4</ele>
        <time>2015-06-26T09:44:31Z</time>
      </trkpt>
      <trkpt lat="42.21106" lon="8.98971">
        <ele>1915.2</ele>
        <time>2015-06-26T09:44:38Z</time>
      </trkpt>
      <trkpt lat="42.21103" lon="8.98968">
        <ele>1914.2</ele>
        <time>2015-06-26T09:44:44Z</time>
      </trkpt>
      <trkpt lat="42.21099" lon="8.98965">
        <ele>1912.8</ele>
        <time>2015-06-26T09:44:55Z</time>
      </trkpt>
      <trkpt lat="42.21098" lon="8.98961">
        <ele>1911.8</ele>
        <time>2015-06-26T09:45:04Z</time>
      </trkpt>
      <trkpt lat="42.21102" lon="8.98957">
        <ele>1910.8</ele>
        <time>2015-06-26T09:45:15Z</time>
      </trkpt>
      <trkpt lat="42.21104" lon="8.98955">
        <ele>1910</ele>
        <time>2015-06-26T09:45:23Z</time>
      </trkpt>
      <trkpt lat="42.21106" lon="8.98954">
        <ele>1908.8</ele>
        <time>2015-06-26T09:45:31Z</time>
      </trkpt>
      <trkpt lat="42.21103" lon="8.98951">
        <ele>1907.4</ele>
        <time>2015-06-26T09:45:40Z</time>
      </trkpt>
      <trkpt lat="42.21101" lon="8.9895">
        <ele>1906.6</ele>
        <time>2015-06-26T09:45:47Z</time>
      </trkpt>
      <trkpt lat="42.21101" lon="8.98947">
        <ele>1905.6</ele>
        <time>2015-06-26T09:45:56Z</time>
      </trkpt>
      <trkpt lat="42.21102" lon="8.98945">
        <ele>1904.6</ele>
        <time>2015-06-26T09:46:03Z</time>
      </trkpt>
      <trkpt lat="42.21103" lon="8.98943">
        <ele>1903.4</ele>
        <time>2015-06-26T09:46:10Z</time>
      </trkpt>
      <trkpt lat="42.21107" lon="8.9894">
        <ele>1901.8</ele>
        <time>2015-06-26T09:46:19Z</time>
      </trkpt>
      <trkpt lat="42.2111" lon="8.98938">
        <ele>1901.2</ele>
        <time>2015-06-26T09:46:26Z</time>
      </trkpt>
      <trkpt lat="42.21108" lon="8.98935">
        <ele>1899.6</ele>
        <time>2015-06-26T09:46:36Z</time>
      </trkpt>
      <trkpt lat="42.211" lon="8.98933">
        <ele>1898.8</ele>
        <time>2015-06-26T09:46:45Z</time>
      </trkpt>
      <trkpt lat="42.21098" lon="8.98931">
        <ele>1897.6</ele>
        <time>2015-06-26T09:46:58Z</time>
      </trkpt>
      <trkpt lat="42.21094" lon="8.98927">
        <ele>1897</ele>
        <time>2015-06-26T09:47:03Z</time>
      </trkpt>
      <trkpt lat="42.21093" lon="8.98926">
        <ele>1896.8</ele>
        <time>2015-06-26T09:47:05Z</time>
      </trkpt>
      <trkpt lat="42.21091" lon="8.98924">
        <ele>1896</ele>
        <time>2015-06-26T09:47:10Z</time>
      </trkpt>
      <trkpt lat="42.21089" lon="8.98923">
        <ele>1894.8</ele>
        <time>2015-06-26T09:47:16Z</time>
      </trkpt>
      <trkpt lat="42.21087" lon="8.9892">
        <ele>1894</ele>
        <time>2015-06-26T09:47:21Z</time>
      </trkpt>
      <trkpt lat="42.21085" lon="8.98917">
        <ele>1892.6</ele>
        <time>2015-06-26T09:47:27Z</time>
      </trkpt>
      <trkpt lat="42.21084" lon="8.98915">
        <ele>1891.2</ele>
        <time>2015-06-26T09:47:36Z</time>
      </trkpt>
      <trkpt lat="42.21085" lon="8.98914">
        <ele>1890.6</ele>
        <time>2015-06-26T09:47:40Z</time>
      </trkpt>
      <trkpt lat="42.21085" lon="8.98913">
        <ele>1890.2</ele>
        <time>2015-06-26T09:47:45Z</time>
      </trkpt>
      <trkpt lat="42.21086" lon="8.98909">
        <ele>1888.4</ele>
        <time>2015-06-26T09:48:00Z</time>
      </trkpt>
      <trkpt lat="42.21089" lon="8.98904">
        <ele>1888</ele>
        <time>2015-06-26T09:48:06Z</time>
      </trkpt>
      <trkpt lat="42.21094" lon="8.98899">
        <ele>1886.6</ele>
        <time>2015-06-26T09:48:14Z</time>
      </trkpt>
      <trkpt lat="42.21096" lon="8.98893">
        <ele>1885.6</ele>
        <time>2015-06-26T09:48:22Z</time>
      </trkpt>
      <trkpt lat="42.211" lon="8.9889">
        <ele>1884.8</ele>
        <time>2015-06-26T09:48:29Z</time>
      </trkpt>
      <trkpt lat="42.21106" lon="8.98886">
        <ele>1883.6</ele>
        <time>2015-06-26T09:48:36Z</time>
      </trkpt>
      <trkpt lat="42.21108" lon="8.98885">
        <ele>1883.4</ele>
        <time>2015-06-26T09:48:39Z</time>
      </trkpt>
      <trkpt lat="42.21109" lon="8.98885">
        <ele>1883</ele>
        <time>2015-06-26T09:48:41Z</time>
      </trkpt>
      <trkpt lat="42.21111" lon="8.98884">
        <ele>1882.6</ele>
        <time>2015-06-26T09:48:43Z</time>
      </trkpt>
      <trkpt lat="42.21114" lon="8.98883">
        <ele>1882.2</ele>
        <time>2015-06-26T09:48:50Z</time>
      </trkpt>
      <trkpt lat="42.21117" lon="8.98882">
        <ele>1881.4</ele>
        <time>2015-06-26T09:48:57Z</time>
      </trkpt>
      <trkpt lat="42.2112" lon="8.98879">
        <ele>1880.6</ele>
        <time>2015-06-26T09:49:04Z</time>
      </trkpt>
      <trkpt lat="42.21126" lon="8.9888">
        <ele>1879.2</ele>
        <time>2015-06-26T09:49:12Z</time>
      </trkpt>
      <trkpt lat="42.21128" lon="8.98876">
        <ele>1878</ele>
        <time>2015-06-26T09:49:21Z</time>
      </trkpt>
      <trkpt lat="42.21129" lon="8.98872">
        <ele>1877</ele>
        <time>2015-06-26T09:49:30Z</time>
      </trkpt>
      <trkpt lat="42.21131" lon="8.9887">
        <ele>1876</ele>
        <time>2015-06-26T09:49:37Z</time>
      </trkpt>
      <trkpt lat="42.21131" lon="8.98862">
        <ele>1875</ele>
        <time>2015-06-26T09:49:45Z</time>
      </trkpt>
      <trkpt lat="42.21134" lon="8.98858">
        <ele>1874</ele>
        <time>2015-06-26T09:49:52Z</time>
      </trkpt>
      <trkpt lat="42.21132" lon="8.98851">
        <ele>1872.8</ele>
        <time>2015-06-26T09:50:00Z</time>
      </trkpt>
      <trkpt lat="42.21134" lon="8.98845">
        <ele>1872</ele>
        <time>2015-06-26T09:50:07Z</time>
      </trkpt>
      <trkpt lat="42.21134" lon="8.98836">
        <ele>1871</ele>
        <time>2015-06-26T09:50:15Z</time>
      </trkpt>
      <trkpt lat="42.21143" lon="8.98828">
        <ele>1869.4</ele>
        <time>2015-06-26T09:50:29Z</time>
      </trkpt>
      <trkpt lat="42.21152" lon="8.98824">
        <ele>1868.8</ele>
        <time>2015-06-26T09:50:39Z</time>
      </trkpt>
      <trkpt lat="42.21162" lon="8.98817">
        <ele>1867.6</ele>
        <time>2015-06-26T09:50:52Z</time>
      </trkpt>
      <trkpt lat="42.21165" lon="8.98815">
        <ele>1867.4</ele>
        <time>2015-06-26T09:50:56Z</time>
      </trkpt>
      <trkpt lat="42.21183" lon="8.98806">
        <ele>1866.6</ele>
        <time>2015-06-26T09:51:18Z</time>
      </trkpt>
      <trkpt lat="42.21185" lon="8.98804">
        <ele>1866.6</ele>
        <time>2015-06-26T09:51:21Z</time>
      </trkpt>
      <trkpt lat="42.21188" lon="8.98804">
        <ele>1866</ele>
        <time>2015-06-26T09:51:25Z</time>
      </trkpt>
      <trkpt lat="42.21202" lon="8.98789">
        <ele>1865.6</ele>
        <time>2015-06-26T09:51:44Z</time>
      </trkpt>
      <trkpt lat="42.21203" lon="8.98788">
        <ele>1865.6</ele>
        <time>2015-06-26T09:51:45Z</time>
      </trkpt>
      <trkpt lat="42.21205" lon="8.98788">
        <ele>1865.6</ele>
        <time>2015-06-26T09:51:47Z</time>
      </trkpt>
      <trkpt lat="42.21206" lon="8.98787">
        <ele>1865.6</ele>
        <time>2015-06-26T09:51:48Z</time>
      </trkpt>
      <trkpt lat="42.21228" lon="8.98764">
        <ele>1865.2</ele>
        <time>2015-06-26T09:52:37Z</time>
      </trkpt>
      <trkpt lat="42.21229" lon="8.98761">
        <ele>1864</ele>
        <time>2015-06-26T09:52:59Z</time>
      </trkpt>
      <trkpt lat="42.21242" lon="8.98721">
        <ele>1863.4</ele>
        <time>2015-06-26T09:53:53Z</time>
      </trkpt>
      <trkpt lat="42.21244" lon="8.98719">
        <ele>1863.6</ele>
        <time>2015-06-26T09:53:56Z</time>
      </trkpt>
      <trkpt lat="42.21245" lon="8.98717">
        <ele>1863.4</ele>
        <time>2015-06-26T09:53:58Z</time>
      </trkpt>
      <trkpt lat="42.21245" lon="8.98709">
        <ele>1863.4</ele>
        <time>2015-06-26T09:54:05Z</time>
      </trkpt>
      <trkpt lat="42.21244" lon="8.98706">
        <ele>1863.4</ele>
        <time>2015-06-26T09:54:08Z</time>
      </trkpt>
      <trkpt lat="42.21244" lon="8.98695">
        <ele>1863.6</ele>
        <time>2015-06-26T09:54:20Z</time>
      </trkpt>
      <trkpt lat="42.21247" lon="8.98676">
        <ele>1862.2</ele>
        <time>2015-06-26T09:54:37Z</time>
      </trkpt>
      <trkpt lat="42.21247" lon="8.98673">
        <ele>1862.2</ele>
        <time>2015-06-26T09:54:40Z</time>
      </trkpt>
      <trkpt lat="42.21254" lon="8.98665">
        <ele>1862.2</ele>
        <time>2015-06-26T09:54:51Z</time>
      </trkpt>
      <trkpt lat="42.21257" lon="8.98659">
        <ele>1862</ele>
        <time>2015-06-26T09:54:57Z</time>
      </trkpt>
      <trkpt lat="42.21272" lon="8.98631">
        <ele>1862</ele>
        <time>2015-06-26T09:55:21Z</time>
      </trkpt>
      <trkpt lat="42.21274" lon="8.98626">
        <ele>1862</ele>
        <time>2015-06-26T09:55:24Z</time>
      </trkpt>
      <trkpt lat="42.21279" lon="8.98619">
        <ele>1862</ele>
        <time>2015-06-26T09:55:32Z</time>
      </trkpt>
      <trkpt lat="42.21282" lon="8.98613">
        <ele>1861.8</ele>
        <time>2015-06-26T09:55:37Z</time>
      </trkpt>
      <trkpt lat="42.21284" lon="8.98606">
        <ele>1861.8</ele>
        <time>2015-06-26T09:55:43Z</time>
      </trkpt>
      <trkpt lat="42.21283" lon="8.98591">
        <ele>1861.6</ele>
        <time>2015-06-26T09:55:57Z</time>
      </trkpt>
      <trkpt lat="42.21284" lon="8.9859">
        <ele>1861.8</ele>
        <time>2015-06-26T09:55:59Z</time>
      </trkpt>
      <trkpt lat="42.21298" lon="8.98583">
        <ele>1862.2</ele>
        <time>2015-06-26T09:56:16Z</time>
      </trkpt>
      <trkpt lat="42.21311" lon="8.98577">
        <ele>1862.6</ele>
        <time>2015-06-26T09:56:38Z</time>
      </trkpt>
      <trkpt lat="42.21318" lon="8.98567">
        <ele>1863.2</ele>
        <time>2015-06-26T09:56:57Z</time>
      </trkpt>
      <trkpt lat="42.21321" lon="8.98563">
        <ele>1862.6</ele>
        <time>2015-06-26T09:57:04Z</time>
      </trkpt>
      <trkpt lat="42.21325" lon="8.9856">
        <ele>1861.6</ele>
        <time>2015-06-26T09:57:10Z</time>
      </trkpt>
      <trkpt lat="42.21325" lon="8.98553">
        <ele>1860.2</ele>
        <time>2015-06-26T09:57:18Z</time>
      </trkpt>
      <trkpt lat="42.2133" lon="8.98548">
        <ele>1859.2</ele>
        <time>2015-06-26T09:57:27Z</time>
      </trkpt>
      <trkpt lat="42.2133" lon="8.98543">
        <ele>1858.8</ele>
        <time>2015-06-26T09:57:32Z</time>
      </trkpt>
      <trkpt lat="42.21332" lon="8.98539">
        <ele>1857.2</ele>
        <time>2015-06-26T09:57:40Z</time>
      </trkpt>
      <trkpt lat="42.21334" lon="8.98534">
        <ele>1856.4</ele>
        <time>2015-06-26T09:57:47Z</time>
      </trkpt>
      <trkpt lat="42.21336" lon="8.98529">
        <ele>1855.2</ele>
        <time>2015-06-26T09:57:58Z</time>
      </trkpt>
      <trkpt lat="42.21336" lon="8.98523">
        <ele>1854</ele>
        <time>2015-06-26T09:58:19Z</time>
      </trkpt>
      <trkpt lat="42.21338" lon="8.98522">
        <ele>1853</ele>
        <time>2015-06-26T09:58:33Z</time>
      </trkpt>
      <trkpt lat="42.21341" lon="8.98518">
        <ele>1852.4</ele>
        <time>2015-06-26T09:58:42Z</time>
      </trkpt>
      <trkpt lat="42.21342" lon="8.98516">
        <ele>1851.4</ele>
        <time>2015-06-26T09:58:48Z</time>
      </trkpt>
      <trkpt lat="42.21342" lon="8.98513">
        <ele>1849.4</ele>
        <time>2015-06-26T09:58:59Z</time>
      </trkpt>
      <trkpt lat="42.21344" lon="8.98512">
        <ele>1849</ele>
        <time>2015-06-26T09:59:07Z</time>
      </trkpt>
      <trkpt lat="42.21344" lon="8.98509">
        <ele>1848.2</ele>
        <time>2015-06-26T09:59:12Z</time>
      </trkpt>
      <trkpt lat="42.21348" lon="8.98506">
        <ele>1846.6</ele>
        <time>2015-06-26T09:59:21Z</time>
      </trkpt>
      <trkpt lat="42.2135" lon="8.98502">
        <ele>1845.8</ele>
        <time>2015-06-26T09:59:28Z</time>
      </trkpt>
      <trkpt lat="42.21352" lon="8.98498">
        <ele>1845</ele>
        <time>2015-06-26T09:59:34Z</time>
      </trkpt>
      <trkpt lat="42.21356" lon="8.98496">
        <ele>1843.6</ele>
        <time>2015-06-26T09:59:43Z</time>
      </trkpt>
      <trkpt lat="42.21357" lon="8.98493">
        <ele>1843</ele>
        <time>2015-06-26T09:59:48Z</time>
      </trkpt>
      <trkpt lat="42.21357" lon="8.9849">
        <ele>1842</ele>
        <time>2015-06-26T09:59:53Z</time>
      </trkpt>
      <trkpt lat="42.2136" lon="8.98486">
        <ele>1840.8</ele>
        <time>2015-06-26T09:59:58Z</time>
      </trkpt>
      <trkpt lat="42.21363" lon="8.98484">
        <ele>1839.6</ele>
        <time>2015-06-26T10:00:04Z</time>
      </trkpt>
      <trkpt lat="42.21366" lon="8.98473">
        <ele>1838.2</ele>
        <time>2015-06-26T10:00:14Z</time>
      </trkpt>
      <trkpt lat="42.21375" lon="8.98466">
        <ele>1836.8</ele>
        <time>2015-06-26T10:00:25Z</time>
      </trkpt>
      <trkpt lat="42.21383" lon="8.98461">
        <ele>1836</ele>
        <time>2015-06-26T10:00:41Z</time>
      </trkpt>
      <trkpt lat="42.21387" lon="8.98455">
        <ele>1835</ele>
        <time>2015-06-26T10:00:57Z</time>
      </trkpt>
      <trkpt lat="42.21387" lon="8.98449">
        <ele>1833.6</ele>
        <time>2015-06-26T10:01:12Z</time>
      </trkpt>
      <trkpt lat="42.21389" lon="8.98447">
        <ele>1833</ele>
        <time>2015-06-26T10:01:28Z</time>
      </trkpt>
      <trkpt lat="42.2139" lon="8.98442">
        <ele>1832</ele>
        <time>2015-06-26T10:01:38Z</time>
      </trkpt>
      <trkpt lat="42.21393" lon="8.98442">
        <ele>1831</ele>
        <time>2015-06-26T10:01:54Z</time>
      </trkpt>
      <trkpt lat="42.21396" lon="8.98439">
        <ele>1830</ele>
        <time>2015-06-26T10:02:16Z</time>
      </trkpt>
      <trkpt lat="42.21397" lon="8.98441">
        <ele>1829</ele>
        <time>2015-06-26T10:02:26Z</time>
      </trkpt>
      <trkpt lat="42.21399" lon="8.98439">
        <ele>1828</ele>
        <time>2015-06-26T10:02:34Z</time>
      </trkpt>
      <trkpt lat="42.21398" lon="8.98436">
        <ele>1827</ele>
        <time>2015-06-26T10:02:41Z</time>
      </trkpt>
      <trkpt lat="42.214" lon="8.98434">
        <ele>1825.8</ele>
        <time>2015-06-26T10:02:49Z</time>
      </trkpt>
      <trkpt lat="42.21402" lon="8.98431">
        <ele>1825</ele>
        <time>2015-06-26T10:02:57Z</time>
      </trkpt>
      <trkpt lat="42.21402" lon="8.9843">
        <ele>1823.6</ele>
        <time>2015-06-26T10:03:07Z</time>
      </trkpt>
      <trkpt lat="42.21405" lon="8.98428">
        <ele>1822.8</ele>
        <time>2015-06-26T10:03:16Z</time>
      </trkpt>
      <trkpt lat="42.21407" lon="8.98424">
        <ele>1821.6</ele>
        <time>2015-06-26T10:03:23Z</time>
      </trkpt>
      <trkpt lat="42.21407" lon="8.98422">
        <ele>1820.4</ele>
        <time>2015-06-26T10:03:30Z</time>
      </trkpt>
      <trkpt lat="42.21411" lon="8.98424">
        <ele>1818.8</ele>
        <time>2015-06-26T10:03:48Z</time>
      </trkpt>
      <trkpt lat="42.2141" lon="8.98421">
        <ele>1818</ele>
        <time>2015-06-26T10:04:01Z</time>
      </trkpt>
      <trkpt lat="42.21412" lon="8.98419">
        <ele>1817</ele>
        <time>2015-06-26T10:04:10Z</time>
      </trkpt>
      <trkpt lat="42.21415" lon="8.98418">
        <ele>1816.2</ele>
        <time>2015-06-26T10:04:18Z</time>
      </trkpt>
      <trkpt lat="42.2142" lon="8.98416">
        <ele>1814.6</ele>
        <time>2015-06-26T10:04:31Z</time>
      </trkpt>
      <trkpt lat="42.21424" lon="8.98417">
        <ele>1813.6</ele>
        <time>2015-06-26T10:04:54Z</time>
      </trkpt>
      <trkpt lat="42.21426" lon="8.98417">
        <ele>1813.2</ele>
        <time>2015-06-26T10:04:59Z</time>
      </trkpt>
      <trkpt lat="42.21428" lon="8.98418">
        <ele>1811.8</ele>
        <time>2015-06-26T10:05:06Z</time>
      </trkpt>
      <trkpt lat="42.21432" lon="8.98416">
        <ele>1810.4</ele>
        <time>2015-06-26T10:05:19Z</time>
      </trkpt>
      <trkpt lat="42.21435" lon="8.98415">
        <ele>1809.6</ele>
        <time>2015-06-26T10:05:26Z</time>
      </trkpt>
      <trkpt lat="42.21436" lon="8.98415">
        <ele>1808.8</ele>
        <time>2015-06-26T10:05:30Z</time>
      </trkpt>
      <trkpt lat="42.21437" lon="8.98415">
        <ele>1808.2</ele>
        <time>2015-06-26T10:05:33Z</time>
      </trkpt>
      <trkpt lat="42.2144" lon="8.98415">
        <ele>1807.2</ele>
        <time>2015-06-26T10:05:42Z</time>
      </trkpt>
      <trkpt lat="42.21442" lon="8.98414">
        <ele>1806.2</ele>
        <time>2015-06-26T10:05:51Z</time>
      </trkpt>
      <trkpt lat="42.21444" lon="8.98412">
        <ele>1805</ele>
        <time>2015-06-26T10:05:59Z</time>
      </trkpt>
      <trkpt lat="42.21449" lon="8.98411">
        <ele>1803.8</ele>
        <time>2015-06-26T10:06:07Z</time>
      </trkpt>
      <trkpt lat="42.21452" lon="8.98416">
        <ele>1802.6</ele>
        <time>2015-06-26T10:06:17Z</time>
      </trkpt>
      <trkpt lat="42.21451" lon="8.98417">
        <ele>1801.6</ele>
        <time>2015-06-26T10:06:27Z</time>
      </trkpt>
      <trkpt lat="42.21453" lon="8.98414">
        <ele>1800.2</ele>
        <time>2015-06-26T10:06:42Z</time>
      </trkpt>
      <trkpt lat="42.21457" lon="8.98411">
        <ele>1799</ele>
        <time>2015-06-26T10:06:57Z</time>
      </trkpt>
      <trkpt lat="42.2146" lon="8.98407">
        <ele>1798</ele>
        <time>2015-06-26T10:07:06Z</time>
      </trkpt>
      <trkpt lat="42.21463" lon="8.98403">
        <ele>1797</ele>
        <time>2015-06-26T10:07:21Z</time>
      </trkpt>
      <trkpt lat="42.21467" lon="8.98403">
        <ele>1796.2</ele>
        <time>2015-06-26T10:07:29Z</time>
      </trkpt>
      <trkpt lat="42.21471" lon="8.98403">
        <ele>1795.2</ele>
        <time>2015-06-26T10:07:36Z</time>
      </trkpt>
      <trkpt lat="42.21476" lon="8.98405">
        <ele>1794</ele>
        <time>2015-06-26T10:07:44Z</time>
      </trkpt>
      <trkpt lat="42.21489" lon="8.98409">
        <ele>1792.2</ele>
        <time>2015-06-26T10:08:12Z</time>
      </trkpt>
      <trkpt lat="42.21482" lon="8.98411">
        <ele>1792</ele>
        <time>2015-06-26T10:08:16Z</time>
      </trkpt>
      <trkpt lat="42.21485" lon="8.9841">
        <ele>1791.6</ele>
        <time>2015-06-26T10:08:21Z</time>
      </trkpt>
      <trkpt lat="42.2149" lon="8.9841">
        <ele>1790.4</ele>
        <time>2015-06-26T10:08:31Z</time>
      </trkpt>
      <trkpt lat="42.2149" lon="8.9841">
        <ele>1789.6</ele>
        <time>2015-06-26T10:08:36Z</time>
      </trkpt>
      <trkpt lat="42.21491" lon="8.98405">
        <ele>1788</ele>
        <time>2015-06-26T10:08:44Z</time>
      </trkpt>
      <trkpt lat="42.21496" lon="8.98404">
        <ele>1787</ele>
        <time>2015-06-26T10:08:52Z</time>
      </trkpt>
      <trkpt lat="42.21502" lon="8.98404">
        <ele>1785.4</ele>
        <time>2015-06-26T10:09:08Z</time>
      </trkpt>
      <trkpt lat="42.21503" lon="8.98402">
        <ele>1785</ele>
        <time>2015-06-26T10:09:15Z</time>
      </trkpt>
      <trkpt lat="42.21501" lon="8.98398">
        <ele>1783.4</ele>
        <time>2015-06-26T10:09:26Z</time>
      </trkpt>
      <trkpt lat="42.21504" lon="8.98396">
        <ele>1782.2</ele>
        <time>2015-06-26T10:09:40Z</time>
      </trkpt>
      <trkpt lat="42.21505" lon="8.98397">
        <ele>1781.2</ele>
        <time>2015-06-26T10:09:51Z</time>
      </trkpt>
      <trkpt lat="42.21505" lon="8.98396">
        <ele>1781.2</ele>
        <time>2015-06-26T10:09:52Z</time>
      </trkpt>
      <trkpt lat="42.21508" lon="8.98395">
        <ele>1780.8</ele>
        <time>2015-06-26T10:09:57Z</time>
      </trkpt>
      <trkpt lat="42.21509" lon="8.98395">
        <ele>1780.4</ele>
        <time>2015-06-26T10:10:00Z</time>
      </trkpt>
      <trkpt lat="42.21512" lon="8.984">
        <ele>1779</ele>
        <time>2015-06-26T10:10:11Z</time>
      </trkpt>
      <trkpt lat="42.21514" lon="8.98403">
        <ele>1778.6</ele>
        <time>2015-06-26T10:10:14Z</time>
      </trkpt>
      <trkpt lat="42.21515" lon="8.98404">
        <ele>1778.6</ele>
        <time>2015-06-26T10:10:16Z</time>
      </trkpt>
      <trkpt lat="42.21523" lon="8.98404">
        <ele>1777.6</ele>
        <time>2015-06-26T10:10:50Z</time>
      </trkpt>
      <trkpt lat="42.21526" lon="8.98404">
        <ele>1776.8</ele>
        <time>2015-06-26T10:11:04Z</time>
      </trkpt>
      <trkpt lat="42.21528" lon="8.98402">
        <ele>1775.8</ele>
        <time>2015-06-26T10:11:15Z</time>
      </trkpt>
      <trkpt lat="42.21529" lon="8.98401">
        <ele>1774.8</ele>
        <time>2015-06-26T10:11:22Z</time>
      </trkpt>
      <trkpt lat="42.21533" lon="8.98399">
        <ele>1773.2</ele>
        <time>2015-06-26T10:11:53Z</time>
      </trkpt>
      <trkpt lat="42.21534" lon="8.98394">
        <ele>1772.6</ele>
        <time>2015-06-26T10:12:00Z</time>
      </trkpt>
      <trkpt lat="42.21535" lon="8.98392">
        <ele>1771.2</ele>
        <time>2015-06-26T10:12:07Z</time>
      </trkpt>
      <trkpt lat="42.21537" lon="8.98388">
        <ele>1769.8</ele>
        <time>2015-06-26T10:12:17Z</time>
      </trkpt>
      <trkpt lat="42.2154" lon="8.9839">
        <ele>1768.8</ele>
        <time>2015-06-26T10:12:27Z</time>
      </trkpt>
      <trkpt lat="42.21544" lon="8.9839">
        <ele>1767.6</ele>
        <time>2015-06-26T10:12:36Z</time>
      </trkpt>
      <trkpt lat="42.21546" lon="8.98389">
        <ele>1766.8</ele>
        <time>2015-06-26T10:12:42Z</time>
      </trkpt>
      <trkpt lat="42.21552" lon="8.98387">
        <ele>1764.8</ele>
        <time>2015-06-26T10:12:57Z</time>
      </trkpt>
      <trkpt lat="42.21564" lon="8.98393">
        <ele>1763.4</ele>
        <time>2015-06-26T10:13:25Z</time>
      </trkpt>
      <trkpt lat="42.2157" lon="8.98391">
        <ele>1762.4</ele>
        <time>2015-06-26T10:13:39Z</time>
      </trkpt>
      <trkpt lat="42.21572" lon="8.98389">
        <ele>1761.6</ele>
        <time>2015-06-26T10:13:49Z</time>
      </trkpt>
      <trkpt lat="42.21572" lon="8.98386">
        <ele>1760.4</ele>
        <time>2015-06-26T10:13:58Z</time>
      </trkpt>
      <trkpt lat="42.21572" lon="8.98381">
        <ele>1759.2</ele>
        <time>2015-06-26T10:14:08Z</time>
      </trkpt>
      <trkpt lat="42.21575" lon="8.98379">
        <ele>1758.4</ele>
        <time>2015-06-26T10:14:13Z</time>
      </trkpt>
      <trkpt lat="42.21579" lon="8.98376">
        <ele>1756.8</ele>
        <time>2015-06-26T10:14:21Z</time>
      </trkpt>
      <trkpt lat="42.21581" lon="8.98376">
        <ele>1756</ele>
        <time>2015-06-26T10:14:28Z</time>
      </trkpt>
      <trkpt lat="42.21584" lon="8.98376">
        <ele>1754.6</ele>
        <time>2015-06-26T10:14:36Z</time>
      </trkpt>
      <trkpt lat="42.21586" lon="8.98375">
        <ele>1753.6</ele>
        <time>2015-06-26T10:14:42Z</time>
      </trkpt>
      <trkpt lat="42.2159" lon="8.98372">
        <ele>1751.8</ele>
        <time>2015-06-26T10:14:53Z</time>
      </trkpt>
      <trkpt lat="42.21592" lon="8.98368">
        <ele>1750.8</ele>
        <time>2015-06-26T10:15:03Z</time>
      </trkpt>
      <trkpt lat="42.21594" lon="8.98365">
        <ele>1749.8</ele>
        <time>2015-06-26T10:15:17Z</time>
      </trkpt>
      <trkpt lat="42.21593" lon="8.98364">
        <ele>1748.4</ele>
        <time>2015-06-26T10:15:31Z</time>
      </trkpt>
      <trkpt lat="42.21593" lon="8.98362">
        <ele>1747</ele>
        <time>2015-06-26T10:15:43Z</time>
      </trkpt>
      <trkpt lat="42.21595" lon="8.98358">
        <ele>1746</ele>
        <time>2015-06-26T10:15:53Z</time>
      </trkpt>
      <trkpt lat="42.21597" lon="8.98355">
        <ele>1745.4</ele>
        <time>2015-06-26T10:15:57Z</time>
      </trkpt>
      <trkpt lat="42.21597" lon="8.98354">
        <ele>1745.4</ele>
        <time>2015-06-26T10:15:59Z</time>
      </trkpt>
      <trkpt lat="42.21608" lon="8.98343">
        <ele>1742.8</ele>
        <time>2015-06-26T10:16:56Z</time>
      </trkpt>
      <trkpt lat="42.21616" lon="8.98338">
        <ele>1741.6</ele>
        <time>2015-06-26T10:17:10Z</time>
      </trkpt>
      <trkpt lat="42.21623" lon="8.98336">
        <ele>1740.2</ele>
        <time>2015-06-26T10:17:20Z</time>
      </trkpt>
      <trkpt lat="42.21632" lon="8.98332">
        <ele>1738.4</ele>
        <time>2015-06-26T10:17:34Z</time>
      </trkpt>
      <trkpt lat="42.21642" lon="8.98332">
        <ele>1737.6</ele>
        <time>2015-06-26T10:17:47Z</time>
      </trkpt>
      <trkpt lat="42.21647" lon="8.98332">
        <ele>1736.6</ele>
        <time>2015-06-26T10:17:54Z</time>
      </trkpt>
      <trkpt lat="42.21672" lon="8.9833">
        <ele>1734.8</ele>
        <time>2015-06-26T10:18:30Z</time>
      </trkpt>
      <trkpt lat="42.21686" lon="8.98326">
        <ele>1733.4</ele>
        <time>2015-06-26T10:18:51Z</time>
      </trkpt>
      <trkpt lat="42.21689" lon="8.98324">
        <ele>1733</ele>
        <time>2015-06-26T10:18:56Z</time>
      </trkpt>
      <trkpt lat="42.21703" lon="8.98313">
        <ele>1731.8</ele>
        <time>2015-06-26T10:19:40Z</time>
      </trkpt>
      <trkpt lat="42.21718" lon="8.98308">
        <ele>1732</ele>
        <time>2015-06-26T10:20:25Z</time>
      </trkpt>
      <trkpt lat="42.21723" lon="8.98297">
        <ele>1731.4</ele>
        <time>2015-06-26T10:20:43Z</time>
      </trkpt>
      <trkpt lat="42.21743" lon="8.98288">
        <ele>1730</ele>
        <time>2015-06-26T10:21:23Z</time>
      </trkpt>
      <trkpt lat="42.21746" lon="8.98283">
        <ele>1729.2</ele>
        <time>2015-06-26T10:21:32Z</time>
      </trkpt>
      <trkpt lat="42.2175" lon="8.9828">
        <ele>1728.6</ele>
        <time>2015-06-26T10:21:38Z</time>
      </trkpt>
      <trkpt lat="42.2177" lon="8.98269">
        <ele>1726.2</ele>
        <time>2015-06-26T10:22:11Z</time>
      </trkpt>
      <trkpt lat="42.21776" lon="8.98264">
        <ele>1725.6</ele>
        <time>2015-06-26T10:22:23Z</time>
      </trkpt>
      <trkpt lat="42.21783" lon="8.9826">
        <ele>1724.4</ele>
        <time>2015-06-26T10:22:34Z</time>
      </trkpt>
      <trkpt lat="42.21786" lon="8.98259">
        <ele>1723.4</ele>
        <time>2015-06-26T10:22:41Z</time>
      </trkpt>
      <trkpt lat="42.21793" lon="8.98254">
        <ele>1721.6</ele>
        <time>2015-06-26T10:22:55Z</time>
      </trkpt>
      <trkpt lat="42.21827" lon="8.9824">
        <ele>1720.2</ele>
        <time>2015-06-26T10:23:39Z</time>
      </trkpt>
      <trkpt lat="42.21836" lon="8.98237">
        <ele>1719.8</ele>
        <time>2015-06-26T10:23:51Z</time>
      </trkpt>
      <trkpt lat="42.21846" lon="8.98237">
        <ele>1718.6</ele>
        <time>2015-06-26T10:24:02Z</time>
      </trkpt>
      <trkpt lat="42.21853" lon="8.98236">
        <ele>1717.6</ele>
        <time>2015-06-26T10:24:10Z</time>
      </trkpt>
      <trkpt lat="42.21859" lon="8.9823">
        <ele>1716.4</ele>
        <time>2015-06-26T10:24:20Z</time>
      </trkpt>
      <trkpt lat="42.21861" lon="8.98224">
        <ele>1715.6</ele>
        <time>2015-06-26T10:24:27Z</time>
      </trkpt>
      <trkpt lat="42.21866" lon="8.98217">
        <ele>1714</ele>
        <time>2015-06-26T10:24:36Z</time>
      </trkpt>
      <trkpt lat="42.21869" lon="8.98216">
        <ele>1713.2</ele>
        <time>2015-06-26T10:24:43Z</time>
      </trkpt>
      <trkpt lat="42.21875" lon="8.98211">
        <ele>1712.2</ele>
        <time>2015-06-26T10:24:53Z</time>
      </trkpt>
      <trkpt lat="42.21879" lon="8.98207">
        <ele>1711</ele>
        <time>2015-06-26T10:25:01Z</time>
      </trkpt>
      <trkpt lat="42.21883" lon="8.98206">
        <ele>1709.6</ele>
        <time>2015-06-26T10:25:10Z</time>
      </trkpt>
      <trkpt lat="42.21884" lon="8.98201">
        <ele>1709.2</ele>
        <time>2015-06-26T10:25:15Z</time>
      </trkpt>
      <trkpt lat="42.21889" lon="8.982">
        <ele>1707.2</ele>
        <time>2015-06-26T10:25:25Z</time>
      </trkpt>
      <trkpt lat="42.21899" lon="8.982">
        <ele>1706</ele>
        <time>2015-06-26T10:25:41Z</time>
      </trkpt>
      <trkpt lat="42.21903" lon="8.98196">
        <ele>1705.2</ele>
        <time>2015-06-26T10:25:49Z</time>
      </trkpt>
      <trkpt lat="42.2191" lon="8.98194">
        <ele>1703.6</ele>
        <time>2015-06-26T10:26:04Z</time>
      </trkpt>
      <trkpt lat="42.21912" lon="8.98192">
        <ele>1703.2</ele>
        <time>2015-06-26T10:26:10Z</time>
      </trkpt>
      <trkpt lat="42.21921" lon="8.98187">
        <ele>1701.4</ele>
        <time>2015-06-26T10:26:24Z</time>
      </trkpt>
      <trkpt lat="42.21926" lon="8.98183">
        <ele>1700.6</ele>
        <time>2015-06-26T10:26:34Z</time>
      </trkpt>
      <trkpt lat="42.2193" lon="8.98179">
        <ele>1698.8</ele>
        <time>2015-06-26T10:26:48Z</time>
      </trkpt>
      <trkpt lat="42.21938" lon="8.98176">
        <ele>1698.4</ele>
        <time>2015-06-26T10:27:41Z</time>
      </trkpt>
      <trkpt lat="42.21956" lon="8.98169">
        <ele>1696.6</ele>
        <time>2015-06-26T10:28:05Z</time>
      </trkpt>
      <trkpt lat="42.21961" lon="8.98165">
        <ele>1696.6</ele>
        <time>2015-06-26T10:28:12Z</time>
      </trkpt>
      <trkpt lat="42.21968" lon="8.98159">
        <ele>1695.8</ele>
        <time>2015-06-26T10:28:21Z</time>
      </trkpt>
      <trkpt lat="42.21972" lon="8.98154">
        <ele>1694.8</ele>
        <time>2015-06-26T10:28:30Z</time>
      </trkpt>
      <trkpt lat="42.21984" lon="8.9814">
        <ele>1694</ele>
        <time>2015-06-26T10:28:59Z</time>
      </trkpt>
      <trkpt lat="42.21985" lon="8.98137">
        <ele>1692.8</ele>
        <time>2015-06-26T10:29:08Z</time>
      </trkpt>
      <trkpt lat="42.21985" lon="8.98133">
        <ele>1691.6</ele>
        <time>2015-06-26T10:29:16Z</time>
      </trkpt>
      <trkpt lat="42.21979" lon="8.9812">
        <ele>1690.6</ele>
        <time>2015-06-26T10:29:43Z</time>
      </trkpt>
      <trkpt lat="42.21976" lon="8.98114">
        <ele>1691.2</ele>
        <time>2015-06-26T10:29:49Z</time>
      </trkpt>
      <trkpt lat="42.21978" lon="8.98112">
        <ele>1691.2</ele>
        <time>2015-06-26T10:29:51Z</time>
      </trkpt>
      <trkpt lat="42.21993" lon="8.9807">
        <ele>1690.2</ele>
        <time>2015-06-26T10:30:26Z</time>
      </trkpt>
    </trkseg>
  </trk>
</gpx>